Provisional Data: Kishacoquillas Creek near Belleville, PA


Please select a monitoring station.
Please select start date.
Please select start date.

Toggle Unit: C/F Toggle Unit: C/F
Sample Time Temperature (C) Temperature (F) Specific Conductivity (mS/cm) pH   Turbidity (NTU+) DO (mg/L)
3/23/2021 12:00:00 AM 11.37 52.466 0.388 7.98 137 9.57
3/23/2021 12:15:00 AM 11.2 52.16 0.39 7.98 208.4 9.56
3/23/2021 12:30:00 AM 11.03 51.854 0.39 7.93 228.3 9.55
3/23/2021 12:45:00 AM 10.86 51.548 0.392 7.92 142.1 9.55
3/23/2021 1:00:00 AM 10.69 51.242 0.392 7.9 160.6 9.57
3/23/2021 1:15:00 AM 10.52 50.936 0.394 7.88 136.4 9.59
3/23/2021 1:30:00 AM 10.34 50.612 0.395 7.88 138.4 9.62
3/23/2021 1:45:00 AM 10.17 50.306 0.396 7.86 124 9.65
3/23/2021 2:00:00 AM 10 50 0.397 7.82 170.6 9.69
3/23/2021 2:15:00 AM 9.82 49.676 0.397 7.83 236.8 9.74
3/23/2021 2:30:00 AM 9.64 49.352 0.398 7.82 206.8 9.78
3/23/2021 2:45:00 AM 9.46 49.028 0.399 7.78 237.7 9.82
3/23/2021 3:00:00 AM 9.29 48.722 0.4 7.78 142.4 9.88
3/23/2021 3:15:00 AM 9.12 48.416 0.4 7.78 165.8 9.93
3/23/2021 3:30:00 AM 8.95 48.11 0.401 7.77 222.3 9.98
3/23/2021 3:45:00 AM 8.78 47.804 0.401 7.78 197.8 10.02
3/23/2021 4:00:00 AM 8.62 47.516 0.401 7.76 183.1 10.08
3/23/2021 4:15:00 AM 8.46 47.228 0.402 7.78 203 10.15
3/23/2021 4:30:00 AM 8.3 46.94 0.402 7.77 133.5 10.2
3/23/2021 4:45:00 AM 8.15 46.67 0.402 7.76 174 10.25
3/23/2021 5:00:00 AM 8 46.4 0.402 7.76 206.6 10.32
3/23/2021 5:15:00 AM 7.86 46.148 0.402 7.76 167.7 10.36
3/23/2021 5:30:00 AM 7.72 45.896 0.402 7.76 141.6 10.43
3/23/2021 5:45:00 AM 7.59 45.662 0.403 7.76 146 10.47
3/23/2021 6:00:00 AM 7.47 45.446 0.402 7.76 191 10.52
3/23/2021 6:15:00 AM 7.34 45.212 0.402 7.76 402.3 10.57
3/23/2021 6:30:00 AM 7.22 44.996 0.402 7.76 222.5 10.63
3/23/2021 6:45:00 AM 7.1 44.78 0.402 7.76 315.2 10.67
3/23/2021 7:00:00 AM 7 44.6 0.402 7.76 172.6 10.72
3/23/2021 7:15:00 AM 6.89 44.402 0.402 7.75 205.1 10.76
3/23/2021 7:30:00 AM 6.81 44.258 0.401 7.77 153.5 10.86
3/23/2021 7:45:00 AM 6.72 44.096 0.401 7.77 132.7 10.98
3/23/2021 8:00:00 AM 6.66 43.988 0.401 7.77 350.4 11.11
3/23/2021 8:15:00 AM 6.61 43.898 0.4 7.78 208.7 11.29
3/23/2021 8:30:00 AM 6.58 43.844 0.401 7.78 233.7 11.46
3/23/2021 8:45:00 AM 6.57 43.826 0.4 7.8 132.1 11.69
3/23/2021 9:00:00 AM 6.59 43.862 0.4 7.81 88.41 11.93
3/23/2021 9:15:00 AM 6.64 43.952 0.399 7.84 147.9 12.23
3/23/2021 9:30:00 AM 6.71 44.078 0.399 7.85 172.6 12.5
3/23/2021 9:45:00 AM 6.78 44.204 0.398 7.87 195.6 12.74
3/23/2021 10:00:00 AM 6.87 44.366 0.398 7.89 198.7 12.96
3/23/2021 10:15:00 AM 6.97 44.546 0.397 7.92 233.9 13.19
3/23/2021 10:30:00 AM 7.12 44.816 0.397 7.94 154.3 13.38
3/23/2021 10:45:00 AM 7.25 45.05 0.396 7.96 224.2 13.56
3/23/2021 11:00:00 AM 7.41 45.338 0.396 7.99 292 13.75
3/23/2021 11:15:00 AM 7.58 45.644 0.396 8.01 198.1 13.91
3/23/2021 11:30:00 AM 7.75 45.95 0.395 8.04 124.5 14.13
3/23/2021 11:45:00 AM 7.95 46.31 0.394 8.06 168.9 14.31
3/23/2021 12:00:00 PM 8.16 46.688 0.394 8.08 403.8 14.47
3/23/2021 12:15:00 PM 8.4 47.12 0.393 8.11 285.3 14.62
3/23/2021 12:30:00 PM 8.63 47.534 0.392 8.14 229.1 14.77
3/23/2021 12:45:00 PM 8.82 47.876 0.391 8.17 145.4 14.91
3/23/2021 1:00:00 PM 9.03 48.254 0.39 8.19 163 15.02
3/23/2021 1:15:00 PM 9.28 48.704 0.389 8.22 131.5 15.13
3/23/2021 1:30:00 PM 9.5 49.1 0.388 8.25 126 15.18
3/23/2021 1:45:00 PM 9.66 49.388 0.387 8.28 138.1 15.24
3/23/2021 2:00:00 PM 9.81 49.658 0.386 8.3 158.3 15.26
3/23/2021 2:15:00 PM 9.99 49.982 0.385 8.33 107 15.31
3/23/2021 2:30:00 PM 10.15 50.27 0.384 8.35 178.1 15.31
3/23/2021 2:45:00 PM 10.35 50.63 0.384 8.38 261.1 15.35
3/23/2021 3:00:00 PM 10.55 50.99 0.384 8.4 297.8 15.42
3/23/2021 3:15:00 PM 10.72 51.296 0.382 8.42 192.5 15.36
3/23/2021 3:30:00 PM 10.87 51.566 0.382 8.44 178.9 15.29
3/23/2021 3:45:00 PM 11.03 51.854 0.381 8.46 208.5 15.26
3/23/2021 4:00:00 PM 11.19 52.142 0.38 8.48 283.8 15.2
3/23/2021 4:15:00 PM 11.33 52.394 0.38 8.5 214.8 15.07
3/23/2021 4:30:00 PM 11.48 52.664 0.379 8.52 272.4 15.05
3/23/2021 4:45:00 PM 11.6 52.88 0.379 8.53 167 14.95
3/23/2021 5:00:00 PM 11.72 53.096 0.378 8.54 177.9 14.78
3/23/2021 5:15:00 PM 11.82 53.276 0.377 8.55 132.1 14.59
3/23/2021 5:30:00 PM 11.94 53.492 0.378 8.57 256.5 14.49
3/23/2021 5:45:00 PM 12.06 53.708 0.375 8.58 249.3 14.4
3/23/2021 6:00:00 PM 12.14 53.852 0.375 8.59 335.1 14.22
3/23/2021 6:15:00 PM 12.2 53.96 0.374 8.59 176.5 13.98
3/23/2021 6:30:00 PM 12.26 54.068 0.374 8.59 239 13.7
3/23/2021 6:45:00 PM 12.31 54.158 0.374 8.58 183.3 13.37
3/23/2021 7:00:00 PM 12.35 54.23 0.374 8.57 300.1 13
3/23/2021 7:15:00 PM 12.36 54.248 0.375 8.55 133.7 12.67
3/23/2021 7:30:00 PM 12.38 54.284 0.374 8.54 248.9 12.33
3/23/2021 7:45:00 PM 12.39 54.302 0.375 8.52 114.7 11.98
3/23/2021 8:00:00 PM 12.4 54.32 0.375 8.5 287.6 11.7
3/23/2021 8:15:00 PM 12.42 54.356 0.375 8.48 252.9 11.44
3/23/2021 8:30:00 PM 12.43 54.374 0.376 8.46 220.6 11.23
3/23/2021 8:45:00 PM 12.42 54.356 0.376 8.44 249.4 11
3/23/2021 9:00:00 PM 12.41 54.338 0.377 8.42 137.5 10.83
3/23/2021 9:15:00 PM 12.39 54.302 0.378 8.39 188.8 10.66
3/23/2021 9:30:00 PM 12.36 54.248 0.378 8.37 189.8 10.5
3/23/2021 9:45:00 PM 12.32 54.176 0.38 8.34 249.7 10.36
3/23/2021 10:00:00 PM 12.28 54.104 0.38 8.31 467.9 10.23
3/23/2021 10:15:00 PM 12.24 54.032 0.382 8.27 145.6 10.09
3/23/2021 10:30:00 PM 12.18 53.924 0.383 8.24 255.1 9.96
3/23/2021 10:45:00 PM 12.12 53.816 0.384 8.2 218.5 9.85
3/23/2021 11:00:00 PM 12.07 53.726 0.386 8.16 179.9 9.75
3/23/2021 11:15:00 PM 12 53.6 0.387 8.12 219.7 9.66
3/23/2021 11:30:00 PM 11.94 53.492 0.388 8.09 331.1 9.58
3/23/2021 11:45:00 PM 11.86 53.348 0.389 8.06 185.1 9.53
3/24/2021 12:00:00 AM 11.78 53.204 0.391 8.03 267.4 9.48
3/24/2021 12:15:00 AM 11.71 53.078 0.391 8 299.2 9.43
3/24/2021 12:30:00 AM 11.64 52.952 0.393 7.97 499.1 9.39
3/24/2021 12:45:00 AM 11.56 52.808 0.394 7.95 248.6 9.37
3/24/2021 1:00:00 AM 11.49 52.682 0.395 7.93 322 9.35
3/24/2021 1:15:00 AM 11.42 52.556 0.396 7.9 280.7 9.34
3/24/2021 1:30:00 AM 11.33 52.394 0.398 7.89 148.4 9.33
3/24/2021 1:45:00 AM 11.25 52.25 0.399 7.87 405.9 9.35
3/24/2021 2:00:00 AM 11.16 52.088 0.399 7.86 516.8 9.34
3/24/2021 2:15:00 AM 11.08 51.944 0.4 7.84 258.4 9.35
3/24/2021 2:30:00 AM 10.99 51.782 0.402 7.83 275.6 9.37
3/24/2021 2:45:00 AM 10.91 51.638 0.402 7.82 197.4 9.38
3/24/2021 3:00:00 AM 10.83 51.494 0.403 7.81 242.4 9.4
3/24/2021 3:15:00 AM 10.75 51.35 0.404 7.8 189.9 9.41
3/24/2021 3:30:00 AM 10.68 51.224 0.405 7.8 207.5 9.42
3/24/2021 3:45:00 AM 10.62 51.116 0.405 7.79 244.8 9.45
3/24/2021 4:00:00 AM 10.55 50.99 0.405 7.78 229.3 9.47
3/24/2021 4:15:00 AM 10.49 50.882 0.406 7.78 216.4 9.5
3/24/2021 4:30:00 AM 10.43 50.774 0.406 7.77 242 9.51
3/24/2021 4:45:00 AM 10.37 50.666 0.406 7.77 249.8 9.53
3/24/2021 5:00:00 AM 10.32 50.576 0.406 7.77 522.6 9.55
3/24/2021 5:15:00 AM 10.26 50.468 0.406 7.76 270 9.56
3/24/2021 5:30:00 AM 10.21 50.378 0.406 7.76 273.8 9.59
3/24/2021 5:45:00 AM 10.16 50.288 0.406 7.76 193 9.61
3/24/2021 6:00:00 AM 10.11 50.198 0.406 7.76 246.7 9.62
3/24/2021 6:15:00 AM 10.07 50.126 0.406 7.76 151.6 9.63
3/24/2021 6:30:00 AM 10.02 50.036 0.406 7.76 230 9.66
3/24/2021 6:45:00 AM 9.98 49.964 0.407 7.76 206.3 9.66
3/24/2021 7:00:00 AM 9.95 49.91 0.407 7.75 328.4 9.68
3/24/2021 7:15:00 AM 9.92 49.856 0.405 7.75 367 9.7
3/24/2021 7:30:00 AM 9.9 49.82 0.422 7.74 440.6 9.74
3/24/2021 7:45:00 AM 9.9 49.82 0.41 7.74 322.7 9.78
3/24/2021 8:00:00 AM 9.84 49.712 0.404 7.75 329.1 9.8
3/24/2021 8:15:00 AM 9.82 49.676 0.403 7.74 260.7 9.83
3/24/2021 8:30:00 AM 9.8 49.64 0.403 7.75 203.6 9.91
3/24/2021 8:45:00 AM 9.79 49.622 0.404 7.75 211.4 9.99
3/24/2021 9:00:00 AM 9.78 49.604 0.403 7.75 265.9 10.04
3/24/2021 9:15:00 AM 9.78 49.604 0.401 7.76 250.8 10.14
3/24/2021 9:30:00 AM 9.78 49.604 0.399 7.73 338.8 10.27
3/24/2021 9:45:00 AM 9.8 49.64 0.396 7.77 227.2 10.41
3/24/2021 10:00:00 AM 9.82 49.676 0.392 7.76 307.9 10.51
3/24/2021 10:15:00 AM 9.85 49.73 0.388 7.77 381.6 10.58
3/24/2021 10:30:00 AM 9.88 49.784 0.386 7.76 230.6 10.68
3/24/2021 10:45:00 AM 9.92 49.856 0.384 7.76 219.8 10.81
3/24/2021 11:00:00 AM 9.95 49.91 0.384 7.78 214 10.82
3/24/2021 11:15:00 AM 9.97 49.946 0.385 7.78 231.5 10.84
3/24/2021 11:30:00 AM 9.98 49.964 0.386 7.77 354.3 10.95
3/24/2021 11:45:00 AM 10.02 50.036 0.389 7.8 220.8 11.24
3/24/2021 12:00:00 PM 10.05 50.09 0.39 7.83 223.4 11.52
3/24/2021 12:15:00 PM 10.11 50.198 0.39 7.86 290.6 11.85
3/24/2021 12:30:00 PM 10.14 50.252 0.39 7.89 418.3 12.04
3/24/2021 12:45:00 PM 10.17 50.306 0.401 7.9 284.3 12.11
3/24/2021 1:00:00 PM 10.2 50.36 0.399 7.91 393.4 12.17
3/24/2021 1:15:00 PM 10.25 50.45 0.389 7.93 337.3 12.36
3/24/2021 1:30:00 PM 10.32 50.576 0.385 7.97 286.3 12.63
3/24/2021 1:45:00 PM 10.36 50.648 0.382 8 230.3 12.83
3/24/2021 2:00:00 PM 10.41 50.738 0.379 8.03 368.8 12.95
3/24/2021 2:15:00 PM 10.44 50.792 0.378 8.05 211.5 12.99
3/24/2021 2:30:00 PM 10.49 50.882 0.377 8.07 462.4 13.06
3/24/2021 2:45:00 PM 10.53 50.954 0.376 8.08 384.6 13.09
3/24/2021 3:00:00 PM 10.57 51.026 0.376 8.1 217.6 13.07
3/24/2021 3:15:00 PM 10.6 51.08 0.376 8.1 370.3 13.03
3/24/2021 3:30:00 PM 10.64 51.152 0.377 8.11 339.1 13.03
3/24/2021 3:45:00 PM 10.69 51.242 0.377 8.11 577.1 12.99
3/24/2021 4:00:00 PM 10.74 51.332 0.377 8.12 513 13.01
3/24/2021 4:15:00 PM 10.78 51.404 0.379 8.13 470.4 12.95
3/24/2021 4:30:00 PM 10.82 51.476 0.379 8.13 457.5 12.87
3/24/2021 4:45:00 PM 10.86 51.548 0.379 8.13 311.9 12.81
3/24/2021 5:00:00 PM 10.9 51.62 0.379 8.13 414.4 12.77
3/24/2021 5:15:00 PM 10.95 51.71 0.379 8.14 292 12.78
3/24/2021 5:30:00 PM 10.98 51.764 0.38 8.14 313.3 12.68
3/24/2021 5:45:00 PM 11 51.8 0.379 8.13 512.2 12.52
3/24/2021 6:00:00 PM 11.02 51.836 0.38 8.12 393.6 12.3
3/24/2021 6:15:00 PM 11.03 51.854 0.381 8.11 389 12.11
3/24/2021 6:30:00 PM 11.05 51.89 0.381 8.09 274.4 11.93
3/24/2021 6:45:00 PM 11.06 51.908 0.382 8.08 431.5 11.8
3/24/2021 7:00:00 PM 11.08 51.944 0.383 8.06 228.9 11.66
3/24/2021 7:15:00 PM 11.09 51.962 0.387 8.05 353.4 11.49
3/24/2021 7:30:00 PM 11.09 51.962 0.388 8.03 599.4 11.31
3/24/2021 7:45:00 PM 11.09 51.962 0.391 8.01 234.9 11.14
3/24/2021 8:00:00 PM 11.09 51.962 0.39 8 352.8 10.98
3/24/2021 8:15:00 PM 11.09 51.962 0.389 7.98 340.6 10.86
3/24/2021 8:30:00 PM 11.09 51.962 0.388 7.97 506.7 10.74
3/24/2021 8:45:00 PM 11.09 51.962 0.388 7.95 400.3 10.63
3/24/2021 9:00:00 PM 11.09 51.962 0.388 7.94 403.7 10.51
3/24/2021 9:15:00 PM 11.09 51.962 0.388 7.93 356.6 10.4
3/24/2021 9:30:00 PM 11.09 51.962 0.389 7.92 335.5 10.31
3/24/2021 9:45:00 PM 11.08 51.944 0.389 7.91 480.4 10.25
3/24/2021 10:00:00 PM 11.07 51.926 0.39 7.89 375 10.18
3/24/2021 10:15:00 PM 11.07 51.926 0.39 7.88 403.6 10.1
3/24/2021 10:30:00 PM 11.05 51.89 0.391 7.87 543.1 10.02
3/24/2021 10:45:00 PM 11.04 51.872 0.392 7.85 316.7 9.95
3/24/2021 11:00:00 PM 11.03 51.854 0.392 7.84 241.6 9.89
3/24/2021 11:15:00 PM 11.02 51.836 0.393 7.84 431.9 9.83
3/24/2021 11:30:00 PM 11 51.8 0.394 7.82 241.1 9.78
3/24/2021 11:45:00 PM 10.98 51.764 0.394 7.8 511.7 9.75
3/25/2021 12:00:00 AM 10.97 51.746 0.395 7.8 424.5 9.71
3/25/2021 12:15:00 AM 10.95 51.71 0.395 7.78 345.2 9.67
3/25/2021 12:30:00 AM 10.93 51.674 0.396 7.78 377.2 9.65
3/25/2021 12:45:00 AM 10.9 51.62 0.397 7.78 304.1 9.61
3/25/2021 1:00:00 AM 10.88 51.584 0.397 7.76 336.4 9.59
3/25/2021 1:15:00 AM 10.86 51.548 0.398 7.76 320.2 9.58
3/25/2021 1:30:00 AM 10.84 51.512 0.398 7.75 317.3 9.57
3/25/2021 1:45:00 AM 10.81 51.458 0.399 7.74 354.5 9.56
3/25/2021 2:00:00 AM 10.78 51.404 0.399 7.74 402.2 9.56
3/25/2021 2:15:00 AM 10.76 51.368 0.399 7.74 437.3 9.55
3/25/2021 2:30:00 AM 10.73 51.314 0.399 7.73 312.3 9.54
3/25/2021 2:45:00 AM 10.7 51.26 0.4 7.73 303 9.53
3/25/2021 3:00:00 AM 10.68 51.224 0.4 7.72 525.8 9.53
3/25/2021 3:15:00 AM 10.65 51.17 0.4 7.72 394.9 9.54
3/25/2021 3:30:00 AM 10.62 51.116 0.401 7.73 605.4 9.55
3/25/2021 3:45:00 AM 10.6 51.08 0.401 7.72 379.5 9.55
3/25/2021 4:00:00 AM 10.57 51.026 0.4 7.72 370.6 9.56
3/25/2021 4:15:00 AM 10.54 50.972 0.401 7.71 488.6 9.56
3/25/2021 4:30:00 AM 10.52 50.936 0.401 7.7 471.2 9.56
3/25/2021 4:45:00 AM 10.49 50.882 0.401 7.71 413.4 9.57
3/25/2021 5:00:00 AM 10.47 50.846 0.401 7.72 316.6 9.57
3/25/2021 5:15:00 AM 10.45 50.81 0.401 7.71 268.3 9.58
3/25/2021 5:30:00 AM 10.42 50.756 0.401 7.72 476.5 9.59
3/25/2021 5:45:00 AM 10.4 50.72 0.401 7.7 345.7 9.6
3/25/2021 6:00:00 AM 10.37 50.666 0.402 7.7 545.4 9.61
3/25/2021 6:15:00 AM 10.35 50.63 0.402 7.7 316.5 9.61
3/25/2021 6:30:00 AM 10.33 50.594 0.401 7.7 268.3 9.62
3/25/2021 6:45:00 AM 10.31 50.558 0.401 7.7 523.2 9.62
3/25/2021 7:00:00 AM 10.29 50.522 0.401 7.7 380 9.62
3/25/2021 7:15:00 AM 10.27 50.486 0.401 7.7 343.1 9.64
3/25/2021 7:30:00 AM 10.26 50.468 0.401 7.69 600.4 9.66
3/25/2021 7:45:00 AM 10.25 50.45 0.402 7.69 325.6 9.72
3/25/2021 8:00:00 AM 10.24 50.432 0.401 7.7 390.9 9.78
3/25/2021 8:15:00 AM 10.24 50.432 0.401 7.72 479.8 9.88
3/25/2021 8:30:00 AM 10.24 50.432 0.401 7.71 317.5 10
3/25/2021 8:45:00 AM 10.25 50.45 0.401 7.72 424.2 10.13
3/25/2021 9:00:00 AM 10.26 50.468 0.401 7.73 372.6 10.25
3/25/2021 9:15:00 AM 10.27 50.486 0.401 7.75 399.7 10.42
3/25/2021 9:30:00 AM 10.29 50.522 0.401 7.76 647.5 10.59
3/25/2021 9:45:00 AM 10.33 50.594 0.401 7.78 298.9 10.84
3/25/2021 10:00:00 AM 10.38 50.684 0.4 7.8 294.7 11.14
3/25/2021 10:15:00 AM 10.43 50.774 0.4 7.83 358.4 11.43
3/25/2021 10:30:00 AM 10.48 50.864 0.4 7.85 415.7 11.68
3/25/2021 10:45:00 AM 10.57 51.026 0.4 7.88 272.8 12.02
3/25/2021 11:00:00 AM 10.72 51.296 0.399 7.93 261.5 12.41
3/25/2021 11:15:00 AM 10.86 51.548 0.399 7.97 280 12.73
3/25/2021 11:30:00 AM 11.01 51.818 0.398 8 448.5 13.01
3/25/2021 11:45:00 AM 11.19 52.142 0.397 8.04 236 13.31
3/25/2021 12:00:00 PM 11.37 52.466 0.397 8.08 345.3 13.59
3/25/2021 12:15:00 PM 11.49 52.682 0.396 8.11 325.6 13.74
3/25/2021 12:30:00 PM 11.59 52.862 0.396 8.14 466.7 13.92
3/25/2021 12:45:00 PM 11.71 53.078 0.395 8.17 489.5 14.08
3/25/2021 1:00:00 PM 11.87 53.366 0.395 8.21 453.1 14.31
3/25/2021 1:15:00 PM 12.03 53.654 0.394 8.25 401.3 14.46
3/25/2021 1:30:00 PM 12.2 53.96 0.393 8.28 394.5 14.61
3/25/2021 1:45:00 PM 12.33 54.194 0.392 8.31 376.9 14.73
3/25/2021 2:00:00 PM 12.48 54.464 0.392 8.35 257.3 14.86
3/25/2021 2:15:00 PM 12.58 54.644 0.391 8.38 276.6 14.96
3/25/2021 2:30:00 PM 12.69 54.842 0.39 8.41 452.5 14.96
3/25/2021 2:45:00 PM 12.79 55.022 0.389 8.43 287.3 15
3/25/2021 3:00:00 PM 12.92 55.256 0.388 8.45 588.6 15.01
3/25/2021 3:15:00 PM 13.06 55.508 0.387 8.48 322.2 15.08
3/25/2021 3:30:00 PM 13.17 55.706 0.387 8.5 383.9 15.08
3/25/2021 3:45:00 PM 13.29 55.922 0.387 8.52 494.7 15.02
3/25/2021 4:00:00 PM 13.4 56.12 0.387 8.53 752.3 14.99
3/25/2021 4:15:00 PM 13.5 56.3 0.386 8.54 387.1 14.89
3/25/2021 4:30:00 PM 13.58 56.444 0.384 8.56 375.1 14.77
3/25/2021 4:45:00 PM 13.66 56.588 0.383 8.56 277.5 14.57
3/25/2021 5:00:00 PM 13.72 56.696 0.382 8.57 629.4 14.38
3/25/2021 5:15:00 PM 13.77 56.786 0.382 8.57 670.4 14.19
3/25/2021 5:30:00 PM 13.83 56.894 0.382 8.58 359.8 14.04
3/25/2021 5:45:00 PM 13.89 57.002 0.382 8.58 352.7 13.89
3/25/2021 6:00:00 PM 13.95 57.11 0.38 8.58 453 13.69
3/25/2021 6:15:00 PM 13.97 57.146 0.38 8.57 286.8 13.37
3/25/2021 6:30:00 PM 13.99 57.182 0.381 8.56 297.3 13.03
3/25/2021 6:45:00 PM 13.99 57.182 0.381 8.54 325 12.6
3/25/2021 7:00:00 PM 14 57.2 0.381 8.52 318 12.24
3/25/2021 7:15:00 PM 14.02 57.236 0.382 8.5 310.1 11.9
3/25/2021 7:30:00 PM 14.03 57.254 0.382 8.48 305.8 11.62
3/25/2021 7:45:00 PM 14.04 57.272 0.382 8.46 277.7 11.33
3/25/2021 8:00:00 PM 14.04 57.272 0.383 8.44 347.8 11.01
3/25/2021 8:15:00 PM 14.03 57.254 0.383 8.41 453.8 10.73
3/25/2021 8:30:00 PM 14.03 57.254 0.384 8.38 340.2 10.51
3/25/2021 8:45:00 PM 14.02 57.236 0.384 8.35 350.4 10.3
3/25/2021 9:00:00 PM 14.01 57.218 0.385 8.33 294.3 10.14
3/25/2021 9:15:00 PM 14 57.2 0.385 8.3 345 9.96
3/25/2021 9:30:00 PM 14 57.2 0.386 8.28 433 9.81
3/25/2021 9:45:00 PM 13.99 57.182 0.387 8.24 335 9.62
3/25/2021 10:00:00 PM 13.97 57.146 0.388 8.21 309.1 9.47
3/25/2021 10:15:00 PM 13.95 57.11 0.389 8.17 433.9 9.32
3/25/2021 10:30:00 PM 13.92 57.056 0.39 8.14 265.7 9.2
3/25/2021 10:45:00 PM 13.9 57.02 0.391 8.1 249.7 9.09
3/25/2021 11:00:00 PM 13.86 56.948 0.392 8.07 389.3 9
3/25/2021 11:15:00 PM 13.82 56.876 0.393 8.03 419 8.91
3/25/2021 11:30:00 PM 13.78 56.804 0.394 8.01 327.7 8.84
3/25/2021 11:45:00 PM 13.73 56.714 0.395 7.97 295.4 8.77
3/26/2021 12:00:00 AM 13.69 56.642 0.396 7.95 269.7 8.72
3/26/2021 12:15:00 AM 13.64 56.552 0.397 7.92 303.9 8.67
3/26/2021 12:30:00 AM 13.59 56.462 0.399 7.9 430.5 8.63
3/26/2021 12:45:00 AM 13.53 56.354 0.4 7.88 291.3 8.6
3/26/2021 1:00:00 AM 13.46 56.228 0.401 7.86 291.5 8.6
3/26/2021 1:15:00 AM 13.39 56.102 0.402 7.84 344.9 8.59
3/26/2021 1:30:00 AM 13.32 55.976 0.403 7.83 380.3 8.58
3/26/2021 1:45:00 AM 13.25 55.85 0.404 7.81 296.1 8.57
3/26/2021 2:00:00 AM 13.19 55.742 0.405 7.8 268.5 8.58
3/26/2021 2:15:00 AM 13.12 55.616 0.406 7.79 337.7 8.59
3/26/2021 2:30:00 AM 13.04 55.472 0.407 7.78 382.9 8.58
3/26/2021 2:45:00 AM 12.98 55.364 0.407 7.77 362.7 8.6
3/26/2021 3:00:00 AM 12.91 55.238 0.407 7.76 346.3 8.61
3/26/2021 3:15:00 AM 12.84 55.112 0.408 7.75 302.8 8.63
3/26/2021 3:30:00 AM 12.79 55.022 0.41 7.75 286.4 8.64
3/26/2021 3:45:00 AM 12.71 54.878 0.415 7.73 513 8.65
3/26/2021 4:00:00 AM 12.63 54.734 0.411 7.73 289.6 8.66
3/26/2021 4:15:00 AM 12.56 54.608 0.409 7.73 308 8.68
3/26/2021 4:30:00 AM 12.48 54.464 0.408 7.73 267.3 8.69
3/26/2021 4:45:00 AM 12.41 54.338 0.407 7.72 307.3 8.72
3/26/2021 5:00:00 AM 12.33 54.194 0.407 7.72 252.8 8.73
3/26/2021 5:15:00 AM 12.27 54.086 0.407 7.72 261.5 8.75
3/26/2021 5:30:00 AM 12.21 53.978 0.406 7.72 302 8.79
3/26/2021 5:45:00 AM 12.15 53.87 0.406 7.71 336.8 8.79
3/26/2021 6:00:00 AM 12.1 53.78 0.405 7.71 291.6 8.78
3/26/2021 6:15:00 AM 12.05 53.69 0.404 7.68 387.8 8.79
3/26/2021 6:30:00 AM 12.01 53.618 0.404 7.69 308.2 8.78
3/26/2021 6:45:00 AM 11.96 53.528 0.403 7.69 346.3 8.78
3/26/2021 7:00:00 AM 11.92 53.456 0.409 7.69 310.5 8.77
3/26/2021 7:15:00 AM 11.88 53.384 0.405 7.68 296.2 8.78
3/26/2021 7:30:00 AM 11.84 53.312 0.405 7.67 375.5 8.85
3/26/2021 7:45:00 AM 11.82 53.276 0.406 7.69 329.2 8.95
3/26/2021 8:00:00 AM 11.82 53.276 0.407 7.68 294.5 9.08
3/26/2021 8:15:00 AM 11.84 53.312 0.408 7.71 313.5 9.24
3/26/2021 8:30:00 AM 11.86 53.348 0.408 7.73 260.4 9.4
3/26/2021 8:45:00 AM 11.9 53.42 0.407 7.74 318.8 9.64
3/26/2021 9:00:00 AM 11.95 53.51 0.407 7.76 318.5 9.88
3/26/2021 9:15:00 AM 12.02 53.636 0.406 7.78 417.1 10.18
3/26/2021 9:30:00 AM 12.12 53.816 0.406 7.81 428.6 10.51
3/26/2021 9:45:00 AM 12.22 53.996 0.405 7.83 347.1 10.82
3/26/2021 10:00:00 AM 12.33 54.194 0.404 7.87 328.3 11.13
3/26/2021 10:15:00 AM 12.44 54.392 0.403 7.9 296.1 11.43
3/26/2021 10:30:00 AM 12.56 54.608 0.402 7.92 322.9 11.74
3/26/2021 10:45:00 AM 12.68 54.824 0.401 7.95 354.8 12.01
3/26/2021 11:00:00 AM 12.83 55.094 0.401 7.99 308.6 12.28
3/26/2021 11:15:00 AM 12.99 55.382 0.4 8 377.2 12.53
3/26/2021 11:30:00 AM 13.13 55.634 0.399 8.03 401 12.72
3/26/2021 11:45:00 AM 13.23 55.814 0.399 8.07 321.1 12.9
3/26/2021 12:00:00 PM 13.36 56.048 0.398 8.1 429.8 13.08
3/26/2021 12:15:00 PM 13.46 56.228 0.398 8.13 510.8 13.26
3/26/2021 12:30:00 PM 13.65 56.57 0.397 8.16 388.4 13.47
3/26/2021 12:45:00 PM 13.84 56.912 0.395 8.2 314.2 13.67
3/26/2021 1:00:00 PM 13.91 57.038 0.394 8.23 378 13.73
3/26/2021 1:15:00 PM 14 57.2 0.394 8.25 462.1 13.82
3/26/2021 1:30:00 PM 14.12 57.416 0.394 8.28 480.6 13.89
3/26/2021 1:45:00 PM 14.31 57.758 0.392 8.32 336.1 14.03
3/26/2021 2:00:00 PM 14.44 57.992 0.392 8.34 431.8 14.12
3/26/2021 2:15:00 PM 14.52 58.136 0.391 8.37 482.2 14.11
3/26/2021 2:30:00 PM 14.56 58.208 0.39 8.39 493.7 14.1
3/26/2021 2:45:00 PM 14.6 58.28 0.391 8.41 345.8 14.06
3/26/2021 3:00:00 PM 14.65 58.37 0.391 8.42 373.1 13.96
3/26/2021 3:15:00 PM 14.71 58.478 0.391 8.44 473.2 13.96
3/26/2021 3:30:00 PM 14.76 58.568 0.39 8.45 378.5 13.94
3/26/2021 3:45:00 PM 14.76 58.568 0.39 8.47 390 13.82
3/26/2021 4:00:00 PM 14.78 58.604 0.389 8.48 280.1 13.8
3/26/2021 4:15:00 PM 14.81 58.658 0.389 8.49 425.8 13.75
3/26/2021 4:30:00 PM 14.8 58.64 0.388 8.5 407.7 13.62
3/26/2021 4:45:00 PM 14.84 58.712 0.388 8.5 319.2 13.56
3/26/2021 5:00:00 PM 14.86 58.748 0.387 8.52 301.3 13.5
3/26/2021 5:15:00 PM 14.87 58.766 0.387 8.53 412.9 13.44
3/26/2021 5:30:00 PM 14.86 58.748 0.387 8.53 338.5 13.37
3/26/2021 5:45:00 PM 14.82 58.676 0.386 8.53 327.1 13.19
3/26/2021 6:00:00 PM 14.76 58.568 0.386 8.54 250.8 12.97
3/26/2021 6:15:00 PM 14.68 58.424 0.387 8.53 360 12.73
3/26/2021 6:30:00 PM 14.58 58.244 0.387 8.52 250.4 12.45
3/26/2021 6:45:00 PM 14.48 58.064 0.387 8.5 252.5 12.14
3/26/2021 7:00:00 PM 14.38 57.884 0.387 8.48 216.5 11.81
3/26/2021 7:15:00 PM 14.27 57.686 0.388 8.45 268.5 11.49
3/26/2021 7:30:00 PM 14.15 57.47 0.389 8.42 259.5 11.17
3/26/2021 7:45:00 PM 14.02 57.236 0.39 8.39 240.6 10.89
3/26/2021 8:00:00 PM 13.89 57.002 0.391 8.36 487.8 10.63
3/26/2021 8:15:00 PM 13.78 56.804 0.391 8.33 247.5 10.43
3/26/2021 8:30:00 PM 13.68 56.624 0.392 8.3 434.3 10.26
3/26/2021 8:45:00 PM 13.59 56.462 0.393 8.28 275.1 10.1
3/26/2021 9:00:00 PM 13.5 56.3 0.393 8.25 283.3 9.98
3/26/2021 9:15:00 PM 13.42 56.156 0.394 8.23 437.9 9.85
3/26/2021 9:30:00 PM 13.33 55.994 0.395 8.2 321.3 9.74
3/26/2021 9:45:00 PM 13.23 55.814 0.396 8.17 356.3 9.65
3/26/2021 10:00:00 PM 13.13 55.634 0.397 8.14 262.7 9.56
3/26/2021 10:15:00 PM 13.02 55.436 0.398 8.1 272.8 9.47
3/26/2021 10:30:00 PM 12.93 55.274 0.399 8.07 387 9.39
3/26/2021 10:45:00 PM 12.85 55.13 0.4 8.04 239.3 9.33
3/26/2021 11:00:00 PM 12.76 54.968 0.401 8.02 289.6 9.26
3/26/2021 11:15:00 PM 12.68 54.824 0.402 7.99 298.1 9.22
3/26/2021 11:30:00 PM 12.59 54.662 0.403 7.96 288.7 9.18
3/26/2021 11:45:00 PM 12.5 54.5 0.404 7.94 340.8 9.13
3/27/2021 12:00:00 AM 12.39 54.302 0.405 7.92 232.2 9.11
3/27/2021 12:15:00 AM 12.27 54.086 0.406 7.9 311.2 9.08
3/27/2021 12:30:00 AM 12.13 53.834 0.407 7.88 334.9 9.07
3/27/2021 12:45:00 AM 12 53.6 0.408 7.87 316.8 9.06
3/27/2021 1:00:00 AM 11.87 53.366 0.408 7.85 183.7 9.07
3/27/2021 1:15:00 AM 11.73 53.114 0.409 7.84 411.4 9.08
3/27/2021 1:30:00 AM 11.61 52.898 0.409 7.83 447.9 9.09
3/27/2021 1:45:00 AM 11.48 52.664 0.41 7.82 280.4 9.12
3/27/2021 2:00:00 AM 11.37 52.466 0.411 7.81 269.5 9.12
3/27/2021 2:15:00 AM 11.29 52.322 0.412 7.8 302.7 9.14
3/27/2021 2:30:00 AM 11.21 52.178 0.413 7.8 343.5 9.16
3/27/2021 2:45:00 AM 11.14 52.052 0.413 7.79 301.7 9.17
3/27/2021 3:00:00 AM 11.04 51.872 0.414 7.79 438.7 9.2
3/27/2021 3:15:00 AM 10.93 51.674 0.414 7.78 527.1 9.23
3/27/2021 3:30:00 AM 10.81 51.458 0.415 7.77 357.2 9.26
3/27/2021 3:45:00 AM 10.69 51.242 0.415 7.77 306 9.29
3/27/2021 4:00:00 AM 10.58 51.044 0.416 7.77 292.2 9.33
3/27/2021 4:15:00 AM 10.48 50.864 0.416 7.76 375.1 9.33
3/27/2021 4:30:00 AM 10.37 50.666 0.416 7.76 301.4 9.38
3/27/2021 4:45:00 AM 10.25 50.45 0.416 7.76 388.7 9.42
3/27/2021 5:00:00 AM 10.14 50.252 0.416 7.76 391.6 9.46
3/27/2021 5:15:00 AM 10.03 50.054 0.417 7.76 268.6 9.5
3/27/2021 5:30:00 AM 9.93 49.874 0.417 7.75 371.3 9.52
3/27/2021 5:45:00 AM 9.83 49.694 0.417 7.76 336.4 9.55
3/27/2021 6:00:00 AM 9.74 49.532 0.417 7.75 366.9 9.59
3/27/2021 6:15:00 AM 9.64 49.352 0.417 7.76 327.7 9.62
3/27/2021 6:30:00 AM 9.56 49.208 0.417 7.76 350.3 9.65
3/27/2021 6:45:00 AM 9.46 49.028 0.417 7.75 370 9.69
3/27/2021 7:00:00 AM 9.38 48.884 0.417 7.75 453.2 9.71
3/27/2021 7:15:00 AM 9.29 48.722 0.417 7.75 386.5 9.79
3/27/2021 7:30:00 AM 9.21 48.578 0.417 7.75 396.1 9.87
3/27/2021 7:45:00 AM 9.14 48.452 0.417 7.76 337.2 9.98
3/27/2021 8:00:00 AM 9.08 48.344 0.416 7.77 364.9 10.15
3/27/2021 8:15:00 AM 9.04 48.272 0.417 7.78 441.4 10.33
3/27/2021 8:30:00 AM 9.02 48.236 0.416 7.79 410.2 10.54
3/27/2021 8:45:00 AM 9.03 48.254 0.416 7.8 506.6 10.81
3/27/2021 9:00:00 AM 9.05 48.29 0.416 7.82 380.1 11.07
3/27/2021 9:15:00 AM 9.1 48.38 0.415 7.84 357.5 11.36
3/27/2021 9:30:00 AM 9.17 48.506 0.415 7.87 569.8 11.66
3/27/2021 9:45:00 AM 9.26 48.668 0.408 7.89 423.6 11.97
3/27/2021 10:00:00 AM 9.36 48.848 0.414 7.92 281.4 12.26
3/27/2021 10:15:00 AM 9.49 49.082 0.413 7.94 408.3 12.51
3/27/2021 10:30:00 AM 9.63 49.334 0.413 7.96 478.1 12.81
3/27/2021 10:45:00 AM 9.78 49.604 0.412 7.99 371.2 13.02
3/27/2021 11:00:00 AM 9.94 49.892 0.412 8.01 417.2 13.22
3/27/2021 11:15:00 AM 10.06 50.108 0.412 8.03 376.3 13.35
3/27/2021 11:30:00 AM 10.25 50.45 0.412 8.05 357.5 13.56
3/27/2021 11:45:00 AM 10.47 50.846 0.412 8.08 315 13.81
3/27/2021 12:00:00 PM 10.7 51.26 0.411 8.11 343 14.03
3/27/2021 12:15:00 PM 10.93 51.674 0.41 8.14 298.3 14.23
3/27/2021 12:30:00 PM 11.16 52.088 0.409 8.17 353.5 14.38
3/27/2021 12:45:00 PM 11.38 52.484 0.409 8.2 404.7 14.52
3/27/2021 1:00:00 PM 11.61 52.898 0.408 8.21 240.6 14.64
3/27/2021 1:15:00 PM 11.82 53.276 0.406 8.26 418.6 14.78
3/27/2021 1:30:00 PM 12.02 53.636 0.405 8.29 372.2 14.88
3/27/2021 1:45:00 PM 12.23 54.014 0.404 8.32 369.9 14.99
3/27/2021 2:00:00 PM 12.4 54.32 0.403 8.34 422 15.05
3/27/2021 2:15:00 PM 12.58 54.644 0.402 8.37 331.4 15.13
3/27/2021 2:30:00 PM 12.75 54.95 0.402 8.39 292.2 15.13
3/27/2021 2:45:00 PM 12.9 55.22 0.4 8.41 250.2 15.13
3/27/2021 3:00:00 PM 13.05 55.49 0.399 8.44 911.1 15.14
3/27/2021 3:15:00 PM 13.17 55.706 0.398 8.45 271.8 15.15
3/27/2021 3:30:00 PM 13.29 55.922 0.398 8.47 321.7 15.02
3/27/2021 3:45:00 PM 13.39 56.102 0.397 8.48 335.2 14.91
3/27/2021 4:00:00 PM 13.49 56.282 0.397 8.48 524.7 14.8
3/27/2021 4:15:00 PM 13.59 56.462 0.397 8.49 363.5 14.61
3/27/2021 4:30:00 PM 13.68 56.624 0.397 8.47 433.5 14.46
3/27/2021 4:45:00 PM 13.76 56.768 0.397 8.47 304.6 14.3
3/27/2021 5:00:00 PM 13.85 56.93 0.396 8.48 295.3 14.09
3/27/2021 5:15:00 PM 13.92 57.056 0.396 8.47 317.7 13.9
3/27/2021 5:30:00 PM 13.98 57.164 0.396 8.49 463.4 13.67
3/27/2021 5:45:00 PM 14.04 57.272 0.395 8.48 332.7 13.46
3/27/2021 6:00:00 PM 14.09 57.362 0.395 8.47 469 13.2
3/27/2021 6:15:00 PM 14.15 57.47 0.395 8.46 329.8 12.94
3/27/2021 6:30:00 PM 14.19 57.542 0.395 8.45 347.4 12.71
3/27/2021 6:45:00 PM 14.2 57.56 0.396 8.44 271.3 12.4
3/27/2021 7:00:00 PM 14.22 57.596 0.395 8.42 313.2 12.14
3/27/2021 7:15:00 PM 14.23 57.614 0.396 8.4 564.7 11.8
3/27/2021 7:30:00 PM 14.22 57.596 0.397 8.37 363.6 11.47
3/27/2021 7:45:00 PM 14.21 57.578 0.398 8.34 524.3 11.13
3/27/2021 8:00:00 PM 14.18 57.524 0.399 8.31 318.8 10.79
3/27/2021 8:15:00 PM 14.16 57.488 0.399 8.28 348.6 10.51
3/27/2021 8:30:00 PM 14.13 57.434 0.399 8.24 510.8 10.28
3/27/2021 8:45:00 PM 14.09 57.362 0.4 8.21 382.6 10.05
3/27/2021 9:00:00 PM 14.06 57.308 0.401 8.18 385.2 9.87
3/27/2021 9:15:00 PM 14.02 57.236 0.401 8.15 304.8 9.69
3/27/2021 9:30:00 PM 13.97 57.146 0.402 8.12 376.2 9.54
3/27/2021 9:45:00 PM 13.92 57.056 0.402 8.09 453.4 9.39
3/27/2021 10:00:00 PM 13.85 56.93 0.403 8.06 505.3 9.27
3/27/2021 10:15:00 PM 13.79 56.822 0.404 8.04 437.3 9.16
3/27/2021 10:30:00 PM 13.72 56.696 0.405 8.02 326.7 9.07
3/27/2021 10:45:00 PM 13.64 56.552 0.405 7.99 234.9 8.99
3/27/2021 11:00:00 PM 13.55 56.39 0.406 7.97 248.1 8.9
3/27/2021 11:15:00 PM 13.46 56.228 0.407 7.95 265 8.83
3/27/2021 11:30:00 PM 13.37 56.066 0.408 7.93 548.9 8.75
3/27/2021 11:45:00 PM 13.27 55.886 0.409 7.91 274.5 8.71
3/28/2021 12:00:00 AM 13.17 55.706 0.41 7.9 337.3 8.67
3/28/2021 12:15:00 AM 13.08 55.544 0.41 7.88 365.5 8.65
3/28/2021 12:30:00 AM 12.97 55.346 0.411 7.86 355.2 8.64
3/28/2021 12:45:00 AM 12.86 55.148 0.413 7.85 411.3 8.63
3/28/2021 1:00:00 AM 12.76 54.968 0.413 7.84 303.6 8.62
3/28/2021 1:15:00 AM 12.65 54.77 0.414 7.83 275.5 8.61
3/28/2021 1:30:00 AM 12.53 54.554 0.417 7.82 305.5 8.63
3/28/2021 1:45:00 AM 12.41 54.338 0.416 7.81 419.6 8.65
3/28/2021 2:00:00 AM 12.28 54.104 0.417 7.8 414.4 8.67
3/28/2021 2:15:00 AM 12.16 53.888 0.418 7.79 371.5 8.69
3/28/2021 2:30:00 AM 12.03 53.654 0.419 7.78 382.5 8.73
3/28/2021 2:45:00 AM 11.91 53.438 0.42 7.78 380.4 8.75
3/28/2021 3:00:00 AM 11.79 53.222 0.42 7.77 431.3 8.77
3/28/2021 3:15:00 AM 11.67 53.006 0.421 7.77 472.4 8.81
3/28/2021 3:30:00 AM 11.56 52.808 0.422 7.76 298.3 8.84
3/28/2021 3:45:00 AM 11.45 52.61 0.422 7.75 399.8 8.88
3/28/2021 4:00:00 AM 11.34 52.412 0.423 7.75 340.8 8.9
3/28/2021 4:15:00 AM 11.24 52.232 0.423 7.75 328.2 8.94
3/28/2021 4:30:00 AM 11.14 52.052 0.424 7.75 354.3 8.98
3/28/2021 4:45:00 AM 11.05 51.89 0.424 7.75 375.8 9.02
3/28/2021 5:00:00 AM 10.96 51.728 0.424 7.75 400.9 9.04
3/28/2021 5:15:00 AM 10.88 51.584 0.425 7.75 380.1 9.09
3/28/2021 5:30:00 AM 10.81 51.458 0.425 7.74 495 9.11
3/28/2021 5:45:00 AM 10.74 51.332 0.425 7.74 373.6 9.14
3/28/2021 6:00:00 AM 10.69 51.242 0.424 7.74 294.4 9.17
3/28/2021 6:15:00 AM 10.63 51.134 0.425 7.75 406.9 9.2
3/28/2021 6:30:00 AM 10.58 51.044 0.425 7.75 373.7 9.24
3/28/2021 6:45:00 AM 10.52 50.936 0.425 7.75 395.9 9.26
3/28/2021 7:00:00 AM 10.47 50.846 0.425 7.75 299.8 9.27
3/28/2021 7:15:00 AM 10.43 50.774 0.427 7.74 414.6 9.3
3/28/2021 7:30:00 AM 10.39 50.702 0.441 7.74 359 9.29
3/28/2021 7:45:00 AM 10.35 50.63 0.442 7.74 430.6 9.32
3/28/2021 8:00:00 AM 10.32 50.576 0.436 7.74 308.1 9.38
3/28/2021 8:15:00 AM 10.29 50.522 0.433 7.74 379.6 9.44
3/28/2021 8:30:00 AM 10.26 50.468 0.428 7.74 435 9.52
3/28/2021 8:45:00 AM 10.24 50.432 0.427 7.75 296.9 9.61
3/28/2021 9:00:00 AM 10.24 50.432 0.429 7.75 328.9 9.66
3/28/2021 9:15:00 AM 10.22 50.396 0.426 7.76 401.4 9.73
3/28/2021 9:30:00 AM 10.21 50.378 0.423 7.77 426.8 9.81
3/28/2021 9:45:00 AM 10.2 50.36 0.422 7.77 399.3 9.86
3/28/2021 10:00:00 AM 10.2 50.36 0.42 7.78 609.8 9.99
3/28/2021 10:15:00 AM 10.21 50.378 0.418 7.78 499.6 10.09
3/28/2021 10:30:00 AM 10.21 50.378 0.416 7.79 578.8 10.19
3/28/2021 10:45:00 AM 10.24 50.432 0.412 7.8 487.2 10.34
3/28/2021 11:00:00 AM 10.28 50.504 0.41 7.8 646.6 10.51
3/28/2021 11:15:00 AM 10.32 50.576 0.408 7.81 540.6 10.65
3/28/2021 11:30:00 AM 10.36 50.648 0.405 7.81 536.9 10.74
3/28/2021 11:45:00 AM 10.4 50.72 0.402 7.82 506.2 10.8
3/28/2021 12:00:00 PM 10.45 50.81 0.4 7.83 696.7 10.87
3/28/2021 12:15:00 PM 10.48 50.864 0.398 7.83 788.9 10.92
3/28/2021 12:30:00 PM 10.5 50.9 0.397 7.83 727.2 10.87
3/28/2021 12:45:00 PM 10.53 50.954 0.395 7.84 883.2 10.87
3/28/2021 1:00:00 PM 10.57 51.026 0.395 7.84 647.6 10.97
3/28/2021 1:15:00 PM 10.62 51.116 0.395 7.86 588.5 11.14
3/28/2021 1:30:00 PM 10.7 51.26 0.396 7.88 656.1 11.45
3/28/2021 1:45:00 PM 10.75 51.35 0.398 7.91 936.8 11.58
3/28/2021 2:00:00 PM 10.78 51.404 0.399 7.92 926.3 11.6
3/28/2021 2:15:00 PM 10.81 51.458 0.4 7.94 1150 11.6
3/28/2021 2:30:00 PM 10.86 51.548 0.398 7.95 1144 11.69
3/28/2021 2:45:00 PM 10.94 51.692 0.397 7.97 1057 11.85
3/28/2021 3:00:00 PM 11.08 51.944 0.394 8 1262 12.14
3/28/2021 3:15:00 PM 11.25 52.25 0.391 8.04 1109 12.35
3/28/2021 3:30:00 PM 11.37 52.466 0.387 8.04 1166 12.16
3/28/2021 3:45:00 PM 11.42 52.556 0.397 8.02 1400 11.88
3/28/2021 4:00:00 PM 11.39 52.502 0.387 8.04 1364 12.04
3/28/2021 4:15:00 PM 11.48 52.664 0.385 8.05 1187 12.25
3/28/2021 4:30:00 PM 11.52 52.736 0.384 8.07 1382 12.31
3/28/2021 4:45:00 PM 11.54 52.772 0.383 8.07 1329 12.25
3/28/2021 5:00:00 PM 11.53 52.754 0.383 7.98 1162 11.92
3/28/2021 5:15:00 PM 11.55 52.79 0.385 8.05 1368 11.71
3/28/2021 5:30:00 PM 11.57 52.826 0.385 8.05 1349 11.68
3/28/2021 5:45:00 PM 11.59 52.862 0.382 8.04 1246 11.65
3/28/2021 6:00:00 PM 11.64 52.952 0.379 8.04 1435 11.6
3/28/2021 6:15:00 PM 11.69 53.042 0.375 8.03 1343 11.39
3/28/2021 6:30:00 PM 11.71 53.078 0.373 8.01 1325 11.07
3/28/2021 6:45:00 PM 11.73 53.114 0.37 7.93 1224 10.75
3/28/2021 7:00:00 PM 11.75 53.15 0.371 7.94 1212 10.57
3/28/2021 7:15:00 PM 11.72 53.096 0.374 7.94 1494 10.57
3/28/2021 7:30:00 PM 11.65 52.97 0.378 7.93 1229 10.54
3/28/2021 7:45:00 PM 11.56 52.808 0.38 7.93 1040 10.46
3/28/2021 8:00:00 PM 11.48 52.664 0.381 7.92 1234 10.32
3/28/2021 8:15:00 PM 11.42 52.556 0.38 7.92 1378 10.2
3/28/2021 8:30:00 PM 11.35 52.43 0.379 7.89 1229 10.1
3/28/2021 8:45:00 PM 11.27 52.286 0.375 7.89 1521 10.04
3/28/2021 9:00:00 PM 11.16 52.088 0.37 7.88 1068 9.99
3/28/2021 9:15:00 PM 11.08 51.944 0.364 7.87 1358 9.92
3/28/2021 9:30:00 PM 11.01 51.818 0.36 7.86 1338 9.83
3/28/2021 9:45:00 PM 10.93 51.674 0.357 7.85 1221 9.75
3/28/2021 10:00:00 PM 10.85 51.53 0.356 7.82 1237 9.71
3/28/2021 10:15:00 PM 10.76 51.368 0.355 7.82 1334 9.66
3/28/2021 10:30:00 PM 10.67 51.206 0.356 7.81 1486 9.62
3/28/2021 10:45:00 PM 10.57 51.026 0.358 7.8 1397 9.59
3/28/2021 11:00:00 PM 10.49 50.882 0.361 7.77 1441 9.54
3/28/2021 11:15:00 PM 10.38 50.684 0.364 7.78 1353 9.51
3/28/2021 11:30:00 PM 10.25 50.45 0.367 7.71 1311 9.5
3/28/2021 11:45:00 PM 10.13 50.234 0.369 7.78 1347 9.5
3/29/2021 12:00:00 AM 10.01 50.018 0.371 7.71 1634 9.51
3/29/2021 12:15:00 AM 9.9 49.82 0.372 7.75 1319 9.53
3/29/2021 12:30:00 AM 9.78 49.604 0.374 7.72 1272 9.56
3/29/2021 12:45:00 AM 9.66 49.388 0.376 7.76 1152 9.6
3/29/2021 1:00:00 AM 9.54 49.172 0.378 7.72 1303 9.63
3/29/2021 1:15:00 AM 9.42 48.956 0.379 7.75 1363 9.67
3/29/2021 1:30:00 AM 9.31 48.758 0.381 7.72 1299 9.7
3/29/2021 1:45:00 AM 9.2 48.56 0.382 7.76 1353 9.75
3/29/2021 2:00:00 AM 9.08 48.344 0.383 7.76 1325 9.79
3/29/2021 2:15:00 AM 8.97 48.146 0.384 7.76 1005 9.81
3/29/2021 2:30:00 AM 8.86 47.948 0.386 7.76 1332 9.85
3/29/2021 2:45:00 AM 8.75 47.75 0.387 7.75 1186 9.89
3/29/2021 3:00:00 AM 8.65 47.57 0.387 7.71 1163 9.91
3/29/2021 3:15:00 AM 8.54 47.372 0.387 7.74 1091 9.97
3/29/2021 3:30:00 AM 8.45 47.21 0.388 7.72 1393 10
3/29/2021 3:45:00 AM 8.35 47.03 0.387 7.75 1011 10.05
3/29/2021 4:00:00 AM 8.26 46.868 0.387 7.71 851.8 10.08
3/29/2021 4:15:00 AM 8.16 46.688 0.388 7.76 1168 10.12
3/29/2021 4:30:00 AM 8.07 46.526 0.388 7.75 983 10.15
3/29/2021 4:45:00 AM 7.96 46.328 0.388 7.76 909.4 10.2
3/29/2021 5:00:00 AM 7.88 46.184 0.388 7.72 930.9 10.25
3/29/2021 5:15:00 AM 7.78 46.004 0.388 7.76 820.6 10.28
3/29/2021 5:30:00 AM 7.69 45.842 0.388 7.72 899.2 10.32
3/29/2021 5:45:00 AM 7.61 45.698 0.388 7.76 636.1 10.34
3/29/2021 6:00:00 AM 7.54 45.572 0.388 7.76 995.3 10.37
3/29/2021 6:15:00 AM 7.48 45.464 0.388 7.73 1029 10.41
3/29/2021 6:30:00 AM 7.41 45.338 0.388 7.77 934.3 10.44
3/29/2021 6:45:00 AM 7.33 45.194 0.388 7.76 912.1 10.48
3/29/2021 7:00:00 AM 7.27 45.086 0.389 7.77 915 10.5
3/29/2021 7:15:00 AM 7.21 44.978 0.389 7.77 1169 10.55
3/29/2021 7:30:00 AM 7.15 44.87 0.392 7.77 818.5 10.58
3/29/2021 7:45:00 AM 7.08 44.744 0.39 7.78 1115 10.67
3/29/2021 8:00:00 AM 7.02 44.636 0.39 7.75 690.8 10.76
3/29/2021 8:15:00 AM 7 44.6 0.39 7.74 669.3 10.87
3/29/2021 8:30:00 AM 6.96 44.528 0.39 7.78 854.8 10.99
3/29/2021 8:45:00 AM 6.92 44.456 0.39 7.8 769.2 11.13
3/29/2021 9:00:00 AM 6.89 44.402 0.391 7.82 639.3 11.29
3/29/2021 9:15:00 AM 6.87 44.366 0.391 7.79 735.4 11.45
3/29/2021 9:30:00 AM 6.86 44.348 0.391 7.85 680.1 11.6
3/29/2021 9:45:00 AM 6.86 44.348 0.391 7.85 730.9 11.78
3/29/2021 10:00:00 AM 6.89 44.402 0.39 7.88 656.7 12.05
3/29/2021 10:15:00 AM 6.94 44.492 0.39 7.9 966.2 12.29
3/29/2021 10:30:00 AM 6.97 44.546 0.39 7.92 915.7 12.55
3/29/2021 10:45:00 AM 7 44.6 0.39 7.94 742.6 12.73
3/29/2021 11:00:00 AM 7.03 44.654 0.39 7.93 661.5 12.92
3/29/2021 11:15:00 AM 7.08 44.744 0.389 7.96 819.7 13.12
3/29/2021 11:30:00 AM 7.16 44.888 0.389 8.01 661.6 13.37
3/29/2021 11:45:00 AM 7.26 45.068 0.389 8 808.2 13.63
3/29/2021 12:00:00 PM 7.42 45.356 0.388 8.04 773.7 13.89
3/29/2021 12:15:00 PM 7.57 45.626 0.388 8.09 754.6 14.07
3/29/2021 12:30:00 PM 7.78 46.004 0.388 8.13 852.8 14.3
3/29/2021 12:45:00 PM 8.03 46.454 0.388 8.15 775.7 14.5
3/29/2021 1:00:00 PM 8.31 46.958 0.387 8.18 831.9 14.7
3/29/2021 1:15:00 PM 8.54 47.372 0.387 8.21 678.5 14.84
3/29/2021 1:30:00 PM 8.79 47.822 0.386 8.21 666.9 14.94
3/29/2021 1:45:00 PM 9.01 48.218 0.386 8.26 643.2 15.04
3/29/2021 2:00:00 PM 9.22 48.596 0.386 8.27 800.4 15.14
3/29/2021 2:15:00 PM 9.44 48.992 0.385 8.29 862.6 15.19
3/29/2021 2:30:00 PM 9.64 49.352 0.384 8.34 912.1 15.24
3/29/2021 2:45:00 PM 9.84 49.712 0.383 8.36 681.6 15.25
3/29/2021 3:00:00 PM 10.03 50.054 0.383 8.38 756.7 15.28
3/29/2021 3:15:00 PM 10.21 50.378 0.383 8.4 941.4 15.27
3/29/2021 3:30:00 PM 10.38 50.684 0.383 8.41 929.4 15.25
3/29/2021 3:45:00 PM 10.54 50.972 0.382 8.43 864.8 15.24
3/29/2021 4:00:00 PM 10.67 51.206 0.381 8.44 790.8 15.19
3/29/2021 4:15:00 PM 10.81 51.458 0.381 8.45 1059 15.18
3/29/2021 4:30:00 PM 10.94 51.692 0.381 8.46 830.2 15.14
3/29/2021 4:45:00 PM 11.07 51.926 0.38 8.47 648 15.09
3/29/2021 5:00:00 PM 11.18 52.124 0.38 8.48 607.2 14.99
3/29/2021 5:15:00 PM 11.28 52.304 0.38 8.48 673.8 14.84
3/29/2021 5:30:00 PM 11.36 52.448 0.379 8.48 651.9 14.67
3/29/2021 5:45:00 PM 11.43 52.574 0.379 8.48 572.6 14.5
3/29/2021 6:00:00 PM 11.49 52.682 0.38 8.48 959.2 14.31
3/29/2021 6:15:00 PM 11.52 52.736 0.38 8.47 851 14.07
3/29/2021 6:30:00 PM 11.55 52.79 0.379 8.46 973.7 13.82
3/29/2021 6:45:00 PM 11.57 52.826 0.38 8.44 813.3 13.5
3/29/2021 7:00:00 PM 11.59 52.862 0.381 8.42 1026 13.16
3/29/2021 7:15:00 PM 11.61 52.898 0.383 8.39 968.7 12.81
3/29/2021 7:30:00 PM 11.61 52.898 0.387 8.35 1027 12.49
3/29/2021 7:45:00 PM 11.61 52.898 0.39 8.33 1029 12.13
3/29/2021 8:00:00 PM 11.61 52.898 0.39 8.29 1099 11.81
3/29/2021 8:15:00 PM 11.6 52.88 0.388 8.26 1079 11.52
3/29/2021 8:30:00 PM 11.6 52.88 0.387 8.23 983.4 11.26
3/29/2021 8:45:00 PM 11.59 52.862 0.386 8.2 1027 11.02
3/29/2021 9:00:00 PM 11.56 52.808 0.386 8.17 994.4 10.82
3/29/2021 9:15:00 PM 11.53 52.754 0.386 8.14 862.2 10.63
3/29/2021 9:30:00 PM 11.48 52.664 0.386 8.11 1066 10.46
3/29/2021 9:45:00 PM 11.42 52.556 0.387 8.09 935.2 10.32
3/29/2021 10:00:00 PM 11.35 52.43 0.387 8.04 1094 10.17
3/29/2021 10:15:00 PM 11.29 52.322 0.388 8.04 962.9 10.05
3/29/2021 10:30:00 PM 11.21 52.178 0.389 8.01 919.3 9.94
3/29/2021 10:45:00 PM 11.14 52.052 0.389 7.99 928.7 9.83
3/29/2021 11:00:00 PM 11.07 51.926 0.39 7.97 829.2 9.75
3/29/2021 11:15:00 PM 10.99 51.782 0.39 7.95 929.3 9.67
3/29/2021 11:30:00 PM 10.91 51.638 0.391 7.93 909.2 9.6
3/29/2021 11:45:00 PM 10.82 51.476 0.391 7.92 978.2 9.53
3/30/2021 12:00:00 AM 10.74 51.332 0.392 7.88 1015 9.49
3/30/2021 12:15:00 AM 10.64 51.152 0.392 7.88 1102 9.44
3/30/2021 12:30:00 AM 10.53 50.954 0.393 7.87 1603 9.43
3/30/2021 12:45:00 AM 10.42 50.756 0.394 7.86 1222 9.41
3/30/2021 1:00:00 AM 10.3 50.54 0.395 7.84 1115 9.41
3/30/2021 1:15:00 AM 10.18 50.324 0.396 7.83 1149 9.42
3/30/2021 1:30:00 AM 10.05 50.09 0.397 7.83 1199 9.43
3/30/2021 1:45:00 AM 9.92 49.856 0.397 7.81 1299 9.43
3/30/2021 2:00:00 AM 9.78 49.604 0.398 7.8 1160 9.44
3/30/2021 2:15:00 AM 9.65 49.37 0.399 7.79 1191 9.47
3/30/2021 2:30:00 AM 9.51 49.118 0.399 7.79 1183 9.53
3/30/2021 2:45:00 AM 9.37 48.866 0.4 7.78 1204 9.58
3/30/2021 3:00:00 AM 9.23 48.614 0.4 7.78 1293 9.63
3/30/2021 3:15:00 AM 9.09 48.362 0.401 7.78 1332 9.68
3/30/2021 3:30:00 AM 8.95 48.11 0.401 7.77 1271 9.74
3/30/2021 3:45:00 AM 8.81 47.858 0.402 7.77 1255 9.81
3/30/2021 4:00:00 AM 8.67 47.606 0.402 7.77 1555 9.87
3/30/2021 4:15:00 AM 8.52 47.336 0.402 7.76 1597 9.92
3/30/2021 4:30:00 AM 8.38 47.084 0.402 7.76 1183 9.97
3/30/2021 4:45:00 AM 8.25 46.85 0.403 7.76 1376 10.03
3/30/2021 5:00:00 AM 8.11 46.598 0.403 7.73 1205 10.08
3/30/2021 5:15:00 AM 7.98 46.364 0.403 7.73 1353 10.13
3/30/2021 5:30:00 AM 7.85 46.13 0.404 7.73 1290 10.18
3/30/2021 5:45:00 AM 7.72 45.896 0.404 7.76 1302 10.24
3/30/2021 6:00:00 AM 7.6 45.68 0.404 7.76 1301 10.29
3/30/2021 6:15:00 AM 7.48 45.464 0.404 7.76 1554 10.34
3/30/2021 6:30:00 AM 7.37 45.266 0.404 7.76 1420 10.38
3/30/2021 6:45:00 AM 7.26 45.068 0.404 7.76 1336 10.42
3/30/2021 7:00:00 AM 7.16 44.888 0.404 7.76 1377 10.49
3/30/2021 7:15:00 AM 7.06 44.708 0.405 7.76 1661 10.54
3/30/2021 7:30:00 AM 6.98 44.564 0.404 7.76 1318 10.64
3/30/2021 7:45:00 AM 6.9 44.42 0.404 7.77 1384 10.78
3/30/2021 8:00:00 AM 6.84 44.312 0.404 7.78 1402 10.97
3/30/2021 8:15:00 AM 6.79 44.222 0.404 7.78 1412 11.13
3/30/2021 8:30:00 AM 6.77 44.186 0.404 7.8 1616 11.38
3/30/2021 8:45:00 AM 6.77 44.186 0.404 7.81 1384 11.61
3/30/2021 9:00:00 AM 6.8 44.24 0.403 7.83 1355 11.87
3/30/2021 9:15:00 AM 6.85 44.33 0.403 7.85 1182 12.15
3/30/2021 9:30:00 AM 6.93 44.474 0.403 7.87 1353 12.42
3/30/2021 9:45:00 AM 7.02 44.636 0.402 7.89 1371 12.69
3/30/2021 10:00:00 AM 7.15 44.87 0.402 7.92 1560 12.97
3/30/2021 10:15:00 AM 7.29 45.122 0.402 7.94 1562 13.2
3/30/2021 10:30:00 AM 7.44 45.392 0.402 7.96 1128 13.44
3/30/2021 10:45:00 AM 7.61 45.698 0.401 7.93 1494 13.64
3/30/2021 11:00:00 AM 7.8 46.04 0.401 7.99 2007 13.86
3/30/2021 11:15:00 AM 8 46.4 0.401 8.01 1783 14.04
3/30/2021 11:30:00 AM 8.22 46.796 0.4 8.03 1432 14.22
3/30/2021 11:45:00 AM 8.46 47.228 0.4 8.06 1434 14.39
3/30/2021 12:00:00 PM 8.7 47.66 0.399 8.11 1388 14.57
3/30/2021 12:15:00 PM 8.96 48.128 0.399 8.14 1393 14.72
3/30/2021 12:30:00 PM 9.23 48.614 0.397 8.17 1480 14.86
3/30/2021 12:45:00 PM 9.5 49.1 0.397 8.2 1315 14.96
3/30/2021 1:00:00 PM 9.79 49.622 0.389 8.22 1535 15.07
3/30/2021 1:15:00 PM 10.07 50.126 0.396 8.25 1422 15.16
3/30/2021 1:30:00 PM 10.35 50.63 0.395 8.28 1453 15.21
3/30/2021 1:45:00 PM 10.63 51.134 0.395 8.3 1455 15.27
3/30/2021 2:00:00 PM 10.91 51.638 0.394 8.33 1378 15.32
3/30/2021 2:15:00 PM 11.2 52.16 0.393 8.35 1461 15.32
3/30/2021 2:30:00 PM 11.46 52.628 0.392 8.37 1563 15.31
3/30/2021 2:45:00 PM 11.74 53.132 0.392 8.39 1468 15.33
3/30/2021 3:00:00 PM 12.01 53.618 0.391 8.41 1513 15.32
3/30/2021 3:15:00 PM 12.26 54.068 0.39 8.43 1179 15.34
3/30/2021 3:30:00 PM 12.48 54.464 0.39 8.45 1030 15.29
3/30/2021 3:45:00 PM 12.68 54.824 0.39 8.46 1296 15.25
3/30/2021 4:00:00 PM 12.89 55.202 0.389 8.48 1301 15.18
3/30/2021 4:15:00 PM 13.05 55.49 0.389 8.49 2477 15.12
3/30/2021 4:30:00 PM 13.22 55.796 0.389 8.5 1699 15.04
3/30/2021 4:45:00 PM 13.37 56.066 0.388 8.51 1471 14.91
3/30/2021 5:00:00 PM 13.52 56.336 0.388 8.52 1620 14.74
3/30/2021 5:15:00 PM 13.66 56.588 0.387 8.52 1614 14.59
3/30/2021 5:30:00 PM 13.74 56.732 0.387 8.52 1431 14.41
3/30/2021 5:45:00 PM 13.83 56.894 0.387 8.52 1467 14.17
3/30/2021 6:00:00 PM 13.88 56.984 0.387 8.51 1726 13.91
3/30/2021 6:15:00 PM 13.92 57.056 0.387 8.5 1565 13.64
3/30/2021 6:30:00 PM 13.94 57.092 0.388 8.48 1816 13.3
3/30/2021 6:45:00 PM 13.96 57.128 0.388 8.46 1994 12.93
3/30/2021 7:00:00 PM 13.97 57.146 0.389 8.44 1998 12.52
3/30/2021 7:15:00 PM 13.97 57.146 0.39 8.4 2201 12.08
3/30/2021 7:30:00 PM 13.96 57.128 0.391 8.37 1900 11.69
3/30/2021 7:45:00 PM 13.93 57.074 0.392 8.33 1697 11.31
3/30/2021 8:00:00 PM 13.92 57.056 0.393 8.3 1787 10.95
3/30/2021 8:15:00 PM 13.91 57.038 0.393 8.26 1817 10.67
3/30/2021 8:30:00 PM 13.89 57.002 0.394 8.22 1842 10.39
3/30/2021 8:45:00 PM 13.86 56.948 0.394 8.19 1836 10.16
3/30/2021 9:00:00 PM 13.82 56.876 0.395 8.16 1662 9.94
3/30/2021 9:15:00 PM 13.77 56.786 0.395 8.13 1987 9.74
3/30/2021 9:30:00 PM 13.73 56.714 0.396 8.1 1759 9.58
3/30/2021 9:45:00 PM 13.67 56.606 0.396 8.07 1915 9.42
3/30/2021 10:00:00 PM 13.63 56.534 0.397 8.04 1985 9.3
3/30/2021 10:15:00 PM 13.58 56.444 0.398 8.01 2136 9.15
3/30/2021 10:30:00 PM 13.52 56.336 0.398 7.98 1900 9.03
3/30/2021 10:45:00 PM 13.45 56.21 0.399 7.96 1896 8.94
3/30/2021 11:00:00 PM 13.38 56.084 0.4 7.93 2012 8.84
3/30/2021 11:15:00 PM 13.3 55.94 0.401 7.91 1964 8.76
3/30/2021 11:30:00 PM 13.21 55.778 0.401 7.89 2083 8.69
3/30/2021 11:45:00 PM 13.13 55.634 0.402 7.88 2005 8.64
3/31/2021 12:00:00 AM 13.04 55.472 0.403 7.87 1919 8.62
3/31/2021 12:15:00 AM 12.93 55.274 0.403 7.85 1842 8.57
3/31/2021 12:30:00 AM 12.8 55.04 0.404 7.83 1926 8.57
3/31/2021 12:45:00 AM 12.69 54.842 0.405 7.83 2021 8.54
3/31/2021 1:00:00 AM 12.58 54.644 0.405 7.82 2011 8.54
3/31/2021 1:15:00 AM 12.47 54.446 0.406 7.81 1954 8.55
3/31/2021 1:30:00 AM 12.35 54.23 0.407 7.8 1945 8.57
3/31/2021 1:45:00 AM 12.24 54.032 0.407 7.79 2072 8.59
3/31/2021 2:00:00 AM 12.11 53.798 0.408 7.78 2280 8.6
3/31/2021 2:15:00 AM 12 53.6 0.408 7.77 2338 8.64
3/31/2021 2:30:00 AM 11.87 53.366 0.409 7.77 2162 8.67
3/31/2021 2:45:00 AM 11.74 53.132 0.41 7.76 2201 8.71
3/31/2021 3:00:00 AM 11.62 52.916 0.41 7.76 2180 8.74
3/31/2021 3:15:00 AM 11.49 52.682 0.411 7.75 2204 8.79
3/31/2021 3:30:00 AM 11.38 52.484 0.411 7.75 2363 8.82
3/31/2021 3:45:00 AM 11.26 52.268 0.412 7.75 2233 8.87
3/31/2021 4:00:00 AM 11.14 52.052 0.412 7.74 2238 8.91
3/31/2021 4:15:00 AM 11.02 51.836 0.413 7.74 2139 8.94
3/31/2021 4:30:00 AM 10.91 51.638 0.413 7.74 2206 9
3/31/2021 4:45:00 AM 10.79 51.422 0.413 7.74 1880 9.05
3/31/2021 5:00:00 AM 10.69 51.242 0.413 7.67 1906 9.08
3/31/2021 5:15:00 AM 10.58 51.044 0.413 7.71 2123 9.12
3/31/2021 5:30:00 AM 10.48 50.864 0.413 7.73 2067 9.17
3/31/2021 5:45:00 AM 10.38 50.684 0.414 7.74 1872 9.22
3/31/2021 6:00:00 AM 10.28 50.504 0.414 7.74 2191 9.25
3/31/2021 6:15:00 AM 10.18 50.324 0.414 7.73 2041 9.29
3/31/2021 6:30:00 AM 10.09 50.162 0.414 7.72 1903 9.32
3/31/2021 6:45:00 AM 9.98 49.964 0.414 7.74 2546 9.37
3/31/2021 7:00:00 AM 9.89 49.802 0.414 7.74 2242 9.42
3/31/2021 7:15:00 AM 9.8 49.64 0.414 7.74 2110 9.49
3/31/2021 7:30:00 AM 9.73 49.514 0.413 7.74 2129 9.58
3/31/2021 7:45:00 AM 9.67 49.406 0.414 7.75 2353 9.73
3/31/2021 8:00:00 AM 9.62 49.316 0.413 7.76 2271 9.92
3/31/2021 8:15:00 AM 9.59 49.262 0.413 7.77 2018 10.13
3/31/2021 8:30:00 AM 9.56 49.208 0.412 7.79 2236 10.36
3/31/2021 8:45:00 AM 9.54 49.172 0.412 7.8 2004 10.61
3/31/2021 9:00:00 AM 9.54 49.172 0.412 7.82 2297 10.88
3/31/2021 9:15:00 AM 9.54 49.172 0.412 7.84 1936 11.07
3/31/2021 9:30:00 AM 9.53 49.154 0.411 7.85 2157 11.11
3/31/2021 9:45:00 AM 9.52 49.136 0.414 7.84 2254 11.04
3/31/2021 10:00:00 AM 9.5 49.1 0.413 7.84 2305 10.98
3/31/2021 10:15:00 AM 9.48 49.064 0.412 7.83 2059 10.92
3/31/2021 10:30:00 AM 9.47 49.046 0.437 7.76 1919 10.92
3/31/2021 10:45:00 AM 9.48 49.064 0.429 7.77 1996 11.01
3/31/2021 11:00:00 AM 9.48 49.064 0.42 7.79 2562 11.13
3/31/2021 11:15:00 AM 9.48 49.064 0.415 7.83 2270 11.29
3/31/2021 11:30:00 AM 9.48 49.064 0.412 7.86 2047 11.39
3/31/2021 11:45:00 AM 9.48 49.064 0.413 7.87 2090 11.42
3/31/2021 12:00:00 PM 9.52 49.136 0.414 7.88 2204 11.47
3/31/2021 12:15:00 PM 9.52 49.136 0.411 7.89 2004 11.54
3/31/2021 12:30:00 PM 9.54 49.172 0.408 7.9 2031 11.72
3/31/2021 12:45:00 PM 9.57 49.226 0.406 7.93 2209 11.9
3/31/2021 1:00:00 PM 9.6 49.28 0.405 7.94 2236 11.97
3/31/2021 1:15:00 PM 9.63 49.334 0.403 7.95 2003 12.02
3/31/2021 1:30:00 PM 9.66 49.388 0.4 7.95 2185 11.97
3/31/2021 1:45:00 PM 9.7 49.46 0.397 7.95 1985 11.95
3/31/2021 2:00:00 PM 9.75 49.55 0.396 7.96 2152 12.02
3/31/2021 2:15:00 PM 9.8 49.64 0.394 7.95 2202 12.03
3/31/2021 2:30:00 PM 9.84 49.712 0.393 7.96 2042 11.99
3/31/2021 2:45:00 PM 9.88 49.784 0.391 7.96 2223 11.97
3/31/2021 3:00:00 PM 9.93 49.874 0.39 7.95 1756 11.98
3/31/2021 3:15:00 PM 9.98 49.964 0.391 7.96 1937 11.98
3/31/2021 3:30:00 PM 10.02 50.036 0.391 7.9 1942 11.95
3/31/2021 3:45:00 PM 10.05 50.09 0.391 7.96 1837 11.96
3/31/2021 4:00:00 PM 10.08 50.144 0.392 7.98 2040 11.97
3/31/2021 4:15:00 PM 10.09 50.162 0.392 7.98 1895 11.96
3/31/2021 4:30:00 PM 10.11 50.198 0.392 7.99 2224 11.95
3/31/2021 4:45:00 PM 10.14 50.252 0.391 8 2142 11.97
3/31/2021 5:00:00 PM 10.17 50.306 0.39 8 2064 11.89
3/31/2021 5:15:00 PM 10.19 50.342 0.388 8 2047 11.75
3/31/2021 5:30:00 PM 10.2 50.36 0.386 7.98 1905 11.58
3/31/2021 5:45:00 PM 10.24 50.432 0.383 7.98 1884 11.55
3/31/2021 6:00:00 PM 10.27 50.486 0.381 7.97 1717 11.5
3/31/2021 6:15:00 PM 10.3 50.54 0.38 7.97 1954 11.46
3/31/2021 6:30:00 PM 10.32 50.576 0.379 7.96 2089 11.31
3/31/2021 6:45:00 PM 10.35 50.63 0.379 7.95 2067 11.17
3/31/2021 7:00:00 PM 10.38 50.684 0.379 7.94 2253 11.03
3/31/2021 7:15:00 PM 10.4 50.72 0.38 7.92 1947 10.89
3/31/2021 7:30:00 PM 10.42 50.756 0.381 7.9 1796 10.75
3/31/2021 7:45:00 PM 10.45 50.81 0.382 7.89 1933 10.59
3/31/2021 8:00:00 PM 10.47 50.846 0.383 7.87 2166 10.46
3/31/2021 8:15:00 PM 10.49 50.882 0.384 7.86 1645 10.33
3/31/2021 8:30:00 PM 10.51 50.918 0.386 7.85 2398 10.23
3/31/2021 8:45:00 PM 10.51 50.918 0.386 7.83 2119 10.13
3/31/2021 9:00:00 PM 10.52 50.936 0.387 7.83 2334 10.06
3/31/2021 9:15:00 PM 10.53 50.954 0.388 7.82 2473 9.98
3/31/2021 9:30:00 PM 10.52 50.936 0.389 7.8 2315 9.92
3/31/2021 9:45:00 PM 10.5 50.9 0.389 7.81 2291 9.86
3/31/2021 10:00:00 PM 10.48 50.864 0.39 7.78 1885 9.81
3/31/2021 10:15:00 PM 10.45 50.81 0.39 7.78 1938 9.78
3/31/2021 10:30:00 PM 10.42 50.756 0.391 7.79 2244 9.72
3/31/2021 10:45:00 PM 10.39 50.702 0.391 7.78 2464 9.69
3/31/2021 11:00:00 PM 10.36 50.648 0.392 7.75 1745 9.65
3/31/2021 11:15:00 PM 10.32 50.576 0.392 7.77 2105 9.64
3/31/2021 11:30:00 PM 10.29 50.522 0.392 7.76 2122 9.6
3/31/2021 11:45:00 PM 10.25 50.45 0.393 7.76 2338 9.58
4/1/2021 12:00:00 AM 10.21 50.378 0.393 7.76 2170 9.56
4/1/2021 12:15:00 AM 10.18 50.324 0.393 7.75 2732 9.56
4/1/2021 12:30:00 AM 10.15 50.27 0.393 7.75 2510 9.54
4/1/2021 12:45:00 AM 10.1 50.18 0.393 7.75 1771 9.55
4/1/2021 1:00:00 AM 10.04 50.072 0.393 7.75 2186 9.56
4/1/2021 1:15:00 AM 9.95 49.91 0.393 7.74 2090 9.57
4/1/2021 1:30:00 AM 9.83 49.694 0.401 7.75 2154 9.6
4/1/2021 1:45:00 AM 9.78 49.604 0.397 7.74 2093 9.6
4/1/2021 2:00:00 AM 9.69 49.442 0.396 7.75 1934 9.62
4/1/2021 2:15:00 AM 9.63 49.334 0.396 7.75 2499 9.64
4/1/2021 2:30:00 AM 9.55 49.19 0.394 7.74 2439 9.66
4/1/2021 2:45:00 AM 9.51 49.118 0.395 7.75 1907 9.67
4/1/2021 3:00:00 AM 9.47 49.046 0.394 7.75 1914 9.68
4/1/2021 3:15:00 AM 9.42 48.956 0.394 7.75 2321 9.7
4/1/2021 3:30:00 AM 9.37 48.866 0.393 7.75 2452 9.71
4/1/2021 3:45:00 AM 9.31 48.758 0.393 7.75 2354 9.74
4/1/2021 4:00:00 AM 9.25 48.65 0.392 7.75 2686 9.75
4/1/2021 4:15:00 AM 9.19 48.542 0.391 7.74 1978 9.77
4/1/2021 4:30:00 AM 9.13 48.434 0.389 7.74 1740 9.77
4/1/2021 4:45:00 AM 9.06 48.308 0.388 7.74 1904 9.79
4/1/2021 5:00:00 AM 8.99 48.182 0.387 7.74 2224 9.8
4/1/2021 5:15:00 AM 8.91 48.038 0.386 7.73 2303 9.82
4/1/2021 5:30:00 AM 8.84 47.912 0.385 7.73 2640 9.84
4/1/2021 5:45:00 AM 8.78 47.804 0.385 7.74 2116 9.9
4/1/2021 6:00:00 AM 8.72 47.696 0.386 7.73 2293 9.91
4/1/2021 6:15:00 AM 8.67 47.606 0.386 7.74 2477 9.95
4/1/2021 6:30:00 AM 8.62 47.516 0.387 7.74 2232 9.97
4/1/2021 6:45:00 AM 8.57 47.426 0.388 7.66 2381 10
4/1/2021 7:00:00 AM 8.53 47.354 0.388 7.74 2385 10.02
4/1/2021 7:15:00 AM 8.49 47.282 0.388 7.75 2533 10.04
4/1/2021 7:30:00 AM 8.43 47.174 0.387 7.74 2388 10.08
4/1/2021 7:45:00 AM 8.38 47.084 0.387 7.75 1730 10.13
4/1/2021 8:00:00 AM 8.33 46.994 0.385 7.66 1639 10.2
4/1/2021 8:15:00 AM 8.28 46.904 0.383 7.76 2247 10.29
4/1/2021 8:30:00 AM 8.23 46.814 0.382 7.75 1992 10.35
4/1/2021 8:45:00 AM 8.18 46.724 0.381 7.77 1464 10.48
4/1/2021 9:00:00 AM 8.15 46.67 0.38 7.78 1519 10.67
4/1/2021 9:15:00 AM 8.13 46.634 0.38 7.8 1774 10.91
4/1/2021 9:30:00 AM 8.11 46.598 0.38 7.81 1827 11.16
4/1/2021 9:45:00 AM 8.12 46.616 0.38 7.82 1711 11.43
4/1/2021 10:00:00 AM 8.12 46.616 0.381 7.85 1655 11.62
4/1/2021 10:15:00 AM 8.13 46.634 0.382 7.87 1907 11.78
4/1/2021 10:30:00 AM 8.12 46.616 0.383 7.81 1853 11.86
4/1/2021 10:45:00 AM 8.11 46.598 0.384 7.88 1721 11.89
4/1/2021 11:00:00 AM 8.11 46.598 0.384 7.9 1738 12
4/1/2021 11:15:00 AM 8.12 46.616 0.385 7.91 1819 12.11
4/1/2021 11:30:00 AM 8.16 46.688 0.385 7.92 1751 12.4
4/1/2021 11:45:00 AM 8.22 46.796 0.385 7.96 1951 12.65
4/1/2021 12:00:00 PM 8.29 46.922 0.385 7.97 1624 12.95
4/1/2021 12:15:00 PM 8.32 46.976 0.386 7.99 1628 13.1
4/1/2021 12:30:00 PM 8.32 46.976 0.386 8.03 1855 13.19
4/1/2021 12:45:00 PM 8.32 46.976 0.387 8.04 1786 13.21
4/1/2021 1:00:00 PM 8.35 47.03 0.387 8.06 1721 13.34
4/1/2021 1:15:00 PM 8.44 47.192 0.387 8.08 1880 13.63
4/1/2021 1:30:00 PM 8.54 47.372 0.386 8.13 1643 13.92
4/1/2021 1:45:00 PM 8.58 47.444 0.386 8.13 2068 14.02
4/1/2021 2:00:00 PM 8.59 47.462 0.386 8.18 1872 14.11
4/1/2021 2:15:00 PM 8.63 47.534 0.386 8.21 1811 14.22
4/1/2021 2:30:00 PM 8.73 47.714 0.385 8.22 1738 14.35
4/1/2021 2:45:00 PM 8.86 47.948 0.384 8.26 1811 14.58
4/1/2021 3:00:00 PM 9.02 48.236 0.383 8.29 1926 14.8
4/1/2021 3:15:00 PM 9.13 48.434 0.382 8.32 2283 14.91
4/1/2021 3:30:00 PM 9.17 48.506 0.382 8.33 1860 14.88
4/1/2021 3:45:00 PM 9.26 48.668 0.382 8.35 1945 14.9
4/1/2021 4:00:00 PM 9.4 48.92 0.381 8.37 1890 14.97
4/1/2021 4:15:00 PM 9.53 49.154 0.38 8.36 1810 15
4/1/2021 4:30:00 PM 9.51 49.118 0.38 8.4 1741 14.85
4/1/2021 4:45:00 PM 9.45 49.01 0.38 8.4 1746 14.65
4/1/2021 5:00:00 PM 9.38 48.884 0.38 8.35 1713 14.47
4/1/2021 5:15:00 PM 9.36 48.848 0.38 8.36 1604 14.39
4/1/2021 5:30:00 PM 9.37 48.866 0.38 8.37 1957 14.36
4/1/2021 5:45:00 PM 9.4 48.92 0.379 8.41 1843 14.33
4/1/2021 6:00:00 PM 9.39 48.902 0.38 8.41 1845 14.2
4/1/2021 6:15:00 PM 9.36 48.848 0.38 8.37 1895 14.06
4/1/2021 6:30:00 PM 9.28 48.704 0.38 8.41 1977 13.87
4/1/2021 6:45:00 PM 9.19 48.542 0.381 8.38 1660 13.58
4/1/2021 7:00:00 PM 9.13 48.434 0.381 8.37 1674 13.34
4/1/2021 7:15:00 PM 9.07 48.326 0.383 8.25 1736 13.07
4/1/2021 7:30:00 PM 8.98 48.164 0.386 8.31 1878 12.8
4/1/2021 7:45:00 PM 8.91 48.038 0.389 8.28 1535 12.52
4/1/2021 8:00:00 PM 8.84 47.912 0.39 8.21 1687 12.27
4/1/2021 8:15:00 PM 8.74 47.732 0.388 8.18 1901 12.05
4/1/2021 8:30:00 PM 8.64 47.552 0.387 8.18 1423 11.87
4/1/2021 8:45:00 PM 8.53 47.354 0.386 8.16 1984 11.74
4/1/2021 9:00:00 PM 8.42 47.156 0.386 8.13 1910 11.58
4/1/2021 9:15:00 PM 8.31 46.958 0.386 8.11 1797 11.48
4/1/2021 9:30:00 PM 8.21 46.778 0.387 8.09 1541 11.39
4/1/2021 9:45:00 PM 8.11 46.598 0.387 8.07 1432 11.3
4/1/2021 10:00:00 PM 8.01 46.418 0.388 8.04 1764 11.21
4/1/2021 10:15:00 PM 7.92 46.256 0.389 8.03 1900 11.14
4/1/2021 10:30:00 PM 7.83 46.094 0.389 8.01 1709 11.06
4/1/2021 10:45:00 PM 7.73 45.914 0.39 7.99 1595 11.01
4/1/2021 11:00:00 PM 7.65 45.77 0.39 7.97 1494 10.93
4/1/2021 11:15:00 PM 7.58 45.644 0.391 7.95 1866 10.88
4/1/2021 11:30:00 PM 7.52 45.536 0.392 7.94 2005 10.82
4/1/2021 11:45:00 PM 7.46 45.428 0.392 7.92 1820 10.8
4/2/2021 12:00:00 AM 7.38 45.284 0.393 7.91 1874 10.78
4/2/2021 12:15:00 AM 7.29 45.122 0.394 7.9 1482 10.76
4/2/2021 12:30:00 AM 7.18 44.924 0.394 7.9 2288 10.73
4/2/2021 12:45:00 AM 7.07 44.726 0.395 7.88 1595 10.74
4/2/2021 1:00:00 AM 6.98 44.564 0.395 7.87 1572 10.74
4/2/2021 1:15:00 AM 6.9 44.42 0.395 7.86 2277 10.74
4/2/2021 1:30:00 AM 6.8 44.24 0.396 7.86 1831 10.76
4/2/2021 1:45:00 AM 6.69 44.042 0.397 7.86 1836 10.78
4/2/2021 2:00:00 AM 6.59 43.862 0.397 7.85 1825 10.79
4/2/2021 2:15:00 AM 6.49 43.682 0.398 7.85 1603 10.81
4/2/2021 2:30:00 AM 6.37 43.466 0.398 7.84 1771 10.86
4/2/2021 2:45:00 AM 6.26 43.268 0.398 7.8 1966 10.88
4/2/2021 3:00:00 AM 6.16 43.088 0.399 7.84 1810 10.92
4/2/2021 3:15:00 AM 6.07 42.926 0.399 7.82 1709 10.93
4/2/2021 3:30:00 AM 5.96 42.728 0.399 7.83 2047 10.97
4/2/2021 3:45:00 AM 5.88 42.584 0.399 7.83 1658 11
4/2/2021 4:00:00 AM 5.8 42.44 0.399 7.83 1803 11.04
4/2/2021 4:15:00 AM 5.74 42.332 0.399 7.83 1845 11.06
4/2/2021 4:30:00 AM 5.66 42.188 0.399 7.82 2291 11.09
4/2/2021 4:45:00 AM 5.58 42.044 0.399 7.82 1507 11.12
4/2/2021 5:00:00 AM 5.51 41.918 0.399 7.82 2274 11.15
4/2/2021 5:15:00 AM 5.43 41.774 0.399 7.82 1688 11.15
4/2/2021 5:30:00 AM 5.34 41.612 0.399 7.81 1745 11.21
4/2/2021 5:45:00 AM 5.29 41.522 0.399 7.82 1748 11.27
4/2/2021 6:00:00 AM 5.23 41.414 0.399 7.81 1877 11.27
4/2/2021 6:15:00 AM 5.16 41.288 0.399 7.81 1887 11.31
4/2/2021 6:30:00 AM 5.08 41.144 0.399 7.81 1324 11.35
4/2/2021 6:45:00 AM 5.01 41.018 0.399 7.82 1532 11.39
4/2/2021 7:00:00 AM 4.94 40.892 0.399 7.82 1728 11.42
4/2/2021 7:15:00 AM 4.88 40.784 0.399 7.82 1853 11.5
4/2/2021 7:30:00 AM 4.82 40.676 0.399 7.82 1984 11.59
4/2/2021 7:45:00 AM 4.78 40.604 0.399 7.82 1589 11.72
4/2/2021 8:00:00 AM 4.74 40.532 0.399 7.83 1560 11.88
4/2/2021 8:15:00 AM 4.73 40.514 0.399 7.84 1737 12.04
4/2/2021 8:30:00 AM 4.73 40.514 0.398 7.86 1630 12.24
4/2/2021 8:45:00 AM 4.74 40.532 0.398 7.87 1887 12.46
4/2/2021 9:00:00 AM 4.78 40.604 0.398 7.88 1663 12.7
4/2/2021 9:15:00 AM 4.83 40.694 0.397 7.9 1945 12.91
4/2/2021 9:30:00 AM 4.89 40.802 0.397 7.92 2101 13.15
4/2/2021 9:45:00 AM 4.96 40.928 0.397 7.94 2090 13.36
4/2/2021 10:00:00 AM 5.06 41.108 0.396 7.96 2411 13.59
4/2/2021 10:15:00 AM 5.17 41.306 0.396 7.98 1577 13.77
4/2/2021 10:30:00 AM 5.31 41.558 0.396 8 1874 13.96
4/2/2021 10:45:00 AM 5.46 41.828 0.396 8.02 1545 14.13
4/2/2021 11:00:00 AM 5.6 42.08 0.396 8.04 1886 14.26
4/2/2021 11:15:00 AM 5.78 42.404 0.396 8.06 1894 14.41
4/2/2021 11:30:00 AM 5.97 42.746 0.395 8.07 1813 14.52
4/2/2021 11:45:00 AM 6.17 43.106 0.395 8.09 1550 14.67
4/2/2021 12:00:00 PM 6.39 43.502 0.394 8.11 1597 14.84
4/2/2021 12:15:00 PM 6.61 43.898 0.394 8.14 1501 14.94
4/2/2021 12:30:00 PM 6.82 44.276 0.393 8.15 1768 15.04
4/2/2021 12:45:00 PM 7.04 44.672 0.393 8.17 1686 15.12
4/2/2021 1:00:00 PM 7.28 45.104 0.392 8.19 2053 15.18
4/2/2021 1:15:00 PM 7.52 45.536 0.392 8.21 1767 15.26
4/2/2021 1:30:00 PM 7.74 45.932 0.392 8.23 1746 15.29
4/2/2021 1:45:00 PM 7.99 46.382 0.391 8.25 1611 15.32
4/2/2021 2:00:00 PM 8.23 46.814 0.391 8.24 1922 15.34
4/2/2021 2:15:00 PM 8.46 47.228 0.391 8.27 1526 15.36
4/2/2021 2:30:00 PM 8.69 47.642 0.39 8.31 1615 15.38
4/2/2021 2:45:00 PM 8.88 47.984 0.39 8.32 1763 15.36
4/2/2021 3:00:00 PM 9.08 48.344 0.389 8.34 2174 15.33
4/2/2021 3:15:00 PM 9.3 48.74 0.389 8.36 2029 15.28
4/2/2021 3:30:00 PM 9.46 49.028 0.388 8.37 1756 15.23
4/2/2021 3:45:00 PM 9.64 49.352 0.389 8.38 1996 15.16
4/2/2021 4:00:00 PM 9.83 49.694 0.388 8.39 2102 15.17
4/2/2021 4:15:00 PM 9.96 49.928 0.388 8.4 1869 15.1
4/2/2021 4:30:00 PM 10.07 50.126 0.388 8.41 1954 15.02
4/2/2021 4:45:00 PM 10.16 50.288 0.387 8.42 1773 14.91
4/2/2021 5:00:00 PM 10.24 50.432 0.386 8.42 1944 14.8
4/2/2021 5:15:00 PM 10.31 50.558 0.386 8.43 1832 14.69
4/2/2021 5:30:00 PM 10.36 50.648 0.386 8.43 1848 14.54
4/2/2021 5:45:00 PM 10.38 50.684 0.386 8.43 1908 14.37
4/2/2021 6:00:00 PM 10.38 50.684 0.385 8.42 2010 14.19
4/2/2021 6:15:00 PM 10.36 50.648 0.386 8.41 2021 13.97
4/2/2021 6:30:00 PM 10.32 50.576 0.386 8.4 1786 13.7
4/2/2021 6:45:00 PM 10.28 50.504 0.386 8.38 1740 13.4
4/2/2021 7:00:00 PM 10.23 50.414 0.387 8.36 1902 13.07
4/2/2021 7:15:00 PM 10.18 50.324 0.387 8.33 1821 12.78
4/2/2021 7:30:00 PM 10.11 50.198 0.388 8.31 1822 12.49
4/2/2021 7:45:00 PM 10.07 50.126 0.389 8.28 1918 12.18
4/2/2021 8:00:00 PM 10.02 50.036 0.389 8.25 1989 11.9
4/2/2021 8:15:00 PM 10 50 0.39 8.22 1856 11.65
4/2/2021 8:30:00 PM 9.95 49.91 0.39 8.19 1595 11.43
4/2/2021 8:45:00 PM 9.89 49.802 0.391 8.16 1473 11.24
4/2/2021 9:00:00 PM 9.82 49.676 0.391 8.14 1400 11.06
4/2/2021 9:15:00 PM 9.75 49.55 0.392 8.12 1792 10.91
4/2/2021 9:30:00 PM 9.66 49.388 0.392 8.1 1637 10.78
4/2/2021 9:45:00 PM 9.57 49.226 0.393 8.07 1727 10.67
4/2/2021 10:00:00 PM 9.47 49.046 0.394 8.05 1738 10.57
4/2/2021 10:15:00 PM 9.37 48.866 0.394 8.03 1511 10.47
4/2/2021 10:30:00 PM 9.27 48.686 0.395 8.01 1786 10.4
4/2/2021 10:45:00 PM 9.19 48.542 0.395 7.99 1634 10.31
4/2/2021 11:00:00 PM 9.11 48.398 0.396 7.97 1514 10.24
4/2/2021 11:15:00 PM 9.02 48.236 0.397 7.96 1356 10.19
4/2/2021 11:30:00 PM 8.92 48.056 0.397 7.94 1716 10.16
4/2/2021 11:45:00 PM 8.82 47.876 0.398 7.92 1579 10.11
4/3/2021 12:00:00 AM 8.71 47.678 0.399 7.91 1979 10.09
4/3/2021 12:15:00 AM 8.59 47.462 0.399 7.9 2090 10.07
4/3/2021 12:30:00 AM 8.47 47.246 0.4 7.89 1836 10.05
4/3/2021 12:45:00 AM 8.35 47.03 0.4 7.87 1720 10.04
4/3/2021 1:00:00 AM 8.22 46.796 0.401 7.86 1754 10.05
4/3/2021 1:15:00 AM 8.1 46.58 0.401 7.85 1666 10.08
4/3/2021 1:30:00 AM 7.98 46.364 0.402 7.84 1807 10.09
4/3/2021 1:45:00 AM 7.85 46.13 0.403 7.84 1872 10.12
4/3/2021 2:00:00 AM 7.73 45.914 0.403 7.83 1912 10.17
4/3/2021 2:15:00 AM 7.6 45.68 0.404 7.83 1908 10.21
4/3/2021 2:30:00 AM 7.48 45.464 0.404 7.83 1718 10.25
4/3/2021 2:45:00 AM 7.35 45.23 0.404 7.83 1973 10.3
4/3/2021 3:00:00 AM 7.21 44.978 0.405 7.82 1795 10.36
4/3/2021 3:15:00 AM 7.08 44.744 0.405 7.82 1872 10.42
4/3/2021 3:30:00 AM 6.95 44.51 0.405 7.82 1752 10.48
4/3/2021 3:45:00 AM 6.82 44.276 0.406 7.82 1898 10.53
4/3/2021 4:00:00 AM 6.69 44.042 0.406 7.81 1837 10.59
4/3/2021 4:15:00 AM 6.57 43.826 0.406 7.81 2147 10.64
4/3/2021 4:30:00 AM 6.45 43.61 0.406 7.81 1992 10.68
4/3/2021 4:45:00 AM 6.34 43.412 0.407 7.81 2039 10.74
4/3/2021 5:00:00 AM 6.22 43.196 0.407 7.81 2130 10.79
4/3/2021 5:15:00 AM 6.1 42.98 0.407 7.81 2161 10.84
4/3/2021 5:30:00 AM 6 42.8 0.407 7.81 2178 10.89
4/3/2021 5:45:00 AM 5.89 42.602 0.408 7.81 1688 10.95
4/3/2021 6:00:00 AM 5.78 42.404 0.408 7.81 1760 11
4/3/2021 6:15:00 AM 5.68 42.224 0.408 7.81 1701 11.03
4/3/2021 6:30:00 AM 5.58 42.044 0.408 7.81 2002 11.09
4/3/2021 6:45:00 AM 5.48 41.864 0.408 7.81 1802 11.15
4/3/2021 7:00:00 AM 5.39 41.702 0.408 7.81 1809 11.19
4/3/2021 7:15:00 AM 5.32 41.576 0.408 7.81 2096 11.28
4/3/2021 7:30:00 AM 5.25 41.45 0.408 7.81 1763 11.39
4/3/2021 7:45:00 AM 5.2 41.36 0.408 7.82 1863 11.53
4/3/2021 8:00:00 AM 5.17 41.306 0.407 7.83 1903 11.71
4/3/2021 8:15:00 AM 5.16 41.288 0.407 7.84 2101 11.9
4/3/2021 8:30:00 AM 5.16 41.288 0.407 7.86 1973 12.13
4/3/2021 8:45:00 AM 5.19 41.342 0.406 7.87 2179 12.37
4/3/2021 9:00:00 AM 5.24 41.432 0.406 7.88 2011 12.61
4/3/2021 9:15:00 AM 5.3 41.54 0.406 7.9 1943 12.9
4/3/2021 9:30:00 AM 5.39 41.702 0.405 7.93 1945 13.1
4/3/2021 9:45:00 AM 5.5 41.9 0.405 7.94 1693 13.35
4/3/2021 10:00:00 AM 5.62 42.116 0.404 7.97 1751 13.58
4/3/2021 10:15:00 AM 5.76 42.368 0.404 7.99 1846 13.79
4/3/2021 10:30:00 AM 5.91 42.638 0.403 8.01 2132 14.02
4/3/2021 10:45:00 AM 6.07 42.926 0.403 8.03 1701 14.2
4/3/2021 11:00:00 AM 6.26 43.268 0.403 8.05 1746 14.37
4/3/2021 11:15:00 AM 6.47 43.646 0.402 8.07 1687 14.51
4/3/2021 11:30:00 AM 6.69 44.042 0.402 8.09 1795 14.69
4/3/2021 11:45:00 AM 6.93 44.474 0.402 8.11 1763 14.85
4/3/2021 12:00:00 PM 7.13 44.834 0.401 8.13 1888 14.99
4/3/2021 12:15:00 PM 7.33 45.194 0.4 8.16 1967 15.11
4/3/2021 12:30:00 PM 7.52 45.536 0.4 8.18 1843 15.24
4/3/2021 12:45:00 PM 7.73 45.914 0.399 8.21 1888 15.32
4/3/2021 1:00:00 PM 7.96 46.328 0.398 8.23 1770 15.38
4/3/2021 1:15:00 PM 8.19 46.742 0.398 8.25 1909 15.47
4/3/2021 1:30:00 PM 8.44 47.192 0.397 8.27 1982 15.53
4/3/2021 1:45:00 PM 8.71 47.678 0.397 8.29 1800 15.56
4/3/2021 2:00:00 PM 9.01 48.218 0.396 8.31 1964 15.58
4/3/2021 2:15:00 PM 9.3 48.74 0.395 8.33 1900 15.55
4/3/2021 2:30:00 PM 9.57 49.226 0.394 8.35 1976 15.55
4/3/2021 2:45:00 PM 9.85 49.73 0.394 8.37 1907 15.57
4/3/2021 3:00:00 PM 10.12 50.216 0.393 8.39 1784 15.54
4/3/2021 3:15:00 PM 10.36 50.648 0.393 8.4 1665 15.52
4/3/2021 3:30:00 PM 10.58 51.044 0.392 8.41 2025 15.46
4/3/2021 3:45:00 PM 10.77 51.386 0.391 8.42 1918 15.44
4/3/2021 4:00:00 PM 10.95 51.71 0.391 8.44 1890 15.31
4/3/2021 4:15:00 PM 11.1 51.98 0.39 8.45 2089 15.24
4/3/2021 4:30:00 PM 11.22 52.196 0.39 8.46 1661 15.19
4/3/2021 4:45:00 PM 11.37 52.466 0.389 8.46 2079 15.08
4/3/2021 5:00:00 PM 11.47 52.646 0.389 8.47 2139 15.01
4/3/2021 5:15:00 PM 11.57 52.826 0.389 8.47 2110 14.94
4/3/2021 5:30:00 PM 11.66 52.988 0.388 8.47 1948 14.71
4/3/2021 5:45:00 PM 11.72 53.096 0.388 8.46 1758 14.49
4/3/2021 6:00:00 PM 11.78 53.204 0.388 8.46 1764 14.2
4/3/2021 6:15:00 PM 11.83 53.294 0.388 8.44 1313 13.9
4/3/2021 6:30:00 PM 11.86 53.348 0.389 8.42 1323 13.55
4/3/2021 6:45:00 PM 11.9 53.42 0.39 8.4 1302 13.21
4/3/2021 7:00:00 PM 11.94 53.492 0.391 8.36 1868 12.8
4/3/2021 7:15:00 PM 11.98 53.564 0.391 8.33 1602 12.43
4/3/2021 7:30:00 PM 12.02 53.636 0.392 8.3 1808 12.04
4/3/2021 7:45:00 PM 12.06 53.708 0.392 8.26 1585 11.69
4/3/2021 8:00:00 PM 12.08 53.744 0.393 8.22 1549 11.38
4/3/2021 8:15:00 PM 12.1 53.78 0.394 8.19 1704 11.08
4/3/2021 8:30:00 PM 12.11 53.798 0.394 8.15 1854 10.84
4/3/2021 8:45:00 PM 12.1 53.78 0.395 8.12 1940 10.59
4/3/2021 9:00:00 PM 12.09 53.762 0.396 8.09 1544 10.38
4/3/2021 9:15:00 PM 12.07 53.726 0.397 8.06 1609 10.2
4/3/2021 9:30:00 PM 12.03 53.654 0.399 8.04 1912 10.03
4/3/2021 9:45:00 PM 11.99 53.582 0.4 8.01 2021 9.88
4/3/2021 10:00:00 PM 11.95 53.51 0.401 7.98 1474 9.74
4/3/2021 10:15:00 PM 11.91 53.438 0.401 7.96 1667 9.61
4/3/2021 10:30:00 PM 11.87 53.366 0.402 7.94 1663 9.48
4/3/2021 10:45:00 PM 11.83 53.294 0.403 7.92 1457 9.37
4/3/2021 11:00:00 PM 11.78 53.204 0.403 7.9 1670 9.29
4/3/2021 11:15:00 PM 11.73 53.114 0.403 7.88 1700 9.19
4/3/2021 11:30:00 PM 11.67 53.006 0.404 7.86 1669 9.12
4/3/2021 11:45:00 PM 11.6 52.88 0.405 7.85 1709 9.07
4/4/2021 12:00:00 AM 11.52 52.736 0.406 7.83 1646 9.01
4/4/2021 12:15:00 AM 11.44 52.592 0.406 7.82 1533 8.99
4/4/2021 12:30:00 AM 11.35 52.43 0.406 7.81 1521 8.97
4/4/2021 12:45:00 AM 11.26 52.268 0.407 7.8 1719 8.94
4/4/2021 1:00:00 AM 11.18 52.124 0.407 7.79 1593 8.94
4/4/2021 1:15:00 AM 11.09 51.962 0.407 7.78 1792 8.93
4/4/2021 1:30:00 AM 10.99 51.782 0.407 7.77 1365 8.94
4/4/2021 1:45:00 AM 10.89 51.602 0.407 7.77 1759 8.95
4/4/2021 2:00:00 AM 10.79 51.422 0.408 7.76 1775 8.97
4/4/2021 2:15:00 AM 10.68 51.224 0.408 7.76 1414 9
4/4/2021 2:30:00 AM 10.58 51.044 0.408 7.75 1682 9.02
4/4/2021 2:45:00 AM 10.47 50.846 0.409 7.75 1640 9.05
4/4/2021 3:00:00 AM 10.37 50.666 0.409 7.75 1690 9.09
4/4/2021 3:15:00 AM 10.27 50.486 0.409 7.74 1652 9.12
4/4/2021 3:30:00 AM 10.17 50.306 0.41 7.74 1180 9.16
4/4/2021 3:45:00 AM 10.06 50.108 0.41 7.74 1385 9.19
4/4/2021 4:00:00 AM 9.96 49.928 0.41 7.74 1627 9.22
4/4/2021 4:15:00 AM 9.83 49.694 0.41 7.74 1243 9.28
4/4/2021 4:30:00 AM 9.7 49.46 0.411 7.73 1596 9.32
4/4/2021 4:45:00 AM 9.56 49.208 0.411 7.73 1386 9.36
4/4/2021 5:00:00 AM 9.43 48.974 0.411 7.74 1692 9.4
4/4/2021 5:15:00 AM 9.31 48.758 0.411 7.74 1752 9.45
4/4/2021 5:30:00 AM 9.18 48.524 0.411 7.74 1794 9.51
4/4/2021 5:45:00 AM 9.06 48.308 0.411 7.74 1768 9.56
4/4/2021 6:00:00 AM 8.94 48.092 0.411 7.73 1778 9.6
4/4/2021 6:15:00 AM 8.84 47.912 0.411 7.73 1644 9.64
4/4/2021 6:30:00 AM 8.74 47.732 0.411 7.73 1526 9.69
4/4/2021 6:45:00 AM 8.66 47.588 0.412 7.73 2182 9.74
4/4/2021 7:00:00 AM 8.57 47.426 0.411 7.74 1498 9.77
4/4/2021 7:15:00 AM 8.48 47.264 0.411 7.74 1725 9.87
4/4/2021 7:30:00 AM 8.39 47.102 0.411 7.74 1808 9.98
4/4/2021 7:45:00 AM 8.32 46.976 0.411 7.75 1662 10.15
4/4/2021 8:00:00 AM 8.26 46.868 0.411 7.77 1476 10.36
4/4/2021 8:15:00 AM 8.22 46.796 0.41 7.78 2076 10.61
4/4/2021 8:30:00 AM 8.2 46.76 0.41 7.8 1756 10.86
4/4/2021 8:45:00 AM 8.21 46.778 0.41 7.81 1586 11.15
4/4/2021 9:00:00 AM 8.24 46.832 0.41 7.84 1370 11.47
4/4/2021 9:15:00 AM 8.29 46.922 0.409 7.86 1810 11.77
4/4/2021 9:30:00 AM 8.36 47.048 0.409 7.88 1670 12.06
4/4/2021 9:45:00 AM 8.45 47.21 0.408 7.91 1782 12.35
4/4/2021 10:00:00 AM 8.56 47.408 0.407 7.94 1758 12.65
4/4/2021 10:15:00 AM 8.69 47.642 0.407 7.96 1647 12.91
4/4/2021 10:30:00 AM 8.84 47.912 0.406 7.99 1578 13.16
4/4/2021 10:45:00 AM 8.99 48.182 0.406 8.01 2136 13.4
4/4/2021 11:00:00 AM 9.16 48.488 0.405 8.04 1870 13.61
4/4/2021 11:15:00 AM 9.36 48.848 0.405 8.07 1725 13.82
4/4/2021 11:30:00 AM 9.56 49.208 0.405 8.09 1610 14
4/4/2021 11:45:00 AM 9.78 49.604 0.404 8.13 1813 14.18
4/4/2021 12:00:00 PM 10.02 50.036 0.403 8.15 1810 14.38
4/4/2021 12:15:00 PM 10.26 50.468 0.403 8.18 1725 14.51
4/4/2021 12:30:00 PM 10.51 50.918 0.402 8.21 1537 14.65
4/4/2021 12:45:00 PM 10.76 51.368 0.401 8.24 1665 14.72
4/4/2021 1:00:00 PM 11.01 51.818 0.4 8.26 1729 14.86
4/4/2021 1:15:00 PM 11.27 52.286 0.399 8.29 1370 14.94
4/4/2021 1:30:00 PM 11.53 52.754 0.399 8.31 3226 15
4/4/2021 1:45:00 PM 11.79 53.222 0.377 8.34 1614 15.05
4/4/2021 2:00:00 PM 12.01 53.618 0.397 8.36 1674 15.05
4/4/2021 2:15:00 PM 12.27 54.086 0.397 8.38 1532 15.12
4/4/2021 2:30:00 PM 12.51 54.518 0.396 8.4 1994 15.16
4/4/2021 2:45:00 PM 12.74 54.932 0.395 8.42 1697 15.16
4/4/2021 3:00:00 PM 12.97 55.346 0.394 8.44 1714 15.11
4/4/2021 3:15:00 PM 13.18 55.724 0.393 8.46 1406 15.07
4/4/2021 3:30:00 PM 13.37 56.066 0.393 8.47 1941 15
4/4/2021 3:45:00 PM 13.56 56.408 0.392 8.48 1493 14.96
4/4/2021 4:00:00 PM 13.73 56.714 0.392 8.49 1755 14.92
4/4/2021 4:15:00 PM 13.89 57.002 0.391 8.5 1307 14.84
4/4/2021 4:30:00 PM 14.02 57.236 0.391 8.51 1859 14.71
4/4/2021 4:45:00 PM 14.14 57.452 0.391 8.51 2000 14.59
4/4/2021 5:00:00 PM 14.22 57.596 0.39 8.52 1685 14.47
4/4/2021 5:15:00 PM 14.3 57.74 0.39 8.52 1906 14.3
4/4/2021 5:30:00 PM 14.36 57.848 0.39 8.51 1556 14.05
4/4/2021 5:45:00 PM 14.39 57.902 0.39 8.5 1699 13.81
4/4/2021 6:00:00 PM 14.4 57.92 0.39 8.49 1339 13.57
4/4/2021 6:15:00 PM 14.42 57.956 0.39 8.48 1771 13.31
4/4/2021 6:30:00 PM 14.4 57.92 0.391 8.46 1351 13
4/4/2021 6:45:00 PM 14.4 57.92 0.391 8.44 1464 12.66
4/4/2021 7:00:00 PM 14.37 57.866 0.392 8.41 1464 12.27
4/4/2021 7:15:00 PM 14.34 57.812 0.394 8.38 1590 11.87
4/4/2021 7:30:00 PM 14.32 57.776 0.396 8.34 1831 11.45
4/4/2021 7:45:00 PM 14.29 57.722 0.4 8.3 1705 11.06
4/4/2021 8:00:00 PM 14.26 57.668 0.403 8.26 1435 10.69
4/4/2021 8:15:00 PM 14.2 57.56 0.403 8.23 1154 10.38
4/4/2021 8:30:00 PM 14.15 57.47 0.401 8.19 978.6 10.11
4/4/2021 8:45:00 PM 14.1 57.38 0.4 8.15 1077 9.89
4/4/2021 9:00:00 PM 14.03 57.254 0.4 8.12 1081 9.68
4/4/2021 9:15:00 PM 13.97 57.146 0.4 8.09 1747 9.47
4/4/2021 9:30:00 PM 13.9 57.02 0.401 8.06 1283 9.32
4/4/2021 9:45:00 PM 13.81 56.858 0.401 8.03 2240 9.17
4/4/2021 10:00:00 PM 13.72 56.696 0.402 8 1258 9.04
4/4/2021 10:15:00 PM 13.62 56.516 0.403 7.98 1588 8.93
4/4/2021 10:30:00 PM 13.52 56.336 0.403 7.96 1552 8.82
4/4/2021 10:45:00 PM 13.41 56.138 0.404 7.93 1165 8.74
4/4/2021 11:00:00 PM 13.3 55.94 0.405 7.91 986.4 8.65
4/4/2021 11:15:00 PM 13.19 55.742 0.405 7.89 1142 8.59
4/4/2021 11:30:00 PM 13.07 55.526 0.406 7.87 1158 8.55
4/4/2021 11:45:00 PM 12.95 55.31 0.407 7.86 1006 8.51
4/5/2021 12:00:00 AM 12.83 55.094 0.407 7.84 1423 8.47
4/5/2021 12:15:00 AM 12.7 54.86 0.408 7.83 1144 8.45
4/5/2021 12:30:00 AM 12.56 54.608 0.408 7.82 1324 8.44
4/5/2021 12:45:00 AM 12.41 54.338 0.409 7.81 1598 8.44
4/5/2021 1:00:00 AM 12.26 54.068 0.41 7.8 1312 8.45
4/5/2021 1:15:00 AM 12.11 53.798 0.41 7.79 1665 8.47
4/5/2021 1:30:00 AM 11.96 53.528 0.411 7.78 1222 8.49
4/5/2021 1:45:00 AM 11.81 53.258 0.411 7.78 1423 8.52
4/5/2021 2:00:00 AM 11.66 52.988 0.411 7.77 1598 8.54
4/5/2021 2:15:00 AM 11.51 52.718 0.412 7.77 1354 8.59
4/5/2021 2:30:00 AM 11.34 52.412 0.412 7.76 1422 8.63
4/5/2021 2:45:00 AM 11.19 52.142 0.413 7.76 1249 8.69
4/5/2021 3:00:00 AM 11.03 51.854 0.413 7.75 1387 8.74
4/5/2021 3:15:00 AM 10.87 51.566 0.414 7.75 1104 8.8
4/5/2021 3:30:00 AM 10.7 51.26 0.414 7.75 1359 8.86
4/5/2021 3:45:00 AM 10.55 50.99 0.414 7.75 1485 8.92
4/5/2021 4:00:00 AM 10.38 50.684 0.414 7.75 1392 8.97
4/5/2021 4:15:00 AM 10.22 50.396 0.414 7.75 1184 9.05
4/5/2021 4:30:00 AM 10.06 50.108 0.415 7.75 1495 9.11
4/5/2021 4:45:00 AM 9.9 49.82 0.415 7.75 1579 9.19
4/5/2021 5:00:00 AM 9.74 49.532 0.415 7.75 1217 9.24
4/5/2021 5:15:00 AM 9.6 49.28 0.415 7.75 1079 9.3
4/5/2021 5:30:00 AM 9.44 48.992 0.415 7.75 1361 9.38
4/5/2021 5:45:00 AM 9.28 48.704 0.416 7.75 2056 9.45
4/5/2021 6:00:00 AM 9.13 48.434 0.415 7.76 1270 9.5
4/5/2021 6:15:00 AM 8.99 48.182 0.415 7.75 1907 9.57
4/5/2021 6:30:00 AM 8.85 47.93 0.416 7.76 1693 9.63
4/5/2021 6:45:00 AM 8.72 47.696 0.416 7.76 1034 9.69
4/5/2021 7:00:00 AM 8.6 47.48 0.415 7.76 1477 9.77
4/5/2021 7:15:00 AM 8.48 47.264 0.415 7.76 1439 9.87
4/5/2021 7:30:00 AM 8.37 47.066 0.415 7.77 1112 10.01
4/5/2021 7:45:00 AM 8.28 46.904 0.415 7.78 970.6 10.18
4/5/2021 8:00:00 AM 8.21 46.778 0.415 7.79 1798 10.42
4/5/2021 8:15:00 AM 8.16 46.688 0.414 7.8 1402 10.67
4/5/2021 8:30:00 AM 8.13 46.634 0.414 7.82 1580 10.97
4/5/2021 8:45:00 AM 8.14 46.652 0.414 7.84 1232 11.23
4/5/2021 9:00:00 AM 8.17 46.706 0.413 7.86 1790 11.55
4/5/2021 9:15:00 AM 8.23 46.814 0.412 7.88 1091 11.83
4/5/2021 9:30:00 AM 8.3 46.94 0.412 7.91 1384 12.12
4/5/2021 9:45:00 AM 8.38 47.084 0.411 7.93 1270 12.4
4/5/2021 10:00:00 AM 8.48 47.264 0.411 7.96 1088 12.71
4/5/2021 10:15:00 AM 8.6 47.48 0.411 7.98 1204 12.99
4/5/2021 10:30:00 AM 8.74 47.732 0.41 8 1089 13.21
4/5/2021 10:45:00 AM 8.89 48.002 0.409 8.03 1873 13.45
4/5/2021 11:00:00 AM 9.06 48.308 0.409 8.05 1485 13.63
4/5/2021 11:15:00 AM 9.25 48.65 0.409 8.07 1307 13.8
4/5/2021 11:30:00 AM 9.46 49.028 0.408 8.1 1140 14
4/5/2021 11:45:00 AM 9.67 49.406 0.408 8.12 1213 14.19
4/5/2021 12:00:00 PM 9.9 49.82 0.407 8.15 1358 14.36
4/5/2021 12:15:00 PM 10.15 50.27 0.406 8.17 1742 14.49
4/5/2021 12:30:00 PM 10.39 50.702 0.405 8.2 1224 14.61
4/5/2021 12:45:00 PM 10.65 51.17 0.405 8.23 1600 14.75
4/5/2021 1:00:00 PM 10.91 51.638 0.404 8.25 1311 14.84
4/5/2021 1:15:00 PM 11.18 52.124 0.403 8.27 2020 14.89
4/5/2021 1:30:00 PM 11.44 52.592 0.402 8.3 1891 14.98
4/5/2021 1:45:00 PM 11.68 53.024 0.401 8.32 1587 15.03
4/5/2021 2:00:00 PM 11.92 53.456 0.4 8.34 1958 15.07
4/5/2021 2:15:00 PM 12.17 53.906 0.399 8.37 1618 15.14
4/5/2021 2:30:00 PM 12.41 54.338 0.399 8.39 778.3 15.15
4/5/2021 2:45:00 PM 12.62 54.716 0.398 8.41 579.7 15.12
4/5/2021 3:00:00 PM 12.81 55.058 0.398 8.43 726.2 15.13
4/5/2021 3:15:00 PM 13.02 55.436 0.399 8.42 847.7 15.13
4/5/2021 3:30:00 PM 13.21 55.778 0.397 8.44 1230 15.11
4/5/2021 3:45:00 PM 13.37 56.066 0.396 8.45 987 15.03
4/5/2021 4:00:00 PM 13.48 56.264 0.395 8.47 847.9 14.9
4/5/2021 4:15:00 PM 13.56 56.408 0.394 8.47 1390 14.7
4/5/2021 4:30:00 PM 13.64 56.552 0.393 8.48 1280 14.61
4/5/2021 4:45:00 PM 13.71 56.678 0.393 8.48 1391 14.42
4/5/2021 5:00:00 PM 13.81 56.858 0.392 8.48 1254 14.28
4/5/2021 5:15:00 PM 13.9 57.02 0.392 8.48 954.8 14.22
4/5/2021 5:30:00 PM 13.99 57.182 0.391 8.48 1271 14
4/5/2021 5:45:00 PM 14.07 57.326 0.391 8.47 1185 13.77
4/5/2021 6:00:00 PM 14.11 57.398 0.391 8.45 516.5 13.43
4/5/2021 6:15:00 PM 14.14 57.452 0.391 8.43 796.5 13.09
4/5/2021 6:30:00 PM 14.15 57.47 0.392 8.41 675.1 12.67
4/5/2021 6:45:00 PM 14.16 57.488 0.393 8.37 711.7 12.19
4/5/2021 7:00:00 PM 14.18 57.524 0.394 8.34 581.6 11.8
4/5/2021 7:15:00 PM 14.21 57.578 0.395 8.31 711.9 11.39
4/5/2021 7:30:00 PM 14.21 57.578 0.396 8.27 1185 11.04
4/5/2021 7:45:00 PM 14.2 57.56 0.397 8.23 748.4 10.7
4/5/2021 8:00:00 PM 14.19 57.542 0.398 8.19 843.5 10.41
4/5/2021 8:15:00 PM 14.16 57.488 0.399 8.16 647.1 10.11
4/5/2021 8:30:00 PM 14.15 57.47 0.4 8.12 785 9.87
4/5/2021 8:45:00 PM 14.13 57.434 0.401 8.09 929.6 9.63
4/5/2021 9:00:00 PM 14.12 57.416 0.402 8.06 817.7 9.46
4/5/2021 9:15:00 PM 14.1 57.38 0.402 8.04 1737 9.29
4/5/2021 9:30:00 PM 14.08 57.344 0.403 8.01 1316 9.12
4/5/2021 9:45:00 PM 14.04 57.272 0.404 7.98 1998 9
4/5/2021 10:00:00 PM 14 57.2 0.405 7.95 1147 8.86
4/5/2021 10:15:00 PM 13.95 57.11 0.406 7.93 1444 8.73
4/5/2021 10:30:00 PM 13.9 57.02 0.407 7.91 1324 8.63
4/5/2021 10:45:00 PM 13.84 56.912 0.408 7.88 1368 8.51
4/5/2021 11:00:00 PM 13.79 56.822 0.408 7.87 1432 8.47
4/5/2021 11:15:00 PM 13.73 56.714 0.409 7.85 1354 8.36
4/5/2021 11:30:00 PM 13.66 56.588 0.41 7.83 1274 8.28
4/5/2021 11:45:00 PM 13.6 56.48 0.41 7.82 1123 8.27
4/6/2021 12:00:00 AM 13.53 56.354 0.411 7.8 1544 8.21
4/6/2021 12:15:00 AM 13.45 56.21 0.412 7.79 1209 8.17
4/6/2021 12:30:00 AM 13.38 56.084 0.412 7.78 1661 8.16
4/6/2021 12:45:00 AM 13.3 55.94 0.413 7.77 1345 8.15
4/6/2021 1:00:00 AM 13.21 55.778 0.414 7.76 1228 8.12
4/6/2021 1:15:00 AM 13.12 55.616 0.414 7.76 1339 8.13
4/6/2021 1:30:00 AM 13.03 55.454 0.415 7.75 1217 8.13
4/6/2021 1:45:00 AM 12.92 55.256 0.415 7.74 1465 8.18
4/6/2021 2:00:00 AM 12.81 55.058 0.416 7.74 1609 8.18
4/6/2021 2:15:00 AM 12.69 54.842 0.416 7.73 1280 8.21
4/6/2021 2:30:00 AM 12.59 54.662 0.417 7.72 1477 8.24
4/6/2021 2:45:00 AM 12.48 54.464 0.417 7.72 1591 8.27
4/6/2021 3:00:00 AM 12.35 54.23 0.418 7.72 1341 8.31
4/6/2021 3:15:00 AM 12.22 53.996 0.418 7.72 1463 8.37
4/6/2021 3:30:00 AM 12.08 53.744 0.418 7.72 1313 8.4
4/6/2021 3:45:00 AM 11.93 53.474 0.419 7.72 1266 8.46
4/6/2021 4:00:00 AM 11.8 53.24 0.419 7.71 1374 8.5
4/6/2021 4:15:00 AM 11.66 52.988 0.419 7.71 1433 8.54
4/6/2021 4:30:00 AM 11.53 52.754 0.42 7.71 1141 8.6
4/6/2021 4:45:00 AM 11.4 52.52 0.42 7.71 1609 8.65
4/6/2021 5:00:00 AM 11.26 52.268 0.42 7.71 1582 8.7
4/6/2021 5:15:00 AM 11.12 52.016 0.421 7.72 1183 8.74
4/6/2021 5:30:00 AM 10.98 51.764 0.421 7.72 1125 8.8
4/6/2021 5:45:00 AM 10.85 51.53 0.421 7.71 1093 8.85
4/6/2021 6:00:00 AM 10.72 51.296 0.421 7.71 1415 8.89
4/6/2021 6:15:00 AM 10.6 51.08 0.421 7.72 1567 8.93
4/6/2021 6:30:00 AM 10.48 50.864 0.421 7.72 1229 9
4/6/2021 6:45:00 AM 10.36 50.648 0.42 7.72 1139 9.06
4/6/2021 7:00:00 AM 10.25 50.45 0.421 7.72 1197 9.13
4/6/2021 7:15:00 AM 10.15 50.27 0.42 7.72 1703 9.2
4/6/2021 7:30:00 AM 10.05 50.09 0.42 7.73 1334 9.35
4/6/2021 7:45:00 AM 9.97 49.946 0.419 7.74 2291 9.5
4/6/2021 8:00:00 AM 9.93 49.874 0.419 7.75 1600 9.71
4/6/2021 8:15:00 AM 9.89 49.802 0.419 7.76 1127 9.94
4/6/2021 8:30:00 AM 9.86 49.748 0.419 7.78 1164 10.19
4/6/2021 8:45:00 AM 9.84 49.712 0.418 7.79 1355 10.45
4/6/2021 9:00:00 AM 9.85 49.73 0.417 7.82 1504 10.82
4/6/2021 9:15:00 AM 9.86 49.748 0.417 7.84 1422 11.14
4/6/2021 9:30:00 AM 9.92 49.856 0.417 7.86 1227 11.52
4/6/2021 9:45:00 AM 9.95 49.91 0.415 7.89 1393 11.81
4/6/2021 10:00:00 AM 9.99 49.982 0.415 7.93 1478 12.08
4/6/2021 10:15:00 AM 10.08 50.144 0.415 7.95 1281 12.4
4/6/2021 10:30:00 AM 10.14 50.252 0.414 7.98 1563 12.68
4/6/2021 10:45:00 AM 10.21 50.378 0.414 8 1276 12.9
4/6/2021 11:00:00 AM 10.37 50.666 0.413 8.03 1458 13.18
4/6/2021 11:15:00 AM 10.53 50.954 0.412 8.06 1327 13.41
4/6/2021 11:30:00 AM 10.72 51.296 0.412 8.08 1537 13.66
4/6/2021 11:45:00 AM 10.93 51.674 0.411 8.12 1307 13.86
4/6/2021 12:00:00 PM 11.15 52.07 0.41 8.14 1464 14.06
4/6/2021 12:15:00 PM 11.37 52.466 0.409 8.17 1311 14.21
4/6/2021 12:30:00 PM 11.62 52.916 0.409 8.2 1243 14.37
4/6/2021 12:45:00 PM 11.87 53.366 0.408 8.22 1222 14.49
4/6/2021 1:00:00 PM 12.13 53.834 0.406 8.25 1429 14.6
4/6/2021 1:15:00 PM 12.37 54.266 0.405 8.28 1485 14.68
4/6/2021 1:30:00 PM 12.6 54.68 0.405 8.31 1550 14.74
4/6/2021 1:45:00 PM 12.84 55.112 0.403 8.33 1277 14.86
4/6/2021 2:00:00 PM 13.06 55.508 0.402 8.35 870.2 14.85
4/6/2021 2:15:00 PM 13.31 55.958 0.401 8.37 1296 14.9
4/6/2021 2:30:00 PM 13.57 56.426 0.4 8.39 1598 14.91
4/6/2021 2:45:00 PM 13.8 56.84 0.401 8.41 1304 14.91
4/6/2021 3:00:00 PM 14.05 57.29 0.4 8.43 1586 14.94
4/6/2021 3:15:00 PM 14.22 57.596 0.399 8.44 1513 14.83
4/6/2021 3:30:00 PM 14.33 57.794 0.4 8.45 1483 14.68
4/6/2021 3:45:00 PM 14.56 58.208 0.398 8.46 913.9 14.68
4/6/2021 4:00:00 PM 14.66 58.388 0.398 8.46 968.1 14.54
4/6/2021 4:15:00 PM 14.9 58.82 0.397 8.48 1009 14.61
4/6/2021 4:30:00 PM 15.04 59.072 0.397 8.48 928.3 14.42
4/6/2021 4:45:00 PM 15.15 59.27 0.397 8.48 1249 14.18
4/6/2021 5:00:00 PM 15.24 59.432 0.398 8.48 522.8 14.01
4/6/2021 5:15:00 PM 15.4 59.72 0.397 8.48 846.9 13.9
4/6/2021 5:30:00 PM 15.53 59.954 0.397 8.48 1051 13.77
4/6/2021 5:45:00 PM 15.65 60.17 0.397 8.47 897.8 13.52
4/6/2021 6:00:00 PM 15.74 60.332 0.397 8.46 869.7 13.31
4/6/2021 6:15:00 PM 15.78 60.404 0.397 8.44 816.5 12.91
4/6/2021 6:30:00 PM 15.83 60.494 0.398 8.42 1001 12.54
4/6/2021 6:45:00 PM 15.85 60.53 0.399 8.39 933.6 12.12
4/6/2021 7:00:00 PM 15.89 60.602 0.399 8.36 1123 11.7
4/6/2021 7:15:00 PM 15.93 60.674 0.4 8.33 668.3 11.28
4/6/2021 7:30:00 PM 15.94 60.692 0.401 8.29 963.7 10.86
4/6/2021 7:45:00 PM 15.95 60.71 0.402 8.25 720.6 10.47
4/6/2021 8:00:00 PM 15.96 60.728 0.403 8.21 585.1 10.1
4/6/2021 8:15:00 PM 15.94 60.692 0.404 8.17 954 9.77
4/6/2021 8:30:00 PM 15.92 60.656 0.405 8.12 881 9.48
4/6/2021 8:45:00 PM 15.91 60.638 0.405 8.08 753.5 9.23
4/6/2021 9:00:00 PM 15.88 60.584 0.406 8.05 926.1 9.03
4/6/2021 9:15:00 PM 15.85 60.53 0.406 8.02 1205 8.83
4/6/2021 9:30:00 PM 15.81 60.458 0.407 7.99 738 8.63
4/6/2021 9:45:00 PM 15.75 60.35 0.408 7.96 949.9 8.47
4/6/2021 10:00:00 PM 15.69 60.242 0.408 7.93 786.5 8.34
4/6/2021 10:15:00 PM 15.62 60.116 0.407 7.91 1214 8.18
4/6/2021 10:30:00 PM 15.55 59.99 0.409 7.88 1224 8.07
4/6/2021 10:45:00 PM 15.48 59.864 0.41 7.86 1028 8
4/6/2021 11:00:00 PM 15.39 59.702 0.41 7.84 1618 7.9
4/6/2021 11:15:00 PM 15.3 59.54 0.411 7.82 743.8 7.84
4/6/2021 11:30:00 PM 15.2 59.36 0.412 7.8 635.4 7.76
4/6/2021 11:45:00 PM 15.1 59.18 0.412 7.79 915.6 7.69
4/7/2021 12:00:00 AM 15 59 0.413 7.78 1165 7.66
4/7/2021 12:15:00 AM 14.9 58.82 0.413 7.76 1232 7.62
4/7/2021 12:30:00 AM 14.79 58.622 0.414 7.75 968.9 7.59
4/7/2021 12:45:00 AM 14.7 58.46 0.415 7.74 849.5 7.59
4/7/2021 1:00:00 AM 14.59 58.262 0.417 7.73 1058 7.61
4/7/2021 1:15:00 AM 14.49 58.082 0.418 7.72 956.3 7.59
4/7/2021 1:30:00 AM 14.36 57.848 0.419 7.71 920.8 7.62
4/7/2021 1:45:00 AM 14.24 57.632 0.419 7.71 926.3 7.64
4/7/2021 2:00:00 AM 14.09 57.362 0.42 7.7 1104 7.69
4/7/2021 2:15:00 AM 13.96 57.128 0.42 7.7 1043 7.72
4/7/2021 2:30:00 AM 13.82 56.876 0.421 7.69 1125 7.74
4/7/2021 2:45:00 AM 13.68 56.624 0.422 7.69 1371 7.78
4/7/2021 3:00:00 AM 13.54 56.372 0.423 7.69 1034 7.83
4/7/2021 3:15:00 AM 13.39 56.102 0.423 7.68 877.7 7.88
4/7/2021 3:30:00 AM 13.24 55.832 0.423 7.69 1086 7.92
4/7/2021 3:45:00 AM 13.09 55.562 0.423 7.68 1175 7.97
4/7/2021 4:00:00 AM 12.93 55.274 0.424 7.68 1119 8.04
4/7/2021 4:15:00 AM 12.78 55.004 0.424 7.68 847.4 8.11
4/7/2021 4:30:00 AM 12.62 54.716 0.425 7.68 1113 8.16
4/7/2021 4:45:00 AM 12.48 54.464 0.425 7.68 1218 8.2
4/7/2021 5:00:00 AM 12.33 54.194 0.425 7.68 968.1 8.28
4/7/2021 5:15:00 AM 12.19 53.942 0.425 7.68 1149 8.34
4/7/2021 5:30:00 AM 12.06 53.708 0.426 7.69 1026 8.4
4/7/2021 5:45:00 AM 11.93 53.474 0.426 7.69 1115 8.45
4/7/2021 6:00:00 AM 11.79 53.222 0.426 7.69 966.6 8.51
4/7/2021 6:15:00 AM 11.66 52.988 0.426 7.7 784.1 8.53
4/7/2021 6:30:00 AM 11.54 52.772 0.426 7.69 910.1 8.61
4/7/2021 6:45:00 AM 11.43 52.574 0.427 7.7 947.6 8.66
4/7/2021 7:00:00 AM 11.32 52.376 0.426 7.7 1475 8.74
4/7/2021 7:15:00 AM 11.21 52.178 0.426 7.7 1183 8.8
4/7/2021 7:30:00 AM 11.11 51.998 0.426 7.7 976.2 8.94
4/7/2021 7:45:00 AM 11.01 51.818 0.426 7.71 1018 9.15
4/7/2021 8:00:00 AM 10.93 51.674 0.425 7.72 1250 9.36
4/7/2021 8:15:00 AM 10.88 51.584 0.425 7.74 873.6 9.64
4/7/2021 8:30:00 AM 10.83 51.494 0.425 7.76 1328 9.88
4/7/2021 8:45:00 AM 10.78 51.404 0.425 7.77 1032 10.11
4/7/2021 9:00:00 AM 10.74 51.332 0.424 7.79 1442 10.4
4/7/2021 9:15:00 AM 10.74 51.332 0.424 7.82 1362 10.73
4/7/2021 9:30:00 AM 10.77 51.386 0.424 7.84 1171 11.12
4/7/2021 9:45:00 AM 10.8 51.44 0.423 7.87 991.5 11.46
4/7/2021 10:00:00 AM 10.85 51.53 0.423 7.9 907.1 11.77
4/7/2021 10:15:00 AM 10.99 51.782 0.422 7.93 819.7 12.17
4/7/2021 10:30:00 AM 11.11 51.998 0.421 7.96 945.1 12.47
4/7/2021 10:45:00 AM 11.25 52.25 0.421 7.99 1053 12.73
4/7/2021 11:00:00 AM 11.42 52.556 0.42 8.02 1345 13.01
4/7/2021 11:15:00 AM 11.6 52.88 0.42 8.05 829.7 13.26
4/7/2021 11:30:00 AM 11.81 53.258 0.419 8.08 913.3 13.54
4/7/2021 11:45:00 AM 12.03 53.654 0.418 8.12 939.3 13.72
4/7/2021 12:00:00 PM 12.23 54.014 0.417 8.14 917.9 13.85
4/7/2021 12:15:00 PM 12.39 54.302 0.417 8.17 1157 13.95
4/7/2021 12:30:00 PM 12.57 54.626 0.417 8.19 1064 14.02
4/7/2021 12:45:00 PM 12.8 55.04 0.415 8.22 1074 14.14
4/7/2021 1:00:00 PM 13.02 55.436 0.414 8.24 1249 14.28
4/7/2021 1:15:00 PM 13.29 55.922 0.413 8.27 781.3 14.43
4/7/2021 1:30:00 PM 13.56 56.408 0.412 8.29 901.3 14.51
4/7/2021 1:45:00 PM 13.82 56.876 0.412 8.31 1116 14.56
4/7/2021 2:00:00 PM 14.05 57.29 0.411 8.33 1432 14.57
4/7/2021 2:15:00 PM 14.31 57.758 0.41 8.35 1442 14.68
4/7/2021 2:30:00 PM 14.55 58.19 0.409 8.37 1348 14.7
4/7/2021 2:45:00 PM 14.82 58.676 0.408 8.39 369.1 14.75
4/7/2021 3:00:00 PM 15.11 59.198 0.407 8.41 948.4 14.72
4/7/2021 3:15:00 PM 15.33 59.594 0.407 8.42 845.9 14.66
4/7/2021 3:30:00 PM 15.58 60.044 0.407 8.44 1174 14.58
4/7/2021 3:45:00 PM 15.79 60.422 0.406 8.45 710.3 14.6
4/7/2021 4:00:00 PM 15.96 60.728 0.405 8.46 1260 14.54
4/7/2021 4:15:00 PM 16.1 60.98 0.405 8.47 1060 14.37
4/7/2021 4:30:00 PM 16.19 61.142 0.405 8.47 1032 14.16
4/7/2021 4:45:00 PM 16.21 61.178 0.408 8.44 619.4 13.65
4/7/2021 5:00:00 PM 16.23 61.214 0.408 8.42 670.9 13.28
4/7/2021 5:15:00 PM 16.25 61.25 0.408 8.4 290.9 12.89
4/7/2021 5:30:00 PM 16.28 61.304 0.408 8.38 174.5 12.58
4/7/2021 5:45:00 PM 16.33 61.394 0.408 8.36 1099 12.34
4/7/2021 6:00:00 PM 16.41 61.538 0.407 8.35 721.7 12.23
4/7/2021 6:15:00 PM 16.44 61.592 0.408 8.34 907.6 11.94
4/7/2021 6:30:00 PM 16.48 61.664 0.408 8.31 700.8 11.55
4/7/2021 6:45:00 PM 16.5 61.7 0.409 8.28 820.7 11.1
4/7/2021 7:00:00 PM 16.51 61.718 0.41 8.24 872.8 10.69
4/7/2021 7:15:00 PM 16.52 61.736 0.411 8.21 823.4 10.31
4/7/2021 7:30:00 PM 16.52 61.736 0.413 8.18 960.7 10.04
4/7/2021 7:45:00 PM 16.51 61.718 0.417 8.14 1081 9.75
4/7/2021 8:00:00 PM 16.5 61.7 0.42 8.11 1043 9.46
4/7/2021 8:15:00 PM 16.48 61.664 0.422 8.08 995.1 9.19
4/7/2021 8:30:00 PM 16.44 61.592 0.421 8.05 989.9 8.94
4/7/2021 8:45:00 PM 16.39 61.502 0.42 8.01 1318 8.68
4/7/2021 9:00:00 PM 16.34 61.412 0.418 7.98 1302 8.49
4/7/2021 9:15:00 PM 16.29 61.322 0.417 7.95 756.3 8.32
4/7/2021 9:30:00 PM 16.23 61.214 0.417 7.92 872.4 8.2
4/7/2021 9:45:00 PM 16.16 61.088 0.417 7.9 1121 8.06
4/7/2021 10:00:00 PM 16.08 60.944 0.417 7.88 1723 7.96
4/7/2021 10:15:00 PM 16.01 60.818 0.417 7.86 1047 7.86
4/7/2021 10:30:00 PM 15.92 60.656 0.417 7.84 868.8 7.76
4/7/2021 10:45:00 PM 15.83 60.494 0.418 7.82 1153 7.69
4/7/2021 11:00:00 PM 15.73 60.314 0.418 7.8 1197 7.62
4/7/2021 11:15:00 PM 15.62 60.116 0.419 7.79 1475 7.6
4/7/2021 11:30:00 PM 15.51 59.918 0.42 7.78 1107 7.55
4/7/2021 11:45:00 PM 15.39 59.702 0.42 7.76 1259 7.52
4/8/2021 12:00:00 AM 15.26 59.468 0.421 7.75 1036 7.5
4/8/2021 12:15:00 AM 15.13 59.234 0.421 7.74 1481 7.5
4/8/2021 12:30:00 AM 15 59 0.422 7.73 1070 7.51
4/8/2021 12:45:00 AM 14.87 58.766 0.422 7.73 993.9 7.53
4/8/2021 1:00:00 AM 14.73 58.514 0.423 7.72 1115 7.52
4/8/2021 1:15:00 AM 14.58 58.244 0.423 7.72 1207 7.54
4/8/2021 1:30:00 AM 14.44 57.992 0.423 7.71 1501 7.56
4/8/2021 1:45:00 AM 14.28 57.704 0.424 7.71 1864 7.6
4/8/2021 2:00:00 AM 14.13 57.434 0.424 7.7 1312 7.66
4/8/2021 2:15:00 AM 13.98 57.164 0.424 7.7 1318 7.71
4/8/2021 2:30:00 AM 13.83 56.894 0.425 7.7 1286 7.75
4/8/2021 2:45:00 AM 13.69 56.642 0.425 7.69 1067 7.8
4/8/2021 3:00:00 AM 13.54 56.372 0.426 7.69 1225 7.85
4/8/2021 3:15:00 AM 13.39 56.102 0.427 7.69 1236 7.88
4/8/2021 3:30:00 AM 13.25 55.85 0.427 7.69 758.4 7.95
4/8/2021 3:45:00 AM 13.1 55.58 0.428 7.69 1241 8.02
4/8/2021 4:00:00 AM 12.95 55.31 0.428 7.69 1093 8.07
4/8/2021 4:15:00 AM 12.8 55.04 0.429 7.69 972.8 8.12
4/8/2021 4:30:00 AM 12.65 54.77 0.429 7.69 1135 8.19
4/8/2021 4:45:00 AM 12.5 54.5 0.429 7.7 820.2 8.23
4/8/2021 5:00:00 AM 12.35 54.23 0.429 7.7 1299 8.31
4/8/2021 5:15:00 AM 12.2 53.96 0.429 7.7 626.2 8.37
4/8/2021 5:30:00 AM 12.06 53.708 0.429 7.7 1297 8.42
4/8/2021 5:45:00 AM 11.92 53.456 0.43 7.7 882.5 8.5
4/8/2021 6:00:00 AM 11.79 53.222 0.43 7.7 923.7 8.54
4/8/2021 6:15:00 AM 11.64 52.952 0.429 7.7 1209 8.59
4/8/2021 6:30:00 AM 11.51 52.718 0.43 7.71 1357 8.64
4/8/2021 6:45:00 AM 11.37 52.466 0.43 7.71 1197 8.71
4/8/2021 7:00:00 AM 11.26 52.268 0.43 7.71 1144 8.81
4/8/2021 7:15:00 AM 11.14 52.052 0.43 7.71 994 8.9
4/8/2021 7:30:00 AM 11.03 51.854 0.429 7.72 1426 9.07
4/8/2021 7:45:00 AM 10.94 51.692 0.429 7.73 1016 9.27
4/8/2021 8:00:00 AM 10.88 51.584 0.429 7.74 1179 9.47
4/8/2021 8:15:00 AM 10.83 51.494 0.429 7.76 1465 9.75
4/8/2021 8:30:00 AM 10.81 51.458 0.429 7.78 1354 10.04
4/8/2021 8:45:00 AM 10.82 51.476 0.428 7.8 1353 10.42
4/8/2021 9:00:00 AM 10.86 51.548 0.428 7.82 849.4 10.75
4/8/2021 9:15:00 AM 10.89 51.602 0.428 7.85 1041 11.07
4/8/2021 9:30:00 AM 10.98 51.764 0.427 7.88 1003 11.4
4/8/2021 9:45:00 AM 11.01 51.818 0.427 7.91 995.1 11.68
4/8/2021 10:00:00 AM 11.05 51.89 0.427 7.93 904.3 11.93
4/8/2021 10:15:00 AM 11.15 52.07 0.426 7.95 941.1 12.22
4/8/2021 10:30:00 AM 11.25 52.25 0.426 7.98 1118 12.45
4/8/2021 10:45:00 AM 11.39 52.502 0.425 8.01 991.9 12.71
4/8/2021 11:00:00 AM 11.55 52.79 0.424 8.04 867.1 12.96
4/8/2021 11:15:00 AM 11.71 53.078 0.423 8.06 984.4 13.13
4/8/2021 11:30:00 AM 11.89 53.402 0.423 8.09 1212 13.36
4/8/2021 11:45:00 AM 12.1 53.78 0.422 8.11 826.5 13.56
4/8/2021 12:00:00 PM 12.3 54.14 0.421 8.14 878.9 13.73
4/8/2021 12:15:00 PM 12.52 54.536 0.421 8.17 835.1 13.88
4/8/2021 12:30:00 PM 12.75 54.95 0.42 8.19 156.9 13.98
4/8/2021 12:45:00 PM 13 55.4 0.419 8.22 125.3 14.08
4/8/2021 1:00:00 PM 13.25 55.85 0.418 8.24 96.53 14.21
4/8/2021 1:15:00 PM 13.5 56.3 0.418 8.26 162.9 14.33
4/8/2021 1:30:00 PM 13.73 56.714 0.417 8.29 79.01 14.37
4/8/2021 1:45:00 PM 13.98 57.164 0.417 8.31 105 14.45
4/8/2021 2:00:00 PM 14.21 57.578 0.416 8.33 200.6 14.53
4/8/2021 2:15:00 PM 14.44 57.992 0.415 8.34 147.1 14.54
4/8/2021 2:30:00 PM 14.66 58.388 0.415 8.36 185.9 14.54
4/8/2021 2:45:00 PM 14.88 58.784 0.413 8.37 131.6 14.55
4/8/2021 3:00:00 PM 15.09 59.162 0.412 8.38 61.24 14.48
4/8/2021 3:15:00 PM 15.29 59.522 0.411 8.4 55.07 14.48
4/8/2021 3:30:00 PM 15.49 59.882 0.41 8.42 95.74 14.48
4/8/2021 3:45:00 PM 15.66 60.188 0.41 8.43 94.96 14.41
4/8/2021 4:00:00 PM 15.82 60.476 0.41 8.43 77.55 14.31
4/8/2021 4:15:00 PM 15.97 60.746 0.411 8.44 90.21 14.2
4/8/2021 4:30:00 PM 16.1 60.98 0.41 8.44 161 14.07
4/8/2021 4:45:00 PM 16.21 61.178 0.41 8.44 101.9 13.95
4/8/2021 5:00:00 PM 16.32 61.376 0.41 8.44 204.2 13.8
4/8/2021 5:15:00 PM 16.37 61.466 0.41 8.44 146.2 13.58
4/8/2021 5:30:00 PM 16.42 61.556 0.41 8.44 68.55 13.34
4/8/2021 5:45:00 PM 16.43 61.574 0.41 8.42 104.3 13.11
4/8/2021 6:00:00 PM 16.46 61.628 0.414 8.4 126.4 12.86
4/8/2021 6:15:00 PM 16.47 61.646 0.415 8.37 133.4 12.54
4/8/2021 6:30:00 PM 16.46 61.628 0.412 8.36 50.12 12.22
4/8/2021 6:45:00 PM 16.44 61.592 0.412 8.35 60.68 11.86
4/8/2021 7:00:00 PM 16.41 61.538 0.413 8.32 60.17 11.48
4/8/2021 7:15:00 PM 16.39 61.502 0.413 8.29 65.37 11.07
4/8/2021 7:30:00 PM 16.35 61.43 0.414 8.26 57.84 10.63
4/8/2021 7:45:00 PM 16.32 61.376 0.412 8.23 54.47 10.22
4/8/2021 8:00:00 PM 16.28 61.304 0.415 8.19 66.46 9.88
4/8/2021 8:15:00 PM 16.27 61.286 0.416 8.15 51.55 9.55
4/8/2021 8:30:00 PM 16.23 61.214 0.416 8.12 61.2 9.26
4/8/2021 8:45:00 PM 16.19 61.142 0.417 8.08 54.27 9.04
4/8/2021 9:00:00 PM 16.15 61.07 0.417 8.05 76.01 8.82
4/8/2021 9:15:00 PM 16.11 60.998 0.417 8.02 56.64 8.64
4/8/2021 9:30:00 PM 16.06 60.908 0.418 8 72.62 8.47
4/8/2021 9:45:00 PM 16.01 60.818 0.418 7.97 60.01 8.3
4/8/2021 10:00:00 PM 15.92 60.656 0.419 7.95 52.86 8.19
4/8/2021 10:15:00 PM 15.84 60.512 0.419 7.93 63.63 8.08
4/8/2021 10:30:00 PM 15.76 60.368 0.42 7.91 47.52 7.99
4/8/2021 10:45:00 PM 15.67 60.206 0.42 7.89 54.2 7.94
4/8/2021 11:00:00 PM 15.58 60.044 0.421 7.87 75.71 7.85
4/8/2021 11:15:00 PM 15.5 59.9 0.421 7.86 58.36 7.79
4/8/2021 11:30:00 PM 15.41 59.738 0.422 7.84 71.24 7.73
4/8/2021 11:45:00 PM 15.32 59.576 0.422 7.83 62.82 7.67
4/9/2021 12:00:00 AM 15.23 59.414 0.423 7.81 77.13 7.63
4/9/2021 12:15:00 AM 15.14 59.252 0.424 7.8 65.63 7.58
4/9/2021 12:30:00 AM 15.07 59.126 0.424 7.79 103.6 7.56
4/9/2021 12:45:00 AM 14.98 58.964 0.424 7.78 77.81 7.54
4/9/2021 1:00:00 AM 14.88 58.784 0.425 7.77 79.93 7.54
4/9/2021 1:15:00 AM 14.8 58.64 0.425 7.76 75.64 7.55
4/9/2021 1:30:00 AM 14.7 58.46 0.426 7.76 58.76 7.55
4/9/2021 1:45:00 AM 14.61 58.298 0.426 7.75 60.68 7.56
4/9/2021 2:00:00 AM 14.51 58.118 0.426 7.74 82.05 7.56
4/9/2021 2:15:00 AM 14.43 57.974 0.427 7.74 75.22 7.58
4/9/2021 2:30:00 AM 14.33 57.794 0.427 7.73 96.09 7.62
4/9/2021 2:45:00 AM 14.23 57.614 0.427 7.73 108.2 7.65
4/9/2021 3:00:00 AM 14.13 57.434 0.428 7.73 83.97 7.67
4/9/2021 3:15:00 AM 14.03 57.254 0.428 7.73 60.36 7.7
4/9/2021 3:30:00 AM 13.93 57.074 0.428 7.72 72.94 7.73
4/9/2021 3:45:00 AM 13.82 56.876 0.428 7.72 78.11 7.78
4/9/2021 4:00:00 AM 13.72 56.696 0.43 7.72 84.85 7.81
4/9/2021 4:15:00 AM 13.61 56.498 0.43 7.71 74.79 7.82
4/9/2021 4:30:00 AM 13.5 56.3 0.43 7.71 95.83 7.9
4/9/2021 4:45:00 AM 13.4 56.12 0.43 7.71 90.59 7.93
4/9/2021 5:00:00 AM 13.29 55.922 0.431 7.71 86.78 7.98
4/9/2021 5:15:00 AM 13.17 55.706 0.431 7.71 82.3 8.04
4/9/2021 5:30:00 AM 13.07 55.526 0.432 7.71 94.12 8.09
4/9/2021 5:45:00 AM 12.96 55.328 0.432 7.72 125.7 8.14
4/9/2021 6:00:00 AM 12.86 55.148 0.432 7.72 65.93 8.18
4/9/2021 6:15:00 AM 12.76 54.968 0.433 7.72 85.24 8.22
4/9/2021 6:30:00 AM 12.67 54.806 0.439 7.72 87.83 8.24
4/9/2021 6:45:00 AM 12.58 54.644 0.436 7.72 116.8 8.29
4/9/2021 7:00:00 AM 12.5 54.5 0.435 7.72 74.31 8.33
4/9/2021 7:15:00 AM 12.41 54.338 0.434 7.72 132.8 8.4
4/9/2021 7:30:00 AM 12.33 54.194 0.434 7.72 80.71 8.46
4/9/2021 7:45:00 AM 12.25 54.05 0.433 7.73 70.02 8.54
4/9/2021 8:00:00 AM 12.18 53.924 0.433 7.73 84.78 8.61
4/9/2021 8:15:00 AM 12.11 53.798 0.432 7.74 89.95 8.74
4/9/2021 8:30:00 AM 12.05 53.69 0.432 7.75 82.95 8.87
4/9/2021 8:45:00 AM 12 53.6 0.432 7.75 82.37 9.05
4/9/2021 9:00:00 AM 11.97 53.546 0.433 7.77 82.12 9.2
4/9/2021 9:15:00 AM 11.92 53.456 0.433 7.77 93.53 9.27
4/9/2021 9:30:00 AM 11.87 53.366 0.433 7.78 101.9 9.35
4/9/2021 9:45:00 AM 11.83 53.294 0.432 7.78 74.61 9.45
4/9/2021 10:00:00 AM 11.79 53.222 0.431 7.79 116.4 9.53
4/9/2021 10:15:00 AM 11.77 53.186 0.431 7.8 99.7 9.66
4/9/2021 10:30:00 AM 11.75 53.15 0.431 7.8 131.2 9.83
4/9/2021 10:45:00 AM 11.75 53.15 0.431 7.82 87.71 10.07
4/9/2021 11:00:00 AM 11.76 53.168 0.43 7.84 99.2 10.34
4/9/2021 11:15:00 AM 11.79 53.222 0.43 7.86 87.81 10.67
4/9/2021 11:30:00 AM 11.81 53.258 0.429 7.88 86.12 10.91
4/9/2021 11:45:00 AM 11.84 53.312 0.429 7.91 103.5 11.13
4/9/2021 12:00:00 PM 11.86 53.348 0.428 7.92 110 11.29
4/9/2021 12:15:00 PM 11.86 53.348 0.429 7.93 94.6 11.41
4/9/2021 12:30:00 PM 11.86 53.348 0.427 7.94 125.7 11.48
4/9/2021 12:45:00 PM 11.86 53.348 0.427 7.96 88.04 11.56
4/9/2021 1:00:00 PM 11.85 53.33 0.426 7.97 103 11.55
4/9/2021 1:15:00 PM 11.84 53.312 0.426 7.98 102.7 11.59
4/9/2021 1:30:00 PM 11.85 53.33 0.425 7.99 132.8 11.66
4/9/2021 1:45:00 PM 11.87 53.366 0.425 8 86.98 11.74
4/9/2021 2:00:00 PM 11.88 53.384 0.425 8.01 94.45 11.82
4/9/2021 2:15:00 PM 11.88 53.384 0.425 8.01 90.54 11.78
4/9/2021 2:30:00 PM 11.87 53.366 0.424 8.02 91.3 11.75
4/9/2021 2:45:00 PM 11.88 53.384 0.424 8.03 117 11.79
4/9/2021 3:00:00 PM 11.89 53.402 0.423 8.03 105.8 11.86
4/9/2021 3:15:00 PM 11.91 53.438 0.424 8.04 75.43 11.87
4/9/2021 3:30:00 PM 11.91 53.438 0.424 8.04 96.45 11.78
4/9/2021 3:45:00 PM 11.91 53.438 0.424 8.04 125.9 11.71
4/9/2021 4:00:00 PM 11.9 53.42 0.425 8.04 91.65 11.57
4/9/2021 4:15:00 PM 11.9 53.42 0.425 8.03 99.96 11.49
4/9/2021 4:30:00 PM 11.89 53.402 0.426 8.02 80.43 11.4
4/9/2021 4:45:00 PM 11.9 53.42 0.427 8.02 115.4 11.32
4/9/2021 5:00:00 PM 11.89 53.402 0.427 8.02 86.22 11.2
4/9/2021 5:15:00 PM 11.9 53.42 0.427 8.01 79.33 11.1
4/9/2021 5:30:00 PM 11.89 53.402 0.427 8 152.7 10.98
4/9/2021 5:45:00 PM 11.89 53.402 0.426 8 93.02 10.84
4/9/2021 6:00:00 PM 11.89 53.402 0.425 7.98 80.48 10.71
4/9/2021 6:15:00 PM 11.9 53.42 0.425 7.97 95.41 10.6
4/9/2021 6:30:00 PM 11.9 53.42 0.425 7.96 123 10.47
4/9/2021 6:45:00 PM 11.9 53.42 0.425 7.95 114.5 10.35
4/9/2021 7:00:00 PM 11.9 53.42 0.425 7.94 119.5 10.24
4/9/2021 7:15:00 PM 11.91 53.438 0.425 7.93 98.84 10.13
4/9/2021 7:30:00 PM 11.91 53.438 0.425 7.91 103.1 10.02
4/9/2021 7:45:00 PM 11.91 53.438 0.425 7.9 95.45 9.91
4/9/2021 8:00:00 PM 11.91 53.438 0.426 7.9 130.4 9.81
4/9/2021 8:15:00 PM 11.91 53.438 0.426 7.89 107.8 9.73
4/9/2021 8:30:00 PM 11.91 53.438 0.426 7.87 119.1 9.64
4/9/2021 8:45:00 PM 11.91 53.438 0.426 7.87 128.1 9.57
4/9/2021 9:00:00 PM 11.9 53.42 0.426 7.86 145.3 9.49
4/9/2021 9:15:00 PM 11.9 53.42 0.427 7.85 133.8 9.43
4/9/2021 9:30:00 PM 11.9 53.42 0.427 7.84 122.7 9.37
4/9/2021 9:45:00 PM 11.9 53.42 0.427 7.83 88.97 9.31
4/9/2021 10:00:00 PM 11.89 53.402 0.428 7.83 88.23 9.28
4/9/2021 10:15:00 PM 11.88 53.384 0.427 7.82 121.2 9.22
4/9/2021 10:30:00 PM 11.88 53.384 0.428 7.81 96.28 9.17
4/9/2021 10:45:00 PM 11.87 53.366 0.428 7.81 107.8 9.14
4/9/2021 11:00:00 PM 11.86 53.348 0.428 7.8 111.6 9.1
4/9/2021 11:15:00 PM 11.85 53.33 0.429 7.8 78.16 9.08
4/9/2021 11:30:00 PM 11.84 53.312 0.429 7.8 85.31 9.04
4/9/2021 11:45:00 PM 11.82 53.276 0.429 7.79 68.48 9.02
4/10/2021 12:00:00 AM 11.81 53.258 0.429 7.78 81.21 8.99
4/10/2021 12:15:00 AM 11.8 53.24 0.43 7.79 100.1 8.96
4/10/2021 12:30:00 AM 11.78 53.204 0.43 7.78 73.75 8.97
4/10/2021 12:45:00 AM 11.77 53.186 0.43 7.77 125.5 8.94
4/10/2021 1:00:00 AM 11.75 53.15 0.43 7.77 90.07 8.94
4/10/2021 1:15:00 AM 11.74 53.132 0.43 7.77 79.19 8.93
4/10/2021 1:30:00 AM 11.72 53.096 0.43 7.77 81.84 8.93
4/10/2021 1:45:00 AM 11.7 53.06 0.431 7.77 69.68 8.92
4/10/2021 2:00:00 AM 11.69 53.042 0.43 7.77 74.36 8.91
4/10/2021 2:15:00 AM 11.67 53.006 0.431 7.76 83.57 8.92
4/10/2021 2:30:00 AM 11.65 52.97 0.431 7.76 78.4 8.91
4/10/2021 2:45:00 AM 11.63 52.934 0.431 7.76 82.17 8.92
4/10/2021 3:00:00 AM 11.61 52.898 0.432 7.76 79.54 8.92
4/10/2021 3:15:00 AM 11.59 52.862 0.432 7.75 78.12 8.92
4/10/2021 3:30:00 AM 11.57 52.826 0.433 7.76 84.19 8.94
4/10/2021 3:45:00 AM 11.55 52.79 0.432 7.76 77.75 8.94
4/10/2021 4:00:00 AM 11.52 52.736 0.432 7.75 89.79 8.94
4/10/2021 4:15:00 AM 11.5 52.7 0.432 7.75 74.39 8.95
4/10/2021 4:30:00 AM 11.48 52.664 0.433 7.75 81.82 8.94
4/10/2021 4:45:00 AM 11.46 52.628 0.433 7.75 85.87 8.95
4/10/2021 5:00:00 AM 11.44 52.592 0.433 7.75 86.53 8.95
4/10/2021 5:15:00 AM 11.42 52.556 0.433 7.75 71.82 8.96
4/10/2021 5:30:00 AM 11.4 52.52 0.433 7.75 82.06 8.97
4/10/2021 5:45:00 AM 11.38 52.484 0.433 7.75 83.42 9
4/10/2021 6:00:00 AM 11.36 52.448 0.434 7.75 94.39 9.01
4/10/2021 6:15:00 AM 11.34 52.412 0.434 7.75 80.54 9
4/10/2021 6:30:00 AM 11.32 52.376 0.434 7.75 76.88 9.02
4/10/2021 6:45:00 AM 11.3 52.34 0.434 7.75 87.52 9.05
4/10/2021 7:00:00 AM 11.28 52.304 0.434 7.75 102.9 9.07
4/10/2021 7:15:00 AM 11.27 52.286 0.434 7.76 77.2 9.1
4/10/2021 7:30:00 AM 11.26 52.268 0.434 7.76 91.99 9.15
4/10/2021 7:45:00 AM 11.25 52.25 0.434 7.77 79.75 9.23
4/10/2021 8:00:00 AM 11.25 52.25 0.434 7.77 74.33 9.31
4/10/2021 8:15:00 AM 11.25 52.25 0.434 7.77 92.71 9.43
4/10/2021 8:30:00 AM 11.27 52.286 0.434 7.79 87.22 9.59
4/10/2021 8:45:00 AM 11.29 52.322 0.434 7.8 79.15 9.78
4/10/2021 9:00:00 AM 11.31 52.358 0.433 7.81 81.85 9.98
4/10/2021 9:15:00 AM 11.34 52.412 0.433 7.83 87.09 10.19
4/10/2021 9:30:00 AM 11.38 52.484 0.433 7.85 81.05 10.36
4/10/2021 9:45:00 AM 11.41 52.538 0.433 7.86 79.09 10.52
4/10/2021 10:00:00 AM 11.46 52.628 0.432 7.88 84.17 10.77
4/10/2021 10:15:00 AM 11.54 52.772 0.432 7.9 85.61 11.11
4/10/2021 10:30:00 AM 11.65 52.97 0.431 7.93 79.22 11.44
4/10/2021 10:45:00 AM 11.74 53.132 0.431 7.96 87.82 11.69
4/10/2021 11:00:00 AM 11.79 53.222 0.431 7.98 91.99 11.73
4/10/2021 11:15:00 AM 11.81 53.258 0.431 7.99 81.34 11.74
4/10/2021 11:30:00 AM 11.81 53.258 0.431 8 78.51 11.74
4/10/2021 11:45:00 AM 11.82 53.276 0.431 8.01 78.19 11.75
4/10/2021 12:00:00 PM 11.84 53.312 0.431 8.01 77.55 11.75
4/10/2021 12:15:00 PM 11.87 53.366 0.431 8.02 82.71 11.81
4/10/2021 12:30:00 PM 11.9 53.42 0.431 8.02 87.02 11.84
4/10/2021 12:45:00 PM 11.94 53.492 0.43 8.04 94.14 11.96
4/10/2021 1:00:00 PM 11.99 53.582 0.43 8.05 79.85 12.09
4/10/2021 1:15:00 PM 12.04 53.672 0.43 8.07 83.19 12.21
4/10/2021 1:30:00 PM 12.1 53.78 0.43 8.08 70.78 12.29
4/10/2021 1:45:00 PM 12.14 53.852 0.429 8.1 84.15 12.34
4/10/2021 2:00:00 PM 12.18 53.924 0.429 8.11 71.41 12.36
4/10/2021 2:15:00 PM 12.2 53.96 0.429 8.11 73.95 12.29
4/10/2021 2:30:00 PM 12.23 54.014 0.429 8.12 74.62 12.21
4/10/2021 2:45:00 PM 12.26 54.068 0.428 8.11 90.92 12.13
4/10/2021 3:00:00 PM 12.3 54.14 0.428 8.12 80.26 12.17
4/10/2021 3:15:00 PM 12.36 54.248 0.428 8.13 73.84 12.24
4/10/2021 3:30:00 PM 12.43 54.374 0.428 8.14 85.46 12.28
4/10/2021 3:45:00 PM 12.48 54.464 0.427 8.15 81 12.33
4/10/2021 4:00:00 PM 12.52 54.536 0.427 8.15 72.79 12.26
4/10/2021 4:15:00 PM 12.55 54.59 0.427 8.16 77.03 12.22
4/10/2021 4:30:00 PM 12.6 54.68 0.427 8.16 77.69 12.19
4/10/2021 4:45:00 PM 12.66 54.788 0.427 8.17 78.59 12.25
4/10/2021 5:00:00 PM 12.73 54.914 0.427 8.18 76.93 12.24
4/10/2021 5:15:00 PM 12.79 55.022 0.427 8.18 83.85 12.26
4/10/2021 5:30:00 PM 12.85 55.13 0.426 8.19 94.86 12.21
4/10/2021 5:45:00 PM 12.89 55.202 0.426 8.19 82.02 12.1
4/10/2021 6:00:00 PM 12.91 55.238 0.427 8.18 85.54 11.89
4/10/2021 6:15:00 PM 12.93 55.274 0.426 8.17 81.91 11.69
4/10/2021 6:30:00 PM 12.95 55.31 0.427 8.15 94.9 11.45
4/10/2021 6:45:00 PM 12.96 55.328 0.427 8.14 79.6 11.25
4/10/2021 7:00:00 PM 12.97 55.346 0.428 8.12 75.87 11.07
4/10/2021 7:15:00 PM 12.97 55.346 0.428 8.1 65.21 10.84
4/10/2021 7:30:00 PM 12.97 55.346 0.429 8.08 86.93 10.57
4/10/2021 7:45:00 PM 12.97 55.346 0.431 8.05 96.84 10.37
4/10/2021 8:00:00 PM 12.97 55.346 0.435 8.03 73.75 10.13
4/10/2021 8:15:00 PM 12.96 55.328 0.437 8.01 81.41 9.94
4/10/2021 8:30:00 PM 12.96 55.328 0.437 7.99 76.99 9.76
4/10/2021 8:45:00 PM 12.95 55.31 0.435 7.97 73.37 9.62
4/10/2021 9:00:00 PM 12.95 55.31 0.433 7.96 82.79 9.48
4/10/2021 9:15:00 PM 12.94 55.292 0.432 7.94 79.18 9.36
4/10/2021 9:30:00 PM 12.92 55.256 0.431 7.93 89.67 9.27
4/10/2021 9:45:00 PM 12.91 55.238 0.431 7.91 91.52 9.21
4/10/2021 10:00:00 PM 12.91 55.238 0.43 7.9 101.1 9.12
4/10/2021 10:15:00 PM 12.89 55.202 0.43 7.9 86.04 9.04
4/10/2021 10:30:00 PM 12.88 55.184 0.43 7.88 81.37 8.98
4/10/2021 10:45:00 PM 12.87 55.166 0.431 7.88 106.8 8.91
4/10/2021 11:00:00 PM 12.87 55.166 0.431 7.87 78.52 8.87
4/10/2021 11:15:00 PM 12.86 55.148 0.431 7.86 104.6 8.81
4/10/2021 11:30:00 PM 12.85 55.13 0.431 7.85 90.16 8.76
4/10/2021 11:45:00 PM 12.83 55.094 0.431 7.84 95.35 8.7
4/11/2021 12:00:00 AM 12.81 55.058 0.432 7.83 111.1 8.67
4/11/2021 12:15:00 AM 12.8 55.04 0.432 7.82 104.7 8.62
4/11/2021 12:30:00 AM 12.78 55.004 0.432 7.82 97.94 8.61
4/11/2021 12:45:00 AM 12.76 54.968 0.433 7.81 85.29 8.57
4/11/2021 1:00:00 AM 12.74 54.932 0.433 7.81 105.1 8.57
4/11/2021 1:15:00 AM 12.73 54.914 0.433 7.8 97.8 8.53
4/11/2021 1:30:00 AM 12.7 54.86 0.434 7.79 94.85 8.53
4/11/2021 1:45:00 AM 12.69 54.842 0.435 7.78 90.98 8.47
4/11/2021 2:00:00 AM 12.67 54.806 0.435 7.78 105.6 8.48
4/11/2021 2:15:00 AM 12.66 54.788 0.447 7.77 101.8 8.42
4/11/2021 2:30:00 AM 12.63 54.734 0.44 7.76 107.5 8.42
4/11/2021 2:45:00 AM 12.6 54.68 0.437 7.76 88.35 8.43
4/11/2021 3:00:00 AM 12.59 54.662 0.439 7.76 115.6 8.42
4/11/2021 3:15:00 AM 12.58 54.644 0.44 7.75 83.5 8.44
4/11/2021 3:30:00 AM 12.56 54.608 0.442 7.75 107.2 8.45
4/11/2021 3:45:00 AM 12.53 54.554 0.438 7.75 99.92 8.45
4/11/2021 4:00:00 AM 12.5 54.5 0.435 7.75 95.36 8.48
4/11/2021 4:15:00 AM 12.5 54.5 0.435 7.75 120.3 8.46
4/11/2021 4:30:00 AM 12.48 54.464 0.435 7.74 132.3 8.47
4/11/2021 4:45:00 AM 12.45 54.41 0.433 7.74 160.7 8.47
4/11/2021 5:00:00 AM 12.43 54.374 0.429 7.74 159.2 8.45
4/11/2021 5:15:00 AM 12.4 54.32 0.427 7.73 106.9 8.43
4/11/2021 5:30:00 AM 12.38 54.284 0.426 7.72 165.4 8.41
4/11/2021 5:45:00 AM 12.35 54.23 0.423 7.72 169.6 8.4
4/11/2021 6:00:00 AM 12.33 54.194 0.42 7.71 119.2 8.35
4/11/2021 6:15:00 AM 12.31 54.158 0.417 7.7 131.8 8.36
4/11/2021 6:30:00 AM 12.3 54.14 0.415 7.69 166.3 8.34
4/11/2021 6:45:00 AM 12.28 54.104 0.412 7.68 137.2 8.34
4/11/2021 7:00:00 AM 12.27 54.086 0.41 7.69 163.1 8.34
4/11/2021 7:15:00 AM 12.26 54.068 0.408 7.68 140 8.36
4/11/2021 7:30:00 AM 12.24 54.032 0.406 7.68 118.1 8.39
4/11/2021 7:45:00 AM 12.22 53.996 0.403 7.68 160.4 8.43
4/11/2021 8:00:00 AM 12.22 53.996 0.402 7.68 160.4 8.49
4/11/2021 8:15:00 AM 12.22 53.996 0.401 7.68 163.6 8.58
4/11/2021 8:30:00 AM 12.21 53.978 0.4 7.69 128.6 8.67
4/11/2021 8:45:00 AM 12.2 53.96 0.398 7.69 184.9 8.73
4/11/2021 9:00:00 AM 12.19 53.942 0.398 7.7 145.4 8.82
4/11/2021 9:15:00 AM 12.18 53.924 0.398 7.7 143.9 8.94
4/11/2021 9:30:00 AM 12.17 53.906 0.396 7.71 150.7 9.04
4/11/2021 9:45:00 AM 12.19 53.942 0.394 7.72 150.4 9.2
4/11/2021 10:00:00 AM 12.22 53.996 0.392 7.72 158 9.27
4/11/2021 10:15:00 AM 12.22 53.996 0.388 7.73 132.1 9.33
4/11/2021 10:30:00 AM 12.23 54.014 0.384 7.73 142.2 9.37
4/11/2021 10:45:00 AM 12.28 54.104 0.381 7.74 152 9.53
4/11/2021 11:00:00 AM 12.38 54.284 0.38 7.76 124.8 9.85
4/11/2021 11:15:00 AM 12.52 54.536 0.379 7.78 149.2 10.22
4/11/2021 11:30:00 AM 12.65 54.77 0.379 7.81 162.9 10.49
4/11/2021 11:45:00 AM 12.78 55.004 0.378 7.85 161.6 10.77
4/11/2021 12:00:00 PM 12.91 55.238 0.378 7.87 158.4 10.97
4/11/2021 12:15:00 PM 13.06 55.508 0.378 7.9 141.7 11.18
4/11/2021 12:30:00 PM 13.19 55.742 0.377 7.93 150 11.32
4/11/2021 12:45:00 PM 13.34 56.012 0.375 7.94 140.3 11.47
4/11/2021 1:00:00 PM 13.57 56.426 0.374 7.97 157.8 11.62
4/11/2021 1:15:00 PM 13.82 56.876 0.372 7.98 126.9 11.74
4/11/2021 1:30:00 PM 13.99 57.182 0.371 8 192.2 11.8
4/11/2021 1:45:00 PM 14.1 57.38 0.369 8.01 200.6 11.84
4/11/2021 2:00:00 PM 14.32 57.776 0.369 8.03 248.4 11.92
4/11/2021 2:15:00 PM 14.65 58.37 0.368 8.04 228.6 12.03
4/11/2021 2:30:00 PM 14.78 58.604 0.368 8.05 236.3 12
4/11/2021 2:45:00 PM 14.97 58.946 0.368 8.07 310.9 12.06
4/11/2021 3:00:00 PM 15.08 59.144 0.368 8.07 188.6 12.04
4/11/2021 3:15:00 PM 15.33 59.594 0.369 8.09 279.8 12.08
4/11/2021 3:30:00 PM 15.42 59.756 0.37 8.09 197 11.97
4/11/2021 3:45:00 PM 15.46 59.828 0.371 8.09 345.8 11.77
4/11/2021 4:00:00 PM 15.42 59.756 0.371 8.07 145.7 11.38
4/11/2021 4:15:00 PM 15.76 60.368 0.399 7.99 317.3 10.74
4/11/2021 4:30:00 PM 15.6 60.08 0.384 7.97 276.2 10.77
4/11/2021 4:45:00 PM 15.67 60.206 0.376 8 261.9 11
4/11/2021 5:00:00 PM 15.79 60.422 0.374 8.02 241.3 11.13
4/11/2021 5:15:00 PM 15.82 60.476 0.373 8.04 260.5 10.95
4/11/2021 5:30:00 PM 15.91 60.638 0.37 8.03 393 10.65
4/11/2021 5:45:00 PM 16.09 60.962 0.368 7.98 289.2 10.51
4/11/2021 6:00:00 PM 16.22 61.196 0.361 7.98 274.6 10.18
4/11/2021 6:15:00 PM 16.31 61.358 0.348 7.93 273.8 9.59
4/11/2021 6:30:00 PM 16.33 61.394 0.336 7.9 323.5 9.08
4/11/2021 6:45:00 PM 16.34 61.412 0.323 7.84 362.1 8.65
4/11/2021 7:00:00 PM 16.33 61.394 0.317 7.77 723.9 8.33
4/11/2021 7:15:00 PM 16.33 61.394 0.316 7.73 541.8 8.14
4/11/2021 7:30:00 PM 16.35 61.43 0.315 7.69 646 7.94
4/11/2021 7:45:00 PM 16.39 61.502 0.317 7.67 887.5 7.82
4/11/2021 8:00:00 PM 16.38 61.484 0.329 7.66 515.4 7.8
4/11/2021 8:15:00 PM 16.3 61.34 0.345 7.66 427.1 7.87
4/11/2021 8:30:00 PM 15.54 59.972 0.346 7.74 1160 8.68
4/11/2021 8:45:00 PM 15.6 60.08 0.37 7.74 828.2 8.63
4/11/2021 9:00:00 PM 15.73 60.314 0.366 7.69 599.4 8.51
4/11/2021 9:15:00 PM 15.7 60.26 0.363 7.75 364.2 8.53
4/11/2021 9:30:00 PM 15.49 59.882 0.337 7.78 442.8 8.6
4/11/2021 9:45:00 PM 15.18 59.324 0.293 7.76 754.6 8.65
4/11/2021 10:00:00 PM 14.89 58.802 0.254 7.75 867.2 8.64
4/11/2021 10:15:00 PM 14.7 58.46 0.244 7.7 823.1 8.59
4/11/2021 10:30:00 PM 14.59 58.262 0.24 7.71 731.4 8.49
4/11/2021 10:45:00 PM 14.52 58.136 0.24 7.69 665 8.4
4/11/2021 11:00:00 PM 14.45 58.01 0.243 7.68 606.8 8.31
4/11/2021 11:15:00 PM 14.41 57.938 0.246 7.67 536.6 8.28
4/11/2021 11:30:00 PM 14.4 57.92 0.274 7.63 466.8 8.22
4/11/2021 11:45:00 PM 14.45 58.01 0.321 7.6 453.8 8.13
4/12/2021 12:00:00 AM 14.44 57.992 0.354 7.6 367.9 8.09
4/12/2021 12:15:00 AM 14.38 57.884 0.349 7.62 314.3 8.1
4/12/2021 12:30:00 AM 14.34 57.812 0.321 7.62 281.6 8.11
4/12/2021 12:45:00 AM 14.19 57.542 0.296 7.6 327.2 8.1
4/12/2021 1:00:00 AM 13.97 57.146 0.279 7.6 359.9 8.09
4/12/2021 1:15:00 AM 13.79 56.822 0.271 7.59 393.6 8.04
4/12/2021 1:30:00 AM 13.63 56.534 0.27 7.57 445.6 8.03
4/12/2021 1:45:00 AM 13.49 56.282 0.275 7.56 398.6 8.04
4/12/2021 2:00:00 AM 13.35 56.03 0.282 7.54 383.6 8.11
4/12/2021 2:15:00 AM 13.22 55.796 0.289 7.53 342.2 8.2
4/12/2021 2:30:00 AM 13.1 55.58 0.295 7.5 318.1 8.28
4/12/2021 2:45:00 AM 12.98 55.364 0.299 7.53 304.7 8.36
4/12/2021 3:00:00 AM 12.85 55.13 0.304 7.53 270.1 8.44
4/12/2021 3:15:00 AM 12.72 54.896 0.309 7.52 244.3 8.51
4/12/2021 3:30:00 AM 12.6 54.68 0.313 7.53 238.4 8.56
4/12/2021 3:45:00 AM 12.47 54.446 0.315 7.53 259.4 8.59
4/12/2021 4:00:00 AM 12.36 54.248 0.316 7.48 227.1 8.64
4/12/2021 4:15:00 AM 12.27 54.086 0.317 7.52 201.9 8.65
4/12/2021 4:30:00 AM 12.18 53.924 0.318 7.53 239.9 8.68
4/12/2021 4:45:00 AM 12.09 53.762 0.319 7.54 211.5 8.71
4/12/2021 5:00:00 AM 12.01 53.618 0.321 7.53 189.6 8.74
4/12/2021 5:15:00 AM 11.94 53.492 0.324 7.53 185 8.76
4/12/2021 5:30:00 AM 11.87 53.366 0.327 7.54 196.5 8.78
4/12/2021 5:45:00 AM 11.8 53.24 0.328 7.54 207.6 8.79
4/12/2021 6:00:00 AM 11.74 53.132 0.33 7.54 197.2 8.82
4/12/2021 6:15:00 AM 11.68 53.024 0.329 7.54 228.2 8.84
4/12/2021 6:30:00 AM 11.63 52.934 0.33 7.51 168.2 8.87
4/12/2021 6:45:00 AM 11.58 52.844 0.33 7.54 225.3 8.89
4/12/2021 7:00:00 AM 11.53 52.754 0.329 7.53 198.3 8.92
4/12/2021 7:15:00 AM 11.49 52.682 0.329 7.53 225.5 8.93
4/12/2021 7:30:00 AM 11.45 52.61 0.329 7.43 186.3 8.97
4/12/2021 7:45:00 AM 11.41 52.538 0.329 7.54 205.1 9
4/12/2021 8:00:00 AM 11.38 52.484 0.329 7.54 177 9.02
4/12/2021 8:15:00 AM 11.35 52.43 0.33 7.49 241.7 9.05
4/12/2021 8:30:00 AM 11.31 52.358 0.331 7.43 177.7 9.07
4/12/2021 8:45:00 AM 11.28 52.304 0.333 7.55 185.5 9.1
4/12/2021 9:00:00 AM 11.25 52.25 0.334 7.55 189.6 9.13
4/12/2021 9:15:00 AM 11.23 52.214 0.337 7.55 195.7 9.17
4/12/2021 9:30:00 AM 11.2 52.16 0.339 7.55 229.4 9.19
4/12/2021 9:45:00 AM 11.18 52.124 0.342 7.55 260.8 9.25
4/12/2021 10:00:00 AM 11.17 52.106 0.344 7.56 191.1 9.32
4/12/2021 10:15:00 AM 11.18 52.124 0.346 7.57 193 9.42
4/12/2021 10:30:00 AM 11.18 52.124 0.348 7.58 178.4 9.48
4/12/2021 10:45:00 AM 11.17 52.106 0.35 7.59 191 9.53
4/12/2021 11:00:00 AM 11.18 52.124 0.352 7.59 182.1 9.59
4/12/2021 11:15:00 AM 11.18 52.124 0.354 7.6 166 9.65
4/12/2021 11:30:00 AM 11.2 52.16 0.355 7.61 175.6 9.75
4/12/2021 11:45:00 AM 11.28 52.304 0.356 7.57 201.4 9.92
4/12/2021 12:00:00 PM 11.4 52.52 0.357 7.63 168.1 10.12
4/12/2021 12:15:00 PM 11.5 52.7 0.358 7.64 190.2 10.29
4/12/2021 12:30:00 PM 11.53 52.754 0.358 7.66 211.9 10.34
4/12/2021 12:45:00 PM 11.56 52.808 0.36 7.67 223.4 10.41
4/12/2021 1:00:00 PM 11.63 52.934 0.36 7.68 239 10.5
4/12/2021 1:15:00 PM 11.7 53.06 0.36 7.68 191.9 10.6
4/12/2021 1:30:00 PM 11.76 53.168 0.361 7.7 173.9 10.67
4/12/2021 1:45:00 PM 11.78 53.204 0.361 7.66 202 10.67
4/12/2021 2:00:00 PM 11.82 53.276 0.361 7.67 194.2 10.72
4/12/2021 2:15:00 PM 11.87 53.366 0.362 7.68 172 10.78
4/12/2021 2:30:00 PM 11.9 53.42 0.361 7.69 189.5 10.84
4/12/2021 2:45:00 PM 11.93 53.474 0.361 7.74 256.2 10.87
4/12/2021 3:00:00 PM 11.95 53.51 0.362 7.7 167.7 10.84
4/12/2021 3:15:00 PM 11.95 53.51 0.362 7.74 169.3 10.75
4/12/2021 3:30:00 PM 11.95 53.51 0.362 7.74 173.9 10.66
4/12/2021 3:45:00 PM 11.95 53.51 0.361 7.73 172.7 10.55
4/12/2021 4:00:00 PM 11.96 53.528 0.361 7.73 199 10.5
4/12/2021 4:15:00 PM 11.97 53.546 0.362 7.73 175.4 10.44
4/12/2021 4:30:00 PM 11.99 53.582 0.362 7.72 153.8 10.42
4/12/2021 4:45:00 PM 12.04 53.672 0.361 7.7 205.6 10.47
4/12/2021 5:00:00 PM 12.12 53.816 0.362 7.74 189.6 10.59
4/12/2021 5:15:00 PM 12.18 53.924 0.361 7.75 218.4 10.68
4/12/2021 5:30:00 PM 12.21 53.978 0.361 7.75 195.4 10.64
4/12/2021 5:45:00 PM 12.22 53.996 0.361 7.75 187.9 10.54
4/12/2021 6:00:00 PM 12.22 53.996 0.361 7.71 170.9 10.41
4/12/2021 6:15:00 PM 12.22 53.996 0.361 7.73 213.2 10.31
4/12/2021 6:30:00 PM 12.23 54.014 0.362 7.73 180.2 10.19
4/12/2021 6:45:00 PM 12.22 53.996 0.361 7.68 179.1 10.04
4/12/2021 7:00:00 PM 12.2 53.96 0.366 7.71 165.6 9.91
4/12/2021 7:15:00 PM 12.18 53.924 0.372 7.69 230.5 9.85
4/12/2021 7:30:00 PM 12.17 53.906 0.365 7.66 243.6 9.79
4/12/2021 7:45:00 PM 12.15 53.87 0.363 7.66 211.3 9.77
4/12/2021 8:00:00 PM 12.15 53.87 0.361 7.67 207.5 9.73
4/12/2021 8:15:00 PM 12.14 53.852 0.36 7.67 181.9 9.68
4/12/2021 8:30:00 PM 12.13 53.834 0.359 7.67 264.3 9.63
4/12/2021 8:45:00 PM 12.11 53.798 0.357 7.66 209.6 9.59
4/12/2021 9:00:00 PM 12.09 53.762 0.356 7.66 222 9.55
4/12/2021 9:15:00 PM 12.07 53.726 0.354 7.64 288.4 9.51
4/12/2021 9:30:00 PM 12.04 53.672 0.352 7.62 199.8 9.46
4/12/2021 9:45:00 PM 12 53.6 0.352 7.62 275.8 9.43
4/12/2021 10:00:00 PM 11.96 53.528 0.353 7.63 213.6 9.39
4/12/2021 10:15:00 PM 11.92 53.456 0.353 7.61 250.5 9.38
4/12/2021 10:30:00 PM 11.87 53.366 0.353 7.64 225.8 9.35
4/12/2021 10:45:00 PM 11.82 53.276 0.353 7.63 220.9 9.33
4/12/2021 11:00:00 PM 11.77 53.186 0.354 7.58 199.6 9.31
4/12/2021 11:15:00 PM 11.73 53.114 0.353 7.6 292.8 9.29
4/12/2021 11:30:00 PM 11.68 53.024 0.353 7.62 209.5 9.3
4/12/2021 11:45:00 PM 11.63 52.934 0.352 7.62 242.6 9.29
4/13/2021 12:00:00 AM 11.57 52.826 0.351 7.57 293.2 9.3
4/13/2021 12:15:00 AM 11.52 52.736 0.35 7.58 261.3 9.3
4/13/2021 12:30:00 AM 11.47 52.646 0.348 7.61 196.6 9.29
4/13/2021 12:45:00 AM 11.42 52.556 0.347 7.61 205 9.32
4/13/2021 1:00:00 AM 11.36 52.448 0.346 7.61 298 9.33
4/13/2021 1:15:00 AM 11.31 52.358 0.345 7.6 312.1 9.34
4/13/2021 1:30:00 AM 11.26 52.268 0.345 7.57 263.5 9.36
4/13/2021 1:45:00 AM 11.2 52.16 0.345 7.6 238.1 9.37
4/13/2021 2:00:00 AM 11.16 52.088 0.344 7.58 262.9 9.38
4/13/2021 2:15:00 AM 11.11 51.998 0.345 7.6 333.5 9.41
4/13/2021 2:30:00 AM 11.06 51.908 0.345 7.6 240.2 9.41
4/13/2021 2:45:00 AM 11.01 51.818 0.345 7.56 270 9.41
4/13/2021 3:00:00 AM 10.97 51.746 0.345 7.55 225.5 9.42
4/13/2021 3:15:00 AM 10.93 51.674 0.345 7.6 252.3 9.43
4/13/2021 3:30:00 AM 10.88 51.584 0.346 7.57 219.9 9.45
4/13/2021 3:45:00 AM 10.84 51.512 0.346 7.61 217.8 9.46
4/13/2021 4:00:00 AM 10.8 51.44 0.346 7.61 219 9.47
4/13/2021 4:15:00 AM 10.77 51.386 0.346 7.61 272.9 9.49
4/13/2021 4:30:00 AM 10.73 51.314 0.345 7.61 214.2 9.5
4/13/2021 4:45:00 AM 10.69 51.242 0.345 7.61 185.8 9.51
4/13/2021 5:00:00 AM 10.66 51.188 0.345 7.61 230.7 9.54
4/13/2021 5:15:00 AM 10.63 51.134 0.345 7.6 193.1 9.54
4/13/2021 5:30:00 AM 10.6 51.08 0.345 7.6 248.8 9.55
4/13/2021 5:45:00 AM 10.58 51.044 0.346 7.54 373.8 9.56
4/13/2021 6:00:00 AM 10.55 50.99 0.345 7.59 242.1 9.57
4/13/2021 6:15:00 AM 10.52 50.936 0.346 7.59 297.1 9.58
4/13/2021 6:30:00 AM 10.5 50.9 0.345 7.55 269 9.59
4/13/2021 6:45:00 AM 10.48 50.864 0.346 7.6 264 9.61
4/13/2021 7:00:00 AM 10.46 50.828 0.346 7.54 342.9 9.61
4/13/2021 7:15:00 AM 10.44 50.792 0.346 7.61 222.5 9.64
4/13/2021 7:30:00 AM 10.43 50.774 0.346 7.61 200.3 9.66
4/13/2021 7:45:00 AM 10.41 50.738 0.346 7.54 221.7 9.7
4/13/2021 8:00:00 AM 10.4 50.72 0.346 7.6 245.8 9.71
4/13/2021 8:15:00 AM 10.39 50.702 0.346 7.61 231 9.75
4/13/2021 8:30:00 AM 10.39 50.702 0.347 7.56 271.2 9.83
4/13/2021 8:45:00 AM 10.41 50.738 0.347 7.62 266.3 9.92
4/13/2021 9:00:00 AM 10.44 50.792 0.347 7.63 316.5 10.03
4/13/2021 9:15:00 AM 10.48 50.864 0.347 7.64 291.3 10.17
4/13/2021 9:30:00 AM 10.51 50.918 0.348 7.64 281.6 10.24
4/13/2021 9:45:00 AM 10.53 50.954 0.348 7.65 276.6 10.29
4/13/2021 10:00:00 AM 10.54 50.972 0.349 7.66 272.2 10.31
4/13/2021 10:15:00 AM 10.55 50.99 0.349 7.66 181.1 10.35
4/13/2021 10:30:00 AM 10.57 51.026 0.349 7.67 305.8 10.39
4/13/2021 10:45:00 AM 10.59 51.062 0.349 7.67 192.8 10.45
4/13/2021 11:00:00 AM 10.63 51.134 0.349 7.67 282.2 10.57
4/13/2021 11:15:00 AM 10.7 51.26 0.349 7.68 306.7 10.72
4/13/2021 11:30:00 AM 10.83 51.494 0.349 7.67 299.7 10.93
4/13/2021 11:45:00 AM 10.93 51.674 0.349 7.72 229.3 11.08
4/13/2021 12:00:00 PM 10.97 51.746 0.348 7.7 238.2 11.12
4/13/2021 12:15:00 PM 11.06 51.908 0.348 7.73 170.5 11.21
4/13/2021 12:30:00 PM 11.23 52.214 0.348 7.73 318.1 11.37
4/13/2021 12:45:00 PM 11.41 52.538 0.348 7.77 267.2 11.52
4/13/2021 1:00:00 PM 11.56 52.808 0.348 7.75 208.1 11.61
4/13/2021 1:15:00 PM 11.65 52.97 0.348 7.77 247.9 11.68
4/13/2021 1:30:00 PM 11.74 53.132 0.348 7.8 221.7 11.71
4/13/2021 1:45:00 PM 11.86 53.348 0.347 7.78 350.9 11.75
4/13/2021 2:00:00 PM 12 53.6 0.347 7.83 213.2 11.78
4/13/2021 2:15:00 PM 12.13 53.834 0.348 7.84 273.8 11.85
4/13/2021 2:30:00 PM 12.25 54.05 0.347 7.83 243.6 11.86
4/13/2021 2:45:00 PM 12.35 54.23 0.347 7.83 268.9 11.85
4/13/2021 3:00:00 PM 12.54 54.572 0.347 7.88 241.2 11.91
4/13/2021 3:15:00 PM 12.8 55.04 0.347 7.85 291 12.06
4/13/2021 3:30:00 PM 13.05 55.49 0.347 7.91 271 12.13
4/13/2021 3:45:00 PM 13.23 55.814 0.347 7.91 159.2 12.13
4/13/2021 4:00:00 PM 13.35 56.03 0.347 7.93 243.1 12.07
4/13/2021 4:15:00 PM 13.53 56.354 0.347 7.91 334.6 12.09
4/13/2021 4:30:00 PM 13.7 56.66 0.347 7.92 253.9 12.06
4/13/2021 4:45:00 PM 13.79 56.822 0.347 7.95 241 11.92
4/13/2021 5:00:00 PM 13.86 56.948 0.347 7.95 288.3 11.75
4/13/2021 5:15:00 PM 13.94 57.092 0.347 7.9 243.4 11.6
4/13/2021 5:30:00 PM 14 57.2 0.348 7.93 290.4 11.37
4/13/2021 5:45:00 PM 14.08 57.344 0.348 7.89 199.5 11.14
4/13/2021 6:00:00 PM 14.17 57.506 0.348 7.9 338.7 10.98
4/13/2021 6:15:00 PM 14.28 57.704 0.349 7.9 238.4 10.89
4/13/2021 6:30:00 PM 14.35 57.83 0.349 7.85 263.6 10.73
4/13/2021 6:45:00 PM 14.41 57.938 0.35 7.84 236.3 10.55
4/13/2021 7:00:00 PM 14.44 57.992 0.352 7.82 316.7 10.35
4/13/2021 7:15:00 PM 14.47 58.046 0.354 7.84 239.9 10.18
4/13/2021 7:30:00 PM 14.5 58.1 0.355 7.79 294.6 10.02
4/13/2021 7:45:00 PM 14.51 58.118 0.353 7.78 268.5 9.89
4/13/2021 8:00:00 PM 14.5 58.1 0.351 7.78 252.4 9.73
4/13/2021 8:15:00 PM 14.48 58.064 0.35 7.79 386.6 9.58
4/13/2021 8:30:00 PM 14.45 58.01 0.35 7.77 247.6 9.44
4/13/2021 8:45:00 PM 14.43 57.974 0.35 7.76 225.2 9.33
4/13/2021 9:00:00 PM 14.4 57.92 0.351 7.7 286.9 9.23
4/13/2021 9:15:00 PM 14.37 57.866 0.351 7.73 245.8 9.14
4/13/2021 9:30:00 PM 14.32 57.776 0.351 7.72 315.9 9.07
4/13/2021 9:45:00 PM 14.27 57.686 0.351 7.71 269.1 9
4/13/2021 10:00:00 PM 14.2 57.56 0.352 7.69 257.1 8.92
4/13/2021 10:15:00 PM 14.12 57.416 0.352 7.68 196.7 8.88
4/13/2021 10:30:00 PM 14.02 57.236 0.353 7.65 306.9 8.85
4/13/2021 10:45:00 PM 13.9 57.02 0.353 7.67 257.6 8.81
4/13/2021 11:00:00 PM 13.78 56.804 0.354 7.66 302.1 8.81
4/13/2021 11:15:00 PM 13.65 56.57 0.355 7.66 204.9 8.8
4/13/2021 11:30:00 PM 13.52 56.336 0.356 7.64 268.5 8.8
4/13/2021 11:45:00 PM 13.38 56.084 0.357 7.65 264.2 8.81
4/14/2021 12:00:00 AM 13.23 55.814 0.357 7.64 335.3 8.84
4/14/2021 12:15:00 AM 13.09 55.562 0.356 7.61 251.1 8.85
4/14/2021 12:30:00 AM 12.94 55.292 0.356 7.63 271.7 8.87
4/14/2021 12:45:00 AM 12.79 55.022 0.354 7.62 267.8 8.9
4/14/2021 1:00:00 AM 12.65 54.77 0.355 7.62 278.8 8.94
4/14/2021 1:15:00 AM 12.49 54.482 0.355 7.62 348.9 8.95
4/14/2021 1:30:00 AM 12.35 54.23 0.355 7.56 295.2 8.99
4/14/2021 1:45:00 AM 12.2 53.96 0.355 7.62 403.6 9.03
4/14/2021 2:00:00 AM 12.06 53.708 0.355 7.62 315.6 9.06
4/14/2021 2:15:00 AM 11.91 53.438 0.355 7.62 288 9.11
4/14/2021 2:30:00 AM 11.78 53.204 0.355 7.61 375.1 9.17
4/14/2021 2:45:00 AM 11.66 52.988 0.355 7.61 225.4 9.2
4/14/2021 3:00:00 AM 11.54 52.772 0.355 7.61 263.2 9.24
4/14/2021 3:15:00 AM 11.41 52.538 0.356 7.61 405.8 9.29
4/14/2021 3:30:00 AM 11.28 52.304 0.355 7.6 374.9 9.32
4/14/2021 3:45:00 AM 11.15 52.07 0.355 7.61 295.7 9.37
4/14/2021 4:00:00 AM 11.02 51.836 0.356 7.61 316.6 9.42
4/14/2021 4:15:00 AM 10.91 51.638 0.356 7.61 302.3 9.47
4/14/2021 4:30:00 AM 10.81 51.458 0.356 7.61 369.7 9.5
4/14/2021 4:45:00 AM 10.7 51.26 0.355 7.61 343.3 9.53
4/14/2021 5:00:00 AM 10.61 51.098 0.356 7.61 433 9.56
4/14/2021 5:15:00 AM 10.52 50.936 0.355 7.6 329.3 9.6
4/14/2021 5:30:00 AM 10.44 50.792 0.356 7.61 288 9.64
4/14/2021 5:45:00 AM 10.36 50.648 0.356 7.61 290.5 9.67
4/14/2021 6:00:00 AM 10.3 50.54 0.356 7.56 362.7 9.69
4/14/2021 6:15:00 AM 10.24 50.432 0.356 7.61 293.4 9.71
4/14/2021 6:30:00 AM 10.17 50.306 0.356 7.61 370.1 9.75
4/14/2021 6:45:00 AM 10.11 50.198 0.356 7.61 351.2 9.77
4/14/2021 7:00:00 AM 10.07 50.126 0.355 7.6 397.7 9.82
4/14/2021 7:15:00 AM 10.04 50.072 0.356 7.51 369.3 9.87
4/14/2021 7:30:00 AM 10.02 50.036 0.355 7.61 298.8 9.93
4/14/2021 7:45:00 AM 10 50 0.355 7.62 343.3 9.98
4/14/2021 8:00:00 AM 9.99 49.982 0.355 7.61 305.8 10.04
4/14/2021 8:15:00 AM 9.99 49.982 0.356 7.55 300.8 10.11
4/14/2021 8:30:00 AM 10 50 0.355 7.64 364.3 10.21
4/14/2021 8:45:00 AM 10 50 0.355 7.6 356.8 10.25
4/14/2021 9:00:00 AM 10.02 50.036 0.355 7.64 332.6 10.35
4/14/2021 9:15:00 AM 10.04 50.072 0.356 7.64 291.7 10.43
4/14/2021 9:30:00 AM 10.08 50.144 0.355 7.66 316.5 10.55
4/14/2021 9:45:00 AM 10.12 50.216 0.355 7.67 288.2 10.63
4/14/2021 10:00:00 AM 10.14 50.252 0.356 7.62 338.6 10.66
4/14/2021 10:15:00 AM 10.16 50.288 0.356 7.68 362.8 10.67
4/14/2021 10:30:00 AM 10.19 50.342 0.356 7.68 345.5 10.72
4/14/2021 10:45:00 AM 10.23 50.414 0.356 7.68 286.7 10.78
4/14/2021 11:00:00 AM 10.28 50.504 0.356 7.65 370.9 10.86
4/14/2021 11:15:00 AM 10.31 50.558 0.356 7.7 391.4 10.88
4/14/2021 11:30:00 AM 10.35 50.63 0.356 7.71 339.1 10.93
4/14/2021 11:45:00 AM 10.42 50.756 0.356 7.71 389.9 11.06
4/14/2021 12:00:00 PM 10.49 50.882 0.356 7.68 291.6 11.13
4/14/2021 12:15:00 PM 10.55 50.99 0.356 7.73 267.6 11.24
4/14/2021 12:30:00 PM 10.64 51.152 0.356 7.72 274.2 11.38
4/14/2021 12:45:00 PM 10.76 51.368 0.356 7.73 384.4 11.51
4/14/2021 1:00:00 PM 10.94 51.692 0.356 7.79 302.6 11.69
4/14/2021 1:15:00 PM 11.09 51.962 0.355 7.78 370.8 11.81
4/14/2021 1:30:00 PM 11.3 52.34 0.355 7.8 278.1 11.96
4/14/2021 1:45:00 PM 11.52 52.736 0.354 7.82 373.7 12.05
4/14/2021 2:00:00 PM 11.77 53.186 0.354 7.84 347.7 12.16
4/14/2021 2:15:00 PM 11.97 53.546 0.354 7.86 430.2 12.22
4/14/2021 2:30:00 PM 12.18 53.924 0.355 7.87 395.1 12.27
4/14/2021 2:45:00 PM 12.39 54.302 0.354 7.88 345.3 12.31
4/14/2021 3:00:00 PM 12.54 54.572 0.354 7.89 395.9 12.3
4/14/2021 3:15:00 PM 12.7 54.86 0.354 7.9 350.9 12.33
4/14/2021 3:30:00 PM 12.78 55.004 0.354 7.92 366.8 12.27
4/14/2021 3:45:00 PM 12.86 55.148 0.354 7.92 418.4 12.22
4/14/2021 4:00:00 PM 12.92 55.256 0.354 7.93 344.4 12.14
4/14/2021 4:15:00 PM 12.96 55.328 0.354 7.92 443.2 12
4/14/2021 4:30:00 PM 13.04 55.472 0.354 7.92 323.7 11.97
4/14/2021 4:45:00 PM 13.15 55.67 0.354 7.92 397.9 11.98
4/14/2021 5:00:00 PM 13.28 55.904 0.353 7.93 406.1 12
4/14/2021 5:15:00 PM 13.37 56.066 0.353 7.94 270.6 11.89
4/14/2021 5:30:00 PM 13.49 56.282 0.353 7.94 319.9 11.82
4/14/2021 5:45:00 PM 13.54 56.372 0.353 7.96 334.2 11.68
4/14/2021 6:00:00 PM 13.62 56.516 0.353 7.95 290.3 11.6
4/14/2021 6:15:00 PM 13.67 56.606 0.353 7.94 339.1 11.45
4/14/2021 6:30:00 PM 13.71 56.678 0.353 7.95 492 11.27
4/14/2021 6:45:00 PM 13.73 56.714 0.354 7.94 312.4 11.11
4/14/2021 7:00:00 PM 13.74 56.732 0.354 7.93 354.4 10.9
4/14/2021 7:15:00 PM 13.75 56.75 0.354 7.89 374.4 10.69
4/14/2021 7:30:00 PM 13.75 56.75 0.355 7.86 295.2 10.51
4/14/2021 7:45:00 PM 13.74 56.732 0.355 7.88 337.9 10.32
4/14/2021 8:00:00 PM 13.72 56.696 0.355 7.86 304.8 10.14
4/14/2021 8:15:00 PM 13.71 56.678 0.355 7.84 331.6 9.98
4/14/2021 8:30:00 PM 13.7 56.66 0.356 7.77 304.5 9.86
4/14/2021 8:45:00 PM 13.68 56.624 0.356 7.79 348.6 9.73
4/14/2021 9:00:00 PM 13.65 56.57 0.356 7.8 444.8 9.62
4/14/2021 9:15:00 PM 13.63 56.534 0.355 7.75 356 9.53
4/14/2021 9:30:00 PM 13.6 56.48 0.355 7.75 332.9 9.45
4/14/2021 9:45:00 PM 13.56 56.408 0.355 7.76 288.6 9.37
4/14/2021 10:00:00 PM 13.5 56.3 0.355 7.71 382.5 9.3
4/14/2021 10:15:00 PM 13.43 56.174 0.356 7.75 339.2 9.24
4/14/2021 10:30:00 PM 13.35 56.03 0.356 7.74 392.2 9.17
4/14/2021 10:45:00 PM 13.26 55.868 0.357 7.72 398.8 9.14
4/14/2021 11:00:00 PM 13.17 55.706 0.358 7.71 337.4 9.08
4/14/2021 11:15:00 PM 13.07 55.526 0.359 7.71 376 9.06
4/14/2021 11:30:00 PM 12.97 55.346 0.359 7.68 296.4 9.03
4/14/2021 11:45:00 PM 12.87 55.166 0.359 7.69 294.7 9
4/15/2021 12:00:00 AM 12.77 54.986 0.36 7.68 346 8.99
4/15/2021 12:15:00 AM 12.67 54.806 0.36 7.6 348.9 8.98
4/15/2021 12:30:00 AM 12.56 54.608 0.36 7.67 360.8 8.99
4/15/2021 12:45:00 AM 12.46 54.428 0.361 7.6 436.2 8.99
4/15/2021 1:00:00 AM 12.36 54.248 0.361 7.66 379.8 9.01
4/15/2021 1:15:00 AM 12.25 54.05 0.361 7.62 366.1 9.03
4/15/2021 1:30:00 AM 12.14 53.852 0.361 7.65 350.2 9.05
4/15/2021 1:45:00 AM 12.03 53.654 0.361 7.65 347.7 9.07
4/15/2021 2:00:00 AM 11.92 53.456 0.362 7.64 406.8 9.1
4/15/2021 2:15:00 AM 11.8 53.24 0.362 7.56 308.7 9.14
4/15/2021 2:30:00 AM 11.69 53.042 0.362 7.63 389.7 9.16
4/15/2021 2:45:00 AM 11.57 52.826 0.362 7.64 352.9 9.21
4/15/2021 3:00:00 AM 11.45 52.61 0.362 7.64 404.2 9.24
4/15/2021 3:15:00 AM 11.33 52.394 0.362 7.63 393.4 9.28
4/15/2021 3:30:00 AM 11.22 52.196 0.362 7.64 411.3 9.31
4/15/2021 3:45:00 AM 11.12 52.016 0.362 7.57 320 9.34
4/15/2021 4:00:00 AM 11.02 51.836 0.362 7.64 480.8 9.37
4/15/2021 4:15:00 AM 10.93 51.674 0.362 7.58 377.2 9.39
4/15/2021 4:30:00 AM 10.85 51.53 0.362 7.57 386 9.42
4/15/2021 4:45:00 AM 10.77 51.386 0.362 7.57 390.1 9.46
4/15/2021 5:00:00 AM 10.71 51.278 0.362 7.61 444.1 9.48
4/15/2021 5:15:00 AM 10.64 51.152 0.362 7.62 371.6 9.5
4/15/2021 5:30:00 AM 10.58 51.044 0.362 7.62 454.8 9.53
4/15/2021 5:45:00 AM 10.53 50.954 0.362 7.65 502.6 9.53
4/15/2021 6:00:00 AM 10.48 50.864 0.362 7.65 335.6 9.56
4/15/2021 6:15:00 AM 10.42 50.756 0.362 7.63 396.9 9.58
4/15/2021 6:30:00 AM 10.37 50.666 0.362 7.64 432.7 9.61
4/15/2021 6:45:00 AM 10.32 50.576 0.362 7.58 385 9.62
4/15/2021 7:00:00 AM 10.28 50.504 0.362 7.64 471.7 9.66
4/15/2021 7:15:00 AM 10.24 50.432 0.362 7.65 319.6 9.72
4/15/2021 7:30:00 AM 10.23 50.414 0.362 7.65 448.3 9.82
4/15/2021 7:45:00 AM 10.22 50.396 0.361 7.66 425.8 9.88
4/15/2021 8:00:00 AM 10.22 50.396 0.362 7.58 489.9 9.97
4/15/2021 8:15:00 AM 10.23 50.414 0.362 7.62 342.1 10.05
4/15/2021 8:30:00 AM 10.24 50.432 0.362 7.68 397.5 10.17
4/15/2021 8:45:00 AM 10.25 50.45 0.362 7.64 482.1 10.26
4/15/2021 9:00:00 AM 10.3 50.54 0.362 7.7 326.9 10.41
4/15/2021 9:15:00 AM 10.35 50.63 0.362 7.66 409.9 10.58
4/15/2021 9:30:00 AM 10.39 50.702 0.362 7.68 364.2 10.69
4/15/2021 9:45:00 AM 10.41 50.738 0.362 7.73 417.4 10.74
4/15/2021 10:00:00 AM 10.41 50.738 0.362 7.74 422.8 10.81
4/15/2021 10:15:00 AM 10.42 50.756 0.362 7.71 300.4 10.86
4/15/2021 10:30:00 AM 10.46 50.828 0.362 7.75 399.6 11.01
4/15/2021 10:45:00 AM 10.5 50.9 0.362 7.77 409 11.09
4/15/2021 11:00:00 AM 10.5 50.9 0.362 7.77 331.2 11.06
4/15/2021 11:15:00 AM 10.5 50.9 0.362 7.79 416.3 11.09
4/15/2021 11:30:00 AM 10.57 51.026 0.362 7.75 387.1 11.21
4/15/2021 11:45:00 AM 10.7 51.26 0.362 7.8 472.2 11.43
4/15/2021 12:00:00 PM 11.01 51.818 0.362 7.82 397.6 11.7
4/15/2021 12:15:00 PM 11.33 52.394 0.362 7.83 468.9 11.87
4/15/2021 12:30:00 PM 11.62 52.916 0.362 7.81 421.9 12.01
4/15/2021 12:45:00 PM 11.88 53.384 0.361 7.86 412.8 12.14
4/15/2021 1:00:00 PM 12.12 53.816 0.361 7.87 448.5 12.2
4/15/2021 1:15:00 PM 12.37 54.266 0.361 7.89 366.3 12.28
4/15/2021 1:30:00 PM 12.48 54.464 0.361 7.89 406.9 12.22
4/15/2021 1:45:00 PM 12.63 54.734 0.361 7.91 420.2 12.24
4/15/2021 2:00:00 PM 12.67 54.806 0.361 7.93 396.5 12.12
4/15/2021 2:15:00 PM 12.76 54.968 0.361 7.91 403.7 12.12
4/15/2021 2:30:00 PM 12.88 55.184 0.361 7.93 348.2 12.15
4/15/2021 2:45:00 PM 12.93 55.274 0.361 7.94 474 12.08
4/15/2021 3:00:00 PM 12.94 55.292 0.361 7.96 482.2 12.01
4/15/2021 3:15:00 PM 12.9 55.22 0.361 7.97 324.7 11.93
4/15/2021 3:30:00 PM 12.83 55.094 0.361 7.97 428.3 11.77
4/15/2021 3:45:00 PM 12.74 54.932 0.361 7.93 327.4 11.56
4/15/2021 4:00:00 PM 12.65 54.77 0.361 7.95 515.9 11.5
4/15/2021 4:15:00 PM 12.67 54.806 0.361 7.92 420.1 11.62
4/15/2021 4:30:00 PM 12.63 54.734 0.361 7.92 369.2 11.65
4/15/2021 4:45:00 PM 12.55 54.59 0.361 7.93 504.9 11.54
4/15/2021 5:00:00 PM 12.44 54.392 0.361 7.97 340.1 11.45
4/15/2021 5:15:00 PM 12.39 54.302 0.361 7.97 529.3 11.41
4/15/2021 5:30:00 PM 12.34 54.212 0.361 7.92 413 11.36
4/15/2021 5:45:00 PM 12.35 54.23 0.36 7.91 415.5 11.4
4/15/2021 6:00:00 PM 12.33 54.194 0.36 7.93 399.7 11.39
4/15/2021 6:15:00 PM 12.3 54.14 0.36 7.93 355.3 11.31
4/15/2021 6:30:00 PM 12.24 54.032 0.361 7.91 484.2 11.21
4/15/2021 6:45:00 PM 12.14 53.852 0.361 7.9 426.8 11.04
4/15/2021 7:00:00 PM 12.06 53.708 0.361 7.94 306.5 10.93
4/15/2021 7:15:00 PM 11.97 53.546 0.361 7.89 486.8 10.81
4/15/2021 7:30:00 PM 11.83 53.294 0.362 7.88 484.2 10.67
4/15/2021 7:45:00 PM 11.68 53.024 0.362 7.85 494 10.54
4/15/2021 8:00:00 PM 11.54 52.772 0.362 7.86 539 10.42
4/15/2021 8:15:00 PM 11.41 52.538 0.362 7.82 470.5 10.32
4/15/2021 8:30:00 PM 11.29 52.322 0.362 7.83 551.5 10.23
4/15/2021 8:45:00 PM 11.17 52.106 0.363 7.84 579.4 10.19
4/15/2021 9:00:00 PM 11.07 51.926 0.363 7.79 376.2 10.14
4/15/2021 9:15:00 PM 10.97 51.746 0.363 7.77 534.6 10.1
4/15/2021 9:30:00 PM 10.9 51.62 0.364 7.81 459.5 10.06
4/15/2021 9:45:00 PM 10.83 51.494 0.364 7.8 496.6 10.02
4/15/2021 10:00:00 PM 10.75 51.35 0.364 7.79 364.6 9.98
4/15/2021 10:15:00 PM 10.67 51.206 0.364 7.77 681.3 9.94
4/15/2021 10:30:00 PM 10.59 51.062 0.364 7.72 513.4 9.92
4/15/2021 10:45:00 PM 10.52 50.936 0.365 7.74 531.8 9.9
4/15/2021 11:00:00 PM 10.45 50.81 0.365 7.76 559.2 9.87
4/15/2021 11:15:00 PM 10.37 50.666 0.365 7.72 455.3 9.86
4/15/2021 11:30:00 PM 10.29 50.522 0.365 7.7 446.5 9.84
4/15/2021 11:45:00 PM 10.21 50.378 0.365 7.7 389 9.82
4/16/2021 12:00:00 AM 10.12 50.216 0.366 7.74 548.3 9.82
4/16/2021 12:15:00 AM 10.02 50.036 0.366 7.72 527.3 9.82
4/16/2021 12:30:00 AM 9.92 49.856 0.366 7.69 554.3 9.83
4/16/2021 12:45:00 AM 9.78 49.604 0.372 7.71 436.4 9.82
4/16/2021 1:00:00 AM 9.7 49.46 0.371 7.71 535.7 9.83
4/16/2021 1:15:00 AM 9.63 49.334 0.369 7.68 453.6 9.83
4/16/2021 1:30:00 AM 9.56 49.208 0.367 7.7 482.6 9.84
4/16/2021 1:45:00 AM 9.48 49.064 0.367 7.69 477.1 9.87
4/16/2021 2:00:00 AM 9.41 48.938 0.338 7.67 615.7 9.89
4/16/2021 2:15:00 AM 9.34 48.812 0.367 7.64 434.7 9.91
4/16/2021 2:30:00 AM 9.27 48.686 0.367 7.69 427.5 9.93
4/16/2021 2:45:00 AM 9.2 48.56 0.367 7.68 465.8 9.97
4/16/2021 3:00:00 AM 9.14 48.452 0.368 7.7 477.9 9.98
4/16/2021 3:15:00 AM 9.08 48.344 0.37 7.67 518.8 10
4/16/2021 3:30:00 AM 9.02 48.236 0.37 7.66 465 10.01
4/16/2021 3:45:00 AM 8.95 48.11 0.37 7.68 397.1 10.03
4/16/2021 4:00:00 AM 8.89 48.002 0.369 7.63 518.4 10.04
4/16/2021 4:15:00 AM 8.83 47.894 0.368 7.64 515.2 10.07
4/16/2021 4:30:00 AM 8.76 47.768 0.368 7.63 417.6 10.09
4/16/2021 4:45:00 AM 8.68 47.624 0.367 7.68 416.2 10.1
4/16/2021 5:00:00 AM 8.61 47.498 0.367 7.68 512.5 10.13
4/16/2021 5:15:00 AM 8.53 47.354 0.367 7.69 439.9 10.16
4/16/2021 5:30:00 AM 8.48 47.264 0.366 7.68 580.3 10.16
4/16/2021 5:45:00 AM 8.42 47.156 0.366 7.63 475.6 10.19
4/16/2021 6:00:00 AM 8.39 47.102 0.366 7.69 554.7 10.18
4/16/2021 6:15:00 AM 8.37 47.066 0.366 7.65 569.8 10.21
4/16/2021 6:30:00 AM 8.34 47.012 0.366 7.69 535.7 10.22
4/16/2021 6:45:00 AM 8.31 46.958 0.365 7.64 394.4 10.24
4/16/2021 7:00:00 AM 8.29 46.922 0.365 7.67 393.9 10.25
4/16/2021 7:15:00 AM 8.27 46.886 0.365 7.7 546 10.28
4/16/2021 7:30:00 AM 8.25 46.85 0.365 7.71 488.8 10.35
4/16/2021 7:45:00 AM 8.22 46.796 0.365 7.68 416.4 10.42
4/16/2021 8:00:00 AM 8.2 46.76 0.365 7.69 546.1 10.5
4/16/2021 8:15:00 AM 8.17 46.706 0.364 7.63 398.5 10.59
4/16/2021 8:30:00 AM 8.16 46.688 0.364 7.71 531 10.69
4/16/2021 8:45:00 AM 8.17 46.706 0.364 7.73 494.6 10.79
4/16/2021 9:00:00 AM 8.21 46.778 0.364 7.7 391.1 10.93
4/16/2021 9:15:00 AM 8.25 46.85 0.364 7.69 366.4 11.02
4/16/2021 9:30:00 AM 8.29 46.922 0.365 7.75 641.7 11.14
4/16/2021 9:45:00 AM 8.34 47.012